Provisional Data: Nanticoke Creek near Maine, NY


Please select a monitoring station.
Please select start date.
Please select start date.

Toggle Unit: C/F Toggle Unit: C/F
Sample Time Temperature (C) Temperature (F) Specific Conductivity (mS/cm) pH   Turbidity (NTU+) DO (mg/L)
12/11/2021 12:00:00 AM 3.04 37.472 0.14 7.23 33.98 12.78
12/11/2021 12:15:00 AM 3.02 37.436 0.14 7.28 36.22 12.79
12/11/2021 12:30:00 AM 3 37.4 0.14 7.26 31.56 12.79
12/11/2021 12:45:00 AM 2.99 37.382 0.136 7.21 34.72 12.78
12/11/2021 1:00:00 AM 2.99 37.382 0.136 7.21 28.4 12.77
12/11/2021 1:15:00 AM 2.99 37.382 0.14 7.21 29.27 12.77
12/11/2021 1:30:00 AM 2.99 37.382 0.141 7.22 30.53 12.77
12/11/2021 1:45:00 AM 3 37.4 0.136 7.24 28.88 12.77
12/11/2021 2:00:00 AM 2.99 37.382 0.141 7.24 28.27 12.76
12/11/2021 2:15:00 AM 3 37.4 0.141 7.26 28.85 12.75
12/11/2021 2:30:00 AM 3 37.4 0.134 7.2 24.82 12.74
12/11/2021 2:45:00 AM 3 37.4 0.141 7.21 24.06 12.74
12/11/2021 3:00:00 AM 3.01 37.418 0.134 7.22 22.66 12.74
12/11/2021 3:15:00 AM 3.02 37.436 0.141 7.2 22.12 12.72
12/11/2021 3:30:00 AM 3.04 37.472 0.134 7.21 20.57 12.72
12/11/2021 3:45:00 AM 3.05 37.49 0.141 7.27 18.12 12.71
12/11/2021 4:00:00 AM 3.07 37.526 0.137 7.22 15.98 12.71
12/11/2021 4:15:00 AM 3.09 37.562 0.141 7.26 14.93 12.7
12/11/2021 4:30:00 AM 3.11 37.598 0.134 7.19 13.77 12.7
12/11/2021 4:45:00 AM 3.14 37.652 0.141 7.25 12.33 12.68
12/11/2021 5:00:00 AM 3.16 37.688 0.141 7.19 11.17 12.67
12/11/2021 5:15:00 AM 3.19 37.742 0.134 7.2 10.94 12.67
12/11/2021 5:30:00 AM 3.22 37.796 0.136 7.19 10.51 12.66
12/11/2021 5:45:00 AM 3.25 37.85 0.135 7.19 9.69 12.65
12/11/2021 6:00:00 AM 3.28 37.904 0.141 7.19 7.59 12.64
12/11/2021 6:15:00 AM 3.3 37.94 0.141 7.26 7.74 12.63
12/11/2021 6:30:00 AM 3.32 37.976 0.141 7.16 7.28 12.61
12/11/2021 6:45:00 AM 3.35 38.03 0.133 7.18 8.31 12.61
12/11/2021 7:00:00 AM 3.38 38.084 0.132 7.17 7.87 12.61
12/11/2021 7:15:00 AM 3.42 38.156 0.139 7.24 7.5 12.6
12/11/2021 7:30:00 AM 3.45 38.21 0.131 7.2 8.1 12.59
12/11/2021 7:45:00 AM 3.48 38.264 0.139 7.21 7.65 12.58
12/11/2021 8:00:00 AM 3.51 38.318 0.135 7.22 8.68 12.58
12/11/2021 8:15:00 AM 3.54 38.372 0.138 7.22 7.67 12.57
12/11/2021 8:30:00 AM 3.58 38.444 0.138 7.2 7.74 12.58
12/11/2021 8:45:00 AM 3.61 38.498 0.138 7.27 7.73 12.61
12/11/2021 9:00:00 AM 3.64 38.552 0.135 7.19 8.29 12.65
12/11/2021 9:15:00 AM 3.67 38.606 0.141 7.21 9.1 12.66
12/11/2021 9:30:00 AM 3.7 38.66 0.143 7.29 7.86 12.67
12/11/2021 9:45:00 AM 3.74 38.732 0.137 7.22 8.74 12.71
12/11/2021 10:00:00 AM 3.77 38.786 0.144 7.22 8.3 12.73
12/11/2021 10:15:00 AM 3.8 38.84 0.139 7.19 9.61 12.75
12/11/2021 10:30:00 AM 3.83 38.894 0.146 7.17 12.1 12.75
12/11/2021 10:45:00 AM 3.85 38.93 0.15 7.27 20.71 12.74
12/11/2021 11:00:00 AM 3.87 38.966 0.153 7.2 52.21 12.68
12/11/2021 11:15:00 AM 3.91 39.038 0.153 7.2 249.44 12.61
12/11/2021 11:30:00 AM 3.94 39.092 0.15 7.19 101.54 12.61
12/11/2021 11:45:00 AM 3.96 39.128 0.149 7.23 82.89 12.64
12/11/2021 12:00:00 PM 3.98 39.164 0.15 7.17 60.18 12.63
12/11/2021 12:15:00 PM 3.99 39.182 0.152 7.22 62.99 12.62
12/11/2021 12:30:00 PM 4.01 39.218 0.151 7.25 46.68 12.62
12/11/2021 12:45:00 PM 4.03 39.254 0.149 7.21 53.03 12.61
12/11/2021 1:00:00 PM 4.05 39.29 0.145 7.19 61.74 12.6
12/11/2021 1:15:00 PM 4.09 39.362 0.14 7.21 59.72 12.58
12/11/2021 1:30:00 PM 4.14 39.452 0.135 7.2 59.05 12.56
12/11/2021 1:45:00 PM 4.2 39.56 0.139 7.26 56.4 12.53
12/11/2021 2:00:00 PM 4.27 39.686 0.142 7.25 54.78 12.5
12/11/2021 2:15:00 PM 4.33 39.794 0.147 7.15 59.72 12.45
12/11/2021 2:30:00 PM 4.38 39.884 0.152 7.17 63.86 12.41
12/11/2021 2:45:00 PM 4.44 39.992 0.155 7.17 79.49 12.37
12/11/2021 3:00:00 PM 4.48 40.064 0.157 7.2 92.78 12.33
12/11/2021 3:15:00 PM 4.54 40.172 0.157 7.21 91.91 12.29
12/11/2021 3:30:00 PM 4.59 40.262 0.157 7.15 96.73 12.26
12/11/2021 3:45:00 PM 4.65 40.37 0.156 7.16 91.03 12.22
12/11/2021 4:00:00 PM 4.71 40.478 0.155 7.14 91.23 12.2
12/11/2021 4:15:00 PM 4.77 40.586 0.154 7.17 89.2 12.16
12/11/2021 4:30:00 PM 4.82 40.676 0.152 7.19 93.22 12.13
12/11/2021 4:45:00 PM 4.87 40.766 0.151 7.17 87.06 12.1
12/11/2021 5:00:00 PM 4.93 40.874 0.149 7.16 82.47 12.08
12/11/2021 5:15:00 PM 4.99 40.982 0.147 7.19 76.13 12.05
12/11/2021 5:30:00 PM 5.05 41.09 0.145 7.19 69.22 12.03
12/11/2021 5:45:00 PM 5.1 41.18 0.143 7.19 63.43 12.01
12/11/2021 6:00:00 PM 5.17 41.306 0.141 7.17 53.83 11.98
12/11/2021 6:15:00 PM 5.23 41.414 0.132 7.18 48.88 11.95
12/11/2021 6:30:00 PM 5.29 41.522 0.137 7.18 47.28 11.93
12/11/2021 6:45:00 PM 5.35 41.63 0.136 7.18 43.26 11.9
12/11/2021 7:00:00 PM 5.42 41.756 0.131 7.16 38.2 11.88
12/11/2021 7:15:00 PM 5.48 41.864 0.134 7.16 36.68 11.85
12/11/2021 7:30:00 PM 5.53 41.954 0.133 7.2 34 11.84
12/11/2021 7:45:00 PM 5.57 42.026 0.132 7.19 31.85 11.83
12/11/2021 8:00:00 PM 5.61 42.098 0.131 7.19 29.82 11.81
12/11/2021 8:15:00 PM 5.64 42.152 0.131 7.16 27.67 11.79
12/11/2021 8:30:00 PM 5.66 42.188 0.13 7.15 26.06 11.78
12/11/2021 8:45:00 PM 5.68 42.224 0.129 7.19 24.96 11.77
12/11/2021 9:00:00 PM 5.69 42.242 0.129 7.18 23.37 11.77
12/11/2021 9:15:00 PM 5.69 42.242 0.128 7.13 22.02 11.76
12/11/2021 9:30:00 PM 5.69 42.242 0.128 7.14 20.94 11.76
12/11/2021 9:45:00 PM 5.68 42.224 0.128 7.18 20.86 11.75
12/11/2021 10:00:00 PM 5.66 42.188 0.127 7.17 20.46 11.75
12/11/2021 10:15:00 PM 5.64 42.152 0.127 7.18 20.58 11.75
12/11/2021 10:30:00 PM 5.62 42.116 0.127 7.12 20.67 11.75
12/11/2021 10:45:00 PM 5.59 42.062 0.127 7.18 21.01 11.75
12/11/2021 11:00:00 PM 5.56 42.008 0.128 7.13 21.7 11.75
12/11/2021 11:15:00 PM 5.54 41.972 0.128 7.18 21.94 11.75
12/11/2021 11:30:00 PM 5.5 41.9 0.128 7.17 22.17 11.75
12/11/2021 11:45:00 PM 5.46 41.828 0.128 7.13 22.34 11.76
12/12/2021 12:00:00 AM 5.41 41.738 0.129 7.14 22.1 11.76
12/12/2021 12:15:00 AM 5.38 41.684 0.125 7.16 21.55 11.77
12/12/2021 12:30:00 AM 5.33 41.594 0.122 7.13 21.58 11.78
12/12/2021 12:45:00 AM 5.29 41.522 0.129 7.17 22.14 11.79
12/12/2021 1:00:00 AM 5.25 41.45 0.129 7.17 21.09 11.8
12/12/2021 1:15:00 AM 5.2 41.36 0.129 7.13 21.22 11.82
12/12/2021 1:30:00 AM 5.15 41.27 0.13 7.14 20.75 11.83
12/12/2021 1:45:00 AM 5.11 41.198 0.13 7.17 20.75 11.85
12/12/2021 2:00:00 AM 5.07 41.126 0.13 7.17 21.06 11.86
12/12/2021 2:15:00 AM 5.03 41.054 0.13 7.17 21.02 11.87
12/12/2021 2:30:00 AM 4.99 40.982 0.13 7.14 20.93 11.89
12/12/2021 2:45:00 AM 4.95 40.91 0.13 7.17 21.08 11.9
12/12/2021 3:00:00 AM 4.9 40.82 0.13 7.17 20.9 11.92
12/12/2021 3:15:00 AM 4.84 40.712 0.13 7.11 20.47 11.93
12/12/2021 3:30:00 AM 4.77 40.586 0.123 7.14 20.06 11.96
12/12/2021 3:45:00 AM 4.71 40.478 0.126 7.14 20.24 11.98
12/12/2021 4:00:00 AM 4.65 40.37 0.123 7.12 20.05 12
12/12/2021 4:15:00 AM 4.59 40.262 0.129 7.17 19.63 12.02
12/12/2021 4:30:00 AM 4.53 40.154 0.129 7.18 19.59 12.04
12/12/2021 4:45:00 AM 4.47 40.046 0.129 7.16 19.64 12.07
12/12/2021 5:00:00 AM 4.41 39.938 0.123 7.13 17.87 12.09
12/12/2021 5:15:00 AM 4.34 39.812 0.129 7.16 19.48 12.12
12/12/2021 5:30:00 AM 4.28 39.704 0.126 7.14 18.62 12.14
12/12/2021 5:45:00 AM 4.22 39.596 0.123 7.12 18.58 12.15
12/12/2021 6:00:00 AM 4.15 39.47 0.129 7.16 18.6 12.18
12/12/2021 6:15:00 AM 4.09 39.362 0.129 7.14 18.29 12.21
12/12/2021 6:30:00 AM 4.03 39.254 0.129 7.17 17.97 12.23
12/12/2021 6:45:00 AM 3.96 39.128 0.123 7.12 17.79 12.26
12/12/2021 7:00:00 AM 3.9 39.02 0.129 7.16 17.59 12.29
12/12/2021 7:15:00 AM 3.84 38.912 0.129 7.15 17.32 12.31
12/12/2021 7:30:00 AM 3.77 38.786 0.122 7.12 17.26 12.35
12/12/2021 7:45:00 AM 3.71 38.678 0.129 7.17 16.77 12.37
12/12/2021 8:00:00 AM 3.65 38.57 0.122 7.11 16.58 12.4
12/12/2021 8:15:00 AM 3.59 38.462 0.128 7.17 16.42 12.43
12/12/2021 8:30:00 AM 3.54 38.372 0.128 7.16 16.12 12.47
12/12/2021 8:45:00 AM 3.5 38.3 0.128 7.16 25.98 12.51
12/12/2021 9:00:00 AM 3.47 38.246 0.122 7.13 18.7 12.55
12/12/2021 9:15:00 AM 3.44 38.192 0.128 7.13 16.18 12.6
12/12/2021 9:30:00 AM 3.42 38.156 0.124 7.14 16.17 12.65
12/12/2021 9:45:00 AM 3.4 38.12 0.122 7.14 17.01 12.7
12/12/2021 10:00:00 AM 3.39 38.102 0.128 7.14 14.74 12.76
12/12/2021 10:15:00 AM 3.39 38.102 0.128 7.17 14.71 12.81
12/12/2021 10:30:00 AM 3.39 38.102 0.128 7.2 14.55 12.86
12/12/2021 10:45:00 AM 3.4 38.12 0.128 7.21 14.1 12.91
12/12/2021 11:00:00 AM 3.41 38.138 0.124 7.16 14.24 12.96
12/12/2021 11:15:00 AM 3.44 38.192 0.124 7.17 14.35 13.01
12/12/2021 11:30:00 AM 3.46 38.228 0.128 7.21 13.78 13.05
12/12/2021 11:45:00 AM 3.49 38.282 0.122 7.19 13.98 13.1
12/12/2021 12:00:00 PM 3.53 38.354 0.121 7.19 14.02 13.13
12/12/2021 12:15:00 PM 3.57 38.426 0.128 7.21 13.68 13.17
12/12/2021 12:30:00 PM 3.62 38.516 0.124 7.22 13.83 13.19
12/12/2021 12:45:00 PM 3.67 38.606 0.128 7.23 13.69 13.22
12/12/2021 1:00:00 PM 3.72 38.696 0.123 7.23 13.91 13.25
12/12/2021 1:15:00 PM 3.78 38.804 0.128 7.24 13.57 13.26
12/12/2021 1:30:00 PM 3.83 38.894 0.124 7.22 13.61 13.26
12/12/2021 1:45:00 PM 3.89 39.002 0.128 7.27 13.55 13.26
12/12/2021 2:00:00 PM 3.95 39.11 0.122 7.24 13.9 13.25
12/12/2021 2:15:00 PM 4 39.2 0.122 7.23 13.71 13.24
12/12/2021 2:30:00 PM 4.05 39.29 0.128 7.28 13.02 13.23
12/12/2021 2:45:00 PM 4.09 39.362 0.122 7.25 13.52 13.21
12/12/2021 3:00:00 PM 4.12 39.416 0.124 7.26 13.41 13.17
12/12/2021 3:15:00 PM 4.14 39.452 0.128 7.28 13.27 13.14
12/12/2021 3:30:00 PM 4.15 39.47 0.122 7.23 13.31 13.1
12/12/2021 3:45:00 PM 4.16 39.488 0.122 7.24 13.36 13.06
12/12/2021 4:00:00 PM 4.16 39.488 0.122 7.22 13.14 13
12/12/2021 4:15:00 PM 4.16 39.488 0.129 7.24 12.8 12.94
12/12/2021 4:30:00 PM 4.15 39.47 0.129 7.26 12.95 12.9
12/12/2021 4:45:00 PM 4.13 39.434 0.122 7.21 13.01 12.85
12/12/2021 5:00:00 PM 4.11 39.398 0.129 7.25 12.68 12.8
12/12/2021 5:15:00 PM 4.08 39.344 0.125 7.2 13.28 12.77
12/12/2021 5:30:00 PM 4.04 39.272 0.122 7.19 13.44 12.73
12/12/2021 5:45:00 PM 4 39.2 0.129 7.21 13 12.69
12/12/2021 6:00:00 PM 3.96 39.128 0.129 7.21 13.07 12.67
12/12/2021 6:15:00 PM 3.92 39.056 0.122 7.15 13.65 12.65
12/12/2021 6:30:00 PM 3.87 38.966 0.129 7.19 14.36 12.63
12/12/2021 6:45:00 PM 3.82 38.876 0.129 7.14 14.93 12.61
12/12/2021 7:00:00 PM 3.77 38.786 0.125 7.17 15.74 12.59
12/12/2021 7:15:00 PM 3.72 38.696 0.122 7.13 15.91 12.59
12/12/2021 7:30:00 PM 3.67 38.606 0.122 7.12 15.7 12.58
12/12/2021 7:45:00 PM 3.62 38.516 0.122 7.13 15.53 12.56
12/12/2021 8:00:00 PM 3.57 38.426 0.129 7.15 14.9 12.56
12/12/2021 8:15:00 PM 3.53 38.354 0.129 7.16 14.64 12.55
12/12/2021 8:30:00 PM 3.48 38.264 0.126 7.12 14.99 12.55
12/12/2021 8:45:00 PM 3.43 38.174 0.123 7.12 14.08 12.55
12/12/2021 9:00:00 PM 3.39 38.102 0.125 7.11 14.2 12.55
12/12/2021 9:15:00 PM 3.35 38.03 0.13 7.15 14.04 12.56
12/12/2021 9:30:00 PM 3.31 37.958 0.125 7.1 13.41 12.57
12/12/2021 9:45:00 PM 3.27 37.886 0.123 7.1 13.97 12.57
12/12/2021 10:00:00 PM 3.23 37.814 0.13 7.14 13.72 12.58
12/12/2021 10:15:00 PM 3.19 37.742 0.125 7.09 13.45 12.59
12/12/2021 10:30:00 PM 3.15 37.67 0.13 7.1 12.81 12.59
12/12/2021 10:45:00 PM 3.11 37.598 0.126 7.1 13.18 12.61
12/12/2021 11:00:00 PM 3.06 37.508 0.13 7.12 12.64 12.62
12/12/2021 11:15:00 PM 3.02 37.436 0.125 7.09 13.16 12.62
12/12/2021 11:30:00 PM 2.98 37.364 0.13 7.12 12.6 12.63
12/12/2021 11:45:00 PM 2.94 37.292 0.125 7.09 12.65 12.64
12/13/2021 12:00:00 AM 2.9 37.22 0.13 7.13 12.25 12.65
12/13/2021 12:15:00 AM 2.86 37.148 0.13 7.05 12.71 12.66
12/13/2021 12:30:00 AM 2.82 37.076 0.125 7.08 12.56 12.68
12/13/2021 12:45:00 AM 2.77 36.986 0.13 7.12 12.04 12.69
12/13/2021 1:00:00 AM 2.73 36.914 0.13 7.12 11.78 12.71
12/13/2021 1:15:00 AM 2.69 36.842 0.13 7.12 11.98 12.73
12/13/2021 1:30:00 AM 2.65 36.77 0.13 7.11 11.89 12.75
12/13/2021 1:45:00 AM 2.61 36.698 0.13 7.11 11.55 12.77
12/13/2021 2:00:00 AM 2.58 36.644 0.129 7.11 11.42 12.79
12/13/2021 2:15:00 AM 2.55 36.59 0.13 7.11 11.49 12.81
12/13/2021 2:30:00 AM 2.53 36.554 0.13 7.11 11.33 12.83
12/13/2021 2:45:00 AM 2.5 36.5 0.13 7.05 11.21 12.85
12/13/2021 3:00:00 AM 2.47 36.446 0.126 7.07 11.81 12.87
12/13/2021 3:15:00 AM 2.44 36.392 0.126 7.06 11.68 12.88
12/13/2021 3:30:00 AM 2.41 36.338 0.126 7.08 11.63 12.89
12/13/2021 3:45:00 AM 2.38 36.284 0.13 7.09 11.07 12.9
12/13/2021 4:00:00 AM 2.36 36.248 0.13 7.07 11.63 12.92
12/13/2021 4:15:00 AM 2.34 36.212 0.13 7.12 11.23 12.94
12/13/2021 4:30:00 AM 2.32 36.176 0.13 7.11 11.29 12.94
12/13/2021 4:45:00 AM 2.31 36.158 0.13 7.08 10.87 12.96
12/13/2021 5:00:00 AM 2.29 36.122 0.13 7.1 10.86 12.96
12/13/2021 5:15:00 AM 2.28 36.104 0.131 7.09 11.12 12.97
12/13/2021 5:30:00 AM 2.27 36.086 0.131 7.07 10.86 12.99
12/13/2021 5:45:00 AM 2.26 36.068 0.131 7.08 11.05 12.99
12/13/2021 6:00:00 AM 2.25 36.05 0.131 7.1 10.71 13
12/13/2021 6:15:00 AM 2.25 36.05 0.131 7.08 10.72 13.01
12/13/2021 6:30:00 AM 2.24 36.032 0.131 7.1 10.61 13.02
12/13/2021 6:45:00 AM 2.23 36.014 0.131 7.1 10.53 13.03
12/13/2021 7:00:00 AM 2.23 36.014 0.131 7.04 10.12 13.03
12/13/2021 7:15:00 AM 2.23 36.014 0.131 7.1 10.32 13.04
12/13/2021 7:30:00 AM 2.23 36.014 0.125 7.05 10.91 13.04
12/13/2021 7:45:00 AM 2.23 36.014 0.132 7.1 10.3 13.05
12/13/2021 8:00:00 AM 2.23 36.014 0.131 7.09 10.21 13.07
12/13/2021 8:15:00 AM 2.23 36.014 0.132 7.1 10.23 13.09
12/13/2021 8:30:00 AM 2.24 36.032 0.132 7.09 9.97 13.13
12/13/2021 8:45:00 AM 2.26 36.068 0.132 7.11 10.19 13.18
12/13/2021 9:00:00 AM 2.29 36.122 0.132 7.11 9.96 13.23
12/13/2021 9:15:00 AM 2.32 36.176 0.132 7.12 10.13 13.29
12/13/2021 9:30:00 AM 2.35 36.23 0.125 7.08 10.49 13.35
12/13/2021 9:45:00 AM 2.38 36.284 0.125 7.11 10.39 13.38
12/13/2021 10:00:00 AM 2.42 36.356 0.125 7.12 10.2 13.43
12/13/2021 10:15:00 AM 2.47 36.446 0.125 7.13 9.94 13.48
12/13/2021 10:30:00 AM 2.52 36.536 0.132 7.17 9.55 13.52
12/13/2021 10:45:00 AM 2.58 36.644 0.127 7.13 10.09 13.56
12/13/2021 11:00:00 AM 2.64 36.752 0.125 7.16 10.06 13.6
12/13/2021 11:15:00 AM 2.7 36.86 0.131 7.19 9.19 13.64
12/13/2021 11:30:00 AM 2.78 37.004 0.131 7.2 9.15 13.66
12/13/2021 11:45:00 AM 2.85 37.13 0.131 7.21 9.19 13.7
12/13/2021 12:00:00 PM 2.92 37.256 0.131 7.17 9.21 13.73
12/13/2021 12:15:00 PM 2.99 37.382 0.131 7.24 8.94 13.76
12/13/2021 12:30:00 PM 3.07 37.526 0.131 7.24 8.76 13.78
12/13/2021 12:45:00 PM 3.14 37.652 0.124 7.21 9.46 13.8
12/13/2021 1:00:00 PM 3.21 37.778 0.131 7.26 8.75 13.81
12/13/2021 1:15:00 PM 3.27 37.886 0.131 7.26 8.51 13.81
12/13/2021 1:30:00 PM 3.35 38.03 0.124 7.23 9.16 13.81
12/13/2021 1:45:00 PM 3.43 38.174 0.131 7.25 8.3 13.8
12/13/2021 2:00:00 PM 3.51 38.318 0.127 7.27 8.78 13.79
12/13/2021 2:15:00 PM 3.59 38.462 0.131 7.29 8.14 13.78
12/13/2021 2:30:00 PM 3.66 38.588 0.126 7.26 8.74 13.77
12/13/2021 2:45:00 PM 3.73 38.714 0.131 7.31 7.9 13.74
12/13/2021 3:00:00 PM 3.79 38.822 0.124 7.26 8.61 13.7
12/13/2021 3:15:00 PM 3.85 38.93 0.124 7.28 8.57 13.65
12/13/2021 3:30:00 PM 3.9 39.02 0.13 7.3 7.73 13.59
12/13/2021 3:45:00 PM 3.94 39.092 0.124 7.26 8.28 13.52
12/13/2021 4:00:00 PM 3.97 39.146 0.13 7.28 7.48 13.44
12/13/2021 4:15:00 PM 4 39.2 0.131 7.27 7.67 13.35
12/13/2021 4:30:00 PM 4.02 39.236 0.131 7.28 7.49 13.26
12/13/2021 4:45:00 PM 4.03 39.254 0.126 7.21 7.97 13.18
12/13/2021 5:00:00 PM 4.04 39.272 0.131 7.23 7.48 13.1
12/13/2021 5:15:00 PM 4.04 39.272 0.128 7.23 8.17 13.03
12/13/2021 5:30:00 PM 4.03 39.254 0.131 7.23 7.53 12.97
12/13/2021 5:45:00 PM 4.02 39.236 0.125 7.2 8.16 12.92
12/13/2021 6:00:00 PM 4.01 39.218 0.124 7.2 8.29 12.86
12/13/2021 6:15:00 PM 3.99 39.182 0.124 7.16 8.31 12.82
12/13/2021 6:30:00 PM 3.96 39.128 0.124 7.17 8.19 12.78
12/13/2021 6:45:00 PM 3.92 39.056 0.131 7.17 7.76 12.76
12/13/2021 7:00:00 PM 3.89 39.002 0.127 7.16 8.4 12.73
12/13/2021 7:15:00 PM 3.85 38.93 0.131 7.19 8.29 12.71
12/13/2021 7:30:00 PM 3.81 38.858 0.132 7.17 8.8 12.68
12/13/2021 7:45:00 PM 3.76 38.768 0.127 7.13 9.91 12.67
12/13/2021 8:00:00 PM 3.72 38.696 0.132 7.15 9.75 12.65
12/13/2021 8:15:00 PM 3.67 38.606 0.132 7.13 10.35 12.65
12/13/2021 8:30:00 PM 3.63 38.534 0.132 7.16 10.62 12.63
12/13/2021 8:45:00 PM 3.58 38.444 0.132 7.15 11.04 12.62
12/13/2021 9:00:00 PM 3.53 38.354 0.132 7.14 10.64 12.62
12/13/2021 9:15:00 PM 3.49 38.282 0.127 7.1 11.57 12.62
12/13/2021 9:30:00 PM 3.44 38.192 0.132 7.14 11.12 12.62
12/13/2021 9:45:00 PM 3.4 38.12 0.132 7.15 11.21 12.62
12/13/2021 10:00:00 PM 3.36 38.048 0.127 7.09 12.12 12.63
12/13/2021 10:15:00 PM 3.32 37.976 0.126 7.11 11.8 12.63
12/13/2021 10:30:00 PM 3.28 37.904 0.129 7.08 12.2 12.64
12/13/2021 10:45:00 PM 3.24 37.832 0.133 7.13 12.2 12.64
12/13/2021 11:00:00 PM 3.21 37.778 0.126 7.1 12.42 12.65
12/13/2021 11:15:00 PM 3.17 37.706 0.126 7.1 12.52 12.66
12/13/2021 11:30:00 PM 3.14 37.652 0.126 7.11 13.32 12.67
12/13/2021 11:45:00 PM 3.1 37.58 0.133 7.13 12.67 12.67
12/14/2021 12:00:00 AM 3.06 37.508 0.133 7.12 13.26 12.68
12/14/2021 12:15:00 AM 3.02 37.436 0.126 7.08 13.91 12.7
12/14/2021 12:30:00 AM 2.99 37.382 0.133 7.08 13.34 12.7
12/14/2021 12:45:00 AM 2.96 37.328 0.128 7.09 13.44 12.71
12/14/2021 1:00:00 AM 2.92 37.256 0.133 7.12 13.21 12.72
12/14/2021 1:15:00 AM 2.89 37.202 0.133 7.06 12.65 12.73
12/14/2021 1:30:00 AM 2.85 37.13 0.133 7.09 12.2 12.75
12/14/2021 1:45:00 AM 2.81 37.058 0.128 7.08 11.44 12.76
12/14/2021 2:00:00 AM 2.78 37.004 0.127 7.09 10.9 12.76
12/14/2021 2:15:00 AM 2.74 36.932 0.133 7.11 10.04 12.78
12/14/2021 2:30:00 AM 2.7 36.86 0.129 7.08 9.76 12.8
12/14/2021 2:45:00 AM 2.67 36.806 0.129 7.08 9.39 12.82
12/14/2021 3:00:00 AM 2.63 36.734 0.133 7.09 8.93 12.83
12/14/2021 3:15:00 AM 2.59 36.662 0.126 7.11 9.08 12.85
12/14/2021 3:30:00 AM 2.56 36.608 0.133 7.12 8.24 12.87
12/14/2021 3:45:00 AM 2.52 36.536 0.127 7.06 8.5 12.88
12/14/2021 4:00:00 AM 2.48 36.464 0.133 7.11 7.87 12.9
12/14/2021 4:15:00 AM 2.44 36.392 0.133 7.1 7.61 12.91
12/14/2021 4:30:00 AM 2.4 36.32 0.134 7.07 7.54 12.92
12/14/2021 4:45:00 AM 2.36 36.248 0.133 7.11 8.12 12.94
12/14/2021 5:00:00 AM 2.32 36.176 0.13 7.05 7.99 12.95
12/14/2021 5:15:00 AM 2.28 36.104 0.134 7.11 7.31 12.97
12/14/2021 5:30:00 AM 2.23 36.014 0.134 7.1 7.21 12.98
12/14/2021 5:45:00 AM 2.19 35.942 0.134 7.07 7.15 13
12/14/2021 6:00:00 AM 2.15 35.87 0.134 7.11 7.08 13.03
12/14/2021 6:15:00 AM 2.11 35.798 0.134 7.11 7.31 13.04
12/14/2021 6:30:00 AM 2.08 35.744 0.134 7.11 7.34 13.06
12/14/2021 6:45:00 AM 2.06 35.708 0.134 7.04 7.28 13.07
12/14/2021 7:00:00 AM 2.02 35.636 0.134 7.1 6.99 13.1
12/14/2021 7:15:00 AM 2 35.6 0.134 7.11 6.93 13.12
12/14/2021 7:30:00 AM 1.99 35.582 0.134 7.1 6.97 13.14
12/14/2021 7:45:00 AM 1.98 35.564 0.127 7.07 7.42 13.16
12/14/2021 8:00:00 AM 1.96 35.528 0.134 7.11 6.79 13.2
12/14/2021 8:15:00 AM 1.94 35.492 0.134 7.12 6.71 13.26
12/14/2021 8:30:00 AM 1.93 35.474 0.134 7.12 6.74 13.33
12/14/2021 8:45:00 AM 1.92 35.456 0.129 7.09 7.49 13.4
12/14/2021 9:00:00 AM 1.93 35.474 0.128 7.08 7.39 13.49
12/14/2021 9:15:00 AM 1.94 35.492 0.127 7.09 7.34 13.58
12/14/2021 9:30:00 AM 1.96 35.528 0.127 7.1 7.43 13.64
12/14/2021 9:45:00 AM 1.98 35.564 0.134 7.16 6.53 13.71
12/14/2021 10:00:00 AM 2.05 35.69 0.134 7.2 6.45 13.78
12/14/2021 10:15:00 AM 2.09 35.762 0.128 7.16 7.32 13.87
12/14/2021 10:30:00 AM 2.12 35.816 0.134 7.19 6.55 13.91
12/14/2021 10:45:00 AM 2.16 35.888 0.134 7.21 6.47 13.96
12/14/2021 11:00:00 AM 2.23 36.014 0.134 7.22 6.41 14.01
12/14/2021 11:15:00 AM 2.29 36.122 0.134 7.24 6.41 14.06
12/14/2021 11:30:00 AM 2.37 36.266 0.134 7.24 6.3 14.1
12/14/2021 11:45:00 AM 2.44 36.392 0.127 7.21 7.02 14.16
12/14/2021 12:00:00 PM 2.51 36.518 0.127 7.21 6.98 14.19
12/14/2021 12:15:00 PM 2.59 36.662 0.134 7.27 6.1 14.22
12/14/2021 12:30:00 PM 2.65 36.77 0.133 7.28 6.21 14.24
12/14/2021 12:45:00 PM 2.73 36.914 0.133 7.29 6.13 14.26
12/14/2021 1:00:00 PM 2.79 37.022 0.133 7.28 6.11 14.28
12/14/2021 1:15:00 PM 2.85 37.13 0.133 7.3 6.01 14.28
12/14/2021 1:30:00 PM 2.91 37.238 0.126 7.27 6.79 14.29
12/14/2021 1:45:00 PM 2.97 37.346 0.133 7.32 6.04 14.29
12/14/2021 2:00:00 PM 3.04 37.472 0.128 7.28 6.71 14.29
12/14/2021 2:15:00 PM 3.11 37.598 0.133 7.32 5.88 14.28
12/14/2021 2:30:00 PM 3.17 37.706 0.128 7.29 6.65 14.27
12/14/2021 2:45:00 PM 3.23 37.814 0.129 7.31 6.56 14.24
12/14/2021 3:00:00 PM 3.29 37.922 0.126 7.31 6.74 14.2
12/14/2021 3:15:00 PM 3.34 38.012 0.133 7.35 5.81 14.15
12/14/2021 3:30:00 PM 3.38 38.084 0.129 7.3 6.51 14.09
12/14/2021 3:45:00 PM 3.42 38.156 0.133 7.35 5.85 14.03
12/14/2021 4:00:00 PM 3.45 38.21 0.133 7.34 5.85 13.94
12/14/2021 4:15:00 PM 3.48 38.264 0.128 7.28 6.55 13.84
12/14/2021 4:30:00 PM 3.5 38.3 0.133 7.32 5.77 13.75
12/14/2021 4:45:00 PM 3.52 38.336 0.129 7.25 6.5 13.65
12/14/2021 5:00:00 PM 3.53 38.354 0.129 7.25 6.48 13.56
12/14/2021 5:15:00 PM 3.53 38.354 0.133 7.28 5.72 13.48
12/14/2021 5:30:00 PM 3.52 38.336 0.133 7.27 5.65 13.41
12/14/2021 5:45:00 PM 3.52 38.336 0.133 7.21 5.65 13.34
12/14/2021 6:00:00 PM 3.5 38.3 0.126 7.23 6.45 13.28
12/14/2021 6:15:00 PM 3.49 38.282 0.126 7.2 6.41 13.23
12/14/2021 6:30:00 PM 3.47 38.246 0.133 7.24 5.73 13.19
12/14/2021 6:45:00 PM 3.44 38.192 0.133 7.18 5.71 13.15
12/14/2021 7:00:00 PM 3.41 38.138 0.133 7.22 5.71 13.12
12/14/2021 7:15:00 PM 3.38 38.084 0.133 7.22 5.74 13.09
12/14/2021 7:30:00 PM 3.34 38.012 0.128 7.14 6.55 13.07
12/14/2021 7:45:00 PM 3.3 37.94 0.133 7.18 5.63 13.06
12/14/2021 8:00:00 PM 3.26 37.868 0.126 7.17 6.47 13.04
12/14/2021 8:15:00 PM 3.21 37.778 0.133 7.17 5.64 13.03
12/14/2021 8:30:00 PM 3.17 37.706 0.133 7.19 5.53 13.02
12/14/2021 8:45:00 PM 3.12 37.616 0.129 7.15 6.39 13.03
12/14/2021 9:00:00 PM 3.07 37.526 0.134 7.18 5.54 13.01
12/14/2021 9:15:00 PM 3.02 37.436 0.13 7.14 6.35 13.02
12/14/2021 9:30:00 PM 2.99 37.382 0.134 7.18 5.5 13.01
12/14/2021 9:45:00 PM 2.95 37.31 0.13 7.13 6.26 13.01
12/14/2021 10:00:00 PM 2.91 37.238 0.134 7.16 5.42 13.01
12/14/2021 10:15:00 PM 2.88 37.184 0.127 7.12 6.33 13
12/14/2021 10:30:00 PM 2.84 37.112 0.134 7.16 5.47 13.01
12/14/2021 10:45:00 PM 2.8 37.04 0.134 7.1 5.53 13.01
12/14/2021 11:00:00 PM 2.77 36.986 0.134 7.12 5.37 13.01
12/14/2021 11:15:00 PM 2.73 36.914 0.128 7.11 6.28 13.02
12/14/2021 11:30:00 PM 2.7 36.86 0.135 7.14 5.45 13.02
12/14/2021 11:45:00 PM 2.67 36.806 0.135 7.14 5.52 13.03
12/15/2021 12:00:00 AM 2.64 36.752 0.129 7.1 6.25 13.03
12/15/2021 12:15:00 AM 2.61 36.698 0.128 7.12 6.34 13.04
12/15/2021 12:30:00 AM 2.57 36.626 0.135 7.15 5.5 13.04
12/15/2021 12:45:00 AM 2.55 36.59 0.135 7.14 5.45 13.05
12/15/2021 1:00:00 AM 2.52 36.536 0.135 7.14 5.51 13.05
12/15/2021 1:15:00 AM 2.49 36.482 0.135 7.14 5.51 13.06
12/15/2021 1:30:00 AM 2.46 36.428 0.135 7.14 5.45 13.06
12/15/2021 1:45:00 AM 2.44 36.392 0.129 7.09 6.33 13.07
12/15/2021 2:00:00 AM 2.41 36.338 0.128 7.08 6.23 13.08
12/15/2021 2:15:00 AM 2.38 36.284 0.135 7.14 5.4 13.08
12/15/2021 2:30:00 AM 2.36 36.248 0.128 7.09 6.1 13.08
12/15/2021 2:45:00 AM 2.32 36.176 0.128 7.09 6.29 13.09
12/15/2021 3:00:00 AM 2.29 36.122 0.135 7.13 5.31 13.1
12/15/2021 3:15:00 AM 2.26 36.068 0.135 7.13 5.51 13.11
12/15/2021 3:30:00 AM 2.24 36.032 0.128 7.1 6.38 13.11
12/15/2021 3:45:00 AM 2.21 35.978 0.135 7.09 5.55 13.12
12/15/2021 4:00:00 AM 2.18 35.924 0.135 7.12 5.45 13.13
12/15/2021 4:15:00 AM 2.16 35.888 0.135 7.12 5.38 13.15
12/15/2021 4:30:00 AM 2.13 35.834 0.135 7.12 5.41 13.15
12/15/2021 4:45:00 AM 2.11 35.798 0.135 7.1 5.32 13.16
12/15/2021 5:00:00 AM 2.08 35.744 0.135 7.12 5.31 13.18
12/15/2021 5:15:00 AM 2.06 35.708 0.128 7.07 6.11 13.19
12/15/2021 5:30:00 AM 2.03 35.654 0.135 7.12 5.34 13.19
12/15/2021 5:45:00 AM 2 35.6 0.13 7.09 6.32 13.21
12/15/2021 6:00:00 AM 1.97 35.546 0.128 7.08 6.06 13.23
12/15/2021 6:15:00 AM 1.94 35.492 0.128 7.09 6.14 13.24
12/15/2021 6:30:00 AM 1.92 35.456 0.135 7.12 5.32 13.25
12/15/2021 6:45:00 AM 1.89 35.402 0.134 7.12 5.3 13.27
12/15/2021 7:00:00 AM 1.87 35.366 0.127 7.07 6.08 13.28
12/15/2021 7:15:00 AM 1.84 35.312 0.134 7.12 5.35 13.3
12/15/2021 7:30:00 AM 1.82 35.276 0.134 7.11 5.28 13.31
12/15/2021 7:45:00 AM 1.8 35.24 0.133 7.12 5.17 13.32
12/15/2021 8:00:00 AM 1.79 35.222 0.133 7.12 5.2 13.36
12/15/2021 8:15:00 AM 1.78 35.204 0.129 7.1 6.09 13.42
12/15/2021 8:30:00 AM 1.77 35.186 0.13 7.11 6.03 13.49
12/15/2021 8:45:00 AM 1.76 35.168 0.128 7.09 6.3 13.56
12/15/2021 9:00:00 AM 1.77 35.186 0.133 7.14 5.25 13.66
12/15/2021 9:15:00 AM 1.77 35.186 0.133 7.16 5.24 13.75
12/15/2021 9:30:00 AM 1.79 35.222 0.133 7.16 5.2 13.83
12/15/2021 9:45:00 AM 1.81 35.258 0.132 7.19 4.99 13.93
12/15/2021 10:00:00 AM 1.84 35.312 0.132 7.18 5.05 14.01
12/15/2021 10:15:00 AM 1.88 35.384 0.132 7.19 5.06 14.08
12/15/2021 10:30:00 AM 1.92 35.456 0.132 7.17 5.19 14.13
12/15/2021 10:45:00 AM 1.96 35.528 0.125 7.18 6.08 14.16
12/15/2021 11:00:00 AM 2 35.6 0.125 7.18 5.79 14.19
12/15/2021 11:15:00 AM 2.03 35.654 0.132 7.24 5.07 14.2
12/15/2021 11:30:00 AM 2.06 35.708 0.132 7.25 4.98 14.21
12/15/2021 11:45:00 AM 2.1 35.78 0.132 7.25 5 14.22
12/15/2021 12:00:00 PM 2.15 35.87 0.132 7.24 4.97 14.27
12/15/2021 12:15:00 PM 2.2 35.96 0.131 7.27 4.98 14.32
12/15/2021 12:30:00 PM 2.24 36.032 0.132 7.25 4.92 14.31
12/15/2021 12:45:00 PM 2.27 36.086 0.132 7.24 5.02 14.28
12/15/2021 1:00:00 PM 2.31 36.158 0.132 7.29 4.8 14.24
12/15/2021 1:15:00 PM 2.34 36.212 0.132 7.25 4.92 14.2
12/15/2021 1:30:00 PM 2.37 36.266 0.132 7.28 4.92 14.17
12/15/2021 1:45:00 PM 2.41 36.338 0.132 7.26 4.93 14.15
12/15/2021 2:00:00 PM 2.45 36.41 0.131 7.28 5.04 14.11
12/15/2021 2:15:00 PM 2.49 36.482 0.126 7.24 5.83 14.09
12/15/2021 2:30:00 PM 2.53 36.554 0.131 7.25 5.03 14.06
12/15/2021 2:45:00 PM 2.57 36.626 0.131 7.29 5.1 14
12/15/2021 3:00:00 PM 2.61 36.698 0.131 7.26 5.18 13.93
12/15/2021 3:15:00 PM 2.65 36.77 0.126 7.24 6.17 13.86
12/15/2021 3:30:00 PM 2.69 36.842 0.13 7.26 5.46 13.8
12/15/2021 3:45:00 PM 2.73 36.914 0.126 7.23 6.11 13.74
12/15/2021 4:00:00 PM 2.77 36.986 0.13 7.25 5.56 13.71
12/15/2021 4:15:00 PM 2.81 37.058 0.13 7.25 5.71 13.66
12/15/2021 4:30:00 PM 2.83 37.094 0.13 7.24 5.69 13.59
12/15/2021 4:45:00 PM 2.86 37.148 0.13 7.24 5.72 13.54
12/15/2021 5:00:00 PM 2.89 37.202 0.123 7.2 6.62 13.48
12/15/2021 5:15:00 PM 2.91 37.238 0.123 7.17 6.42 13.43
12/15/2021 5:30:00 PM 2.94 37.292 0.13 7.22 5.63 13.39
12/15/2021 5:45:00 PM 2.97 37.346 0.125 7.16 6.5 13.35
12/15/2021 6:00:00 PM 2.99 37.382 0.13 7.19 5.7 13.31
12/15/2021 6:15:00 PM 3.02 37.436 0.124 7.17 6.6 13.27
12/15/2021 6:30:00 PM 3.04 37.472 0.131 7.19 6.12 13.25
12/15/2021 6:45:00 PM 3.06 37.508 0.132 7.15 6.54 13.22
12/15/2021 7:00:00 PM 3.08 37.544 0.132 7.18 7.02 13.19
12/15/2021 7:15:00 PM 3.1 37.58 0.128 7.16 8.51 13.17
12/15/2021 7:30:00 PM 3.12 37.616 0.133 7.18 9.57 13.15
12/15/2021 7:45:00 PM 3.14 37.652 0.129 7.14 12.56 13.13
12/15/2021 8:00:00 PM 3.17 37.706 0.133 7.17 16.79 13.11
12/15/2021 8:15:00 PM 3.2 37.76 0.129 7.14 21.48 13.09
12/15/2021 8:30:00 PM 3.23 37.814 0.132 7.17 23.51 13.07
12/15/2021 8:45:00 PM 3.26 37.868 0.128 7.13 18.48 13.05
12/15/2021 9:00:00 PM 3.29 37.922 0.125 7.15 19.18 13.04
12/15/2021 9:15:00 PM 3.32 37.976 0.131 7.16 17.72 13.02
12/15/2021 9:30:00 PM 3.35 38.03 0.128 7.16 16.33 13.01
12/15/2021 9:45:00 PM 3.38 38.084 0.125 7.15 15.6 13
12/15/2021 10:00:00 PM 3.42 38.156 0.125 7.15 14.79 12.98
12/15/2021 10:15:00 PM 3.45 38.21 0.131 7.17 14.32 12.96
12/15/2021 10:30:00 PM 3.49 38.282 0.126 7.15 14.48 12.93
12/15/2021 10:45:00 PM 3.53 38.354 0.131 7.11 14.15 12.91
12/15/2021 11:00:00 PM 3.55 38.39 0.13 7.16 13.99 12.89
12/15/2021 11:15:00 PM 3.58 38.444 0.122 7.13 14.82 12.87
12/15/2021 11:30:00 PM 3.61 38.498 0.127 7.15 14.65 12.85
12/15/2021 11:45:00 PM 3.63 38.534 0.122 7.12 15.18 12.84
12/16/2021 12:00:00 AM 3.65 38.57 0.125 7.14 15.27 12.82
12/16/2021 12:15:00 AM 3.67 38.606 0.124 7.13 15.38 12.81
12/16/2021 12:30:00 AM 3.69 38.642 0.118 7.11 16.02 12.79
12/16/2021 12:45:00 AM 3.71 38.678 0.125 7.14 16.37 12.76
12/16/2021 1:00:00 AM 3.73 38.714 0.126 7.14 17.46 12.74
12/16/2021 1:15:00 AM 3.75 38.75 0.128 7.09 18.8 12.71
12/16/2021 1:30:00 AM 3.77 38.786 0.129 7.11 19.93 12.68
12/16/2021 1:45:00 AM 3.8 38.84 0.13 7.13 21.55 12.66
12/16/2021 2:00:00 AM 3.81 38.858 0.131 7.14 21.56 12.64
12/16/2021 2:15:00 AM 3.82 38.876 0.125 7.11 20.46 12.63
12/16/2021 2:30:00 AM 3.84 38.912 0.132 7.14 21.17 12.61
12/16/2021 2:45:00 AM 3.85 38.93 0.131 7.14 21.52 12.61
12/16/2021 3:00:00 AM 3.85 38.93 0.131 7.13 20.73 12.6
12/16/2021 3:15:00 AM 3.86 38.948 0.131 7.13 20.3 12.6
12/16/2021 3:30:00 AM 3.87 38.966 0.126 7.1 20.23 12.59
12/16/2021 3:45:00 AM 3.89 39.002 0.13 7.11 19.67 12.59
12/16/2021 4:00:00 AM 3.91 39.038 0.126 7.11 19.16 12.58
12/16/2021 4:15:00 AM 3.93 39.074 0.13 7.13 20.33 12.57
12/16/2021 4:30:00 AM 3.95 39.11 0.13 7.12 20.78 12.56
12/16/2021 4:45:00 AM 3.97 39.146 0.13 7.06 22.59 12.55
12/16/2021 5:00:00 AM 3.99 39.182 0.13 7.12 22.15 12.53
12/16/2021 5:15:00 AM 4 39.2 0.13 7.11 22.43 12.51
12/16/2021 5:30:00 AM 4.01 39.218 0.124 7.09 23.05 12.5
12/16/2021 5:45:00 AM 4.03 39.254 0.13 7.12 23.18 12.49
12/16/2021 6:00:00 AM 4.04 39.272 0.123 7.1 21.47 12.47
12/16/2021 6:15:00 AM 4.06 39.308 0.13 7.11 21.9 12.46
12/16/2021 6:30:00 AM 4.08 39.344 0.13 7.12 21.13 12.46
12/16/2021 6:45:00 AM 4.09 39.362 0.129 7.12 19.96 12.46
12/16/2021 7:00:00 AM 4.11 39.398 0.129 7.12 19.66 12.45
12/16/2021 7:15:00 AM 4.13 39.434 0.128 7.12 18.04 12.44
12/16/2021 7:30:00 AM 4.15 39.47 0.121 7.08 16.46 12.43
12/16/2021 7:45:00 AM 4.16 39.488 0.124 7.08 16.18 12.43
12/16/2021 8:00:00 AM 4.18 39.524 0.127 7.08 15.21 12.43
12/16/2021 8:15:00 AM 4.2 39.56 0.127 7.1 13.95 12.45
12/16/2021 8:30:00 AM 4.22 39.596 0.127 7.08 13.11 12.47
12/16/2021 8:45:00 AM 4.24 39.632 0.126 7.12 12.81 12.52
12/16/2021 9:00:00 AM 4.26 39.668 0.126 7.13 11.86 12.57
12/16/2021 9:15:00 AM 4.29 39.722 0.126 7.14 11.35 12.62
12/16/2021 9:30:00 AM 4.33 39.794 0.126 7.15 10.75 12.67
12/16/2021 9:45:00 AM 4.38 39.884 0.121 7.13 10.77 12.73
12/16/2021 10:00:00 AM 4.43 39.974 0.125 7.15 10.4 12.79
12/16/2021 10:15:00 AM 4.49 40.082 0.125 7.18 10.07 12.85
12/16/2021 10:30:00 AM 4.57 40.226 0.125 7.19 9.8 12.91
12/16/2021 10:45:00 AM 4.66 40.388 0.121 7.17 10.32 12.98
12/16/2021 11:00:00 AM 4.71 40.478 0.121 7.2 9.82 13.02
12/16/2021 11:15:00 AM 4.78 40.604 0.125 7.2 9.09 13.06
12/16/2021 11:30:00 AM 4.85 40.73 0.125 7.21 9.24 13.1
12/16/2021 11:45:00 AM 4.93 40.874 0.125 7.24 9.2 13.14
12/16/2021 12:00:00 PM 5.02 41.036 0.125 7.24 9.07 13.18
12/16/2021 12:15:00 PM 5.13 41.234 0.125 7.24 8.94 13.21
12/16/2021 12:30:00 PM 5.24 41.432 0.125 7.3 8.96 13.23
12/16/2021 12:45:00 PM 5.36 41.648 0.125 7.25 8.82 13.26
12/16/2021 1:00:00 PM 5.49 41.882 0.125 7.31 8.79 13.27
12/16/2021 1:15:00 PM 5.6 42.08 0.125 7.34 8.68 13.29
12/16/2021 1:30:00 PM 5.72 42.296 0.125 7.35 8.74 13.29
12/16/2021 1:45:00 PM 5.83 42.494 0.125 7.32 8.89 13.29
12/16/2021 2:00:00 PM 5.95 42.71 0.125 7.38 8.8 13.28
12/16/2021 2:15:00 PM 6.04 42.872 0.125 7.33 8.83 13.26
12/16/2021 2:30:00 PM 6.14 43.052 0.125 7.4 8.83 13.21
12/16/2021 2:45:00 PM 6.23 43.214 0.125 7.39 8.82 13.17
12/16/2021 3:00:00 PM 6.3 43.34 0.125 7.39 8.88 13.12
12/16/2021 3:15:00 PM 6.37 43.466 0.125 7.39 8.87 13.04
12/16/2021 3:30:00 PM 6.45 43.61 0.125 7.38 9.01 12.98
12/16/2021 3:45:00 PM 6.5 43.7 0.125 7.33 8.99 12.88
12/16/2021 4:00:00 PM 6.55 43.79 0.125 7.33 8.97 12.77
12/16/2021 4:15:00 PM 6.6 43.88 0.126 7.35 9.23 12.66
12/16/2021 4:30:00 PM 6.63 43.934 0.126 7.32 9.31 12.55
12/16/2021 4:45:00 PM 6.65 43.97 0.126 7.26 9.39 12.45
12/16/2021 5:00:00 PM 6.68 44.024 0.126 7.29 9.7 12.34
12/16/2021 5:15:00 PM 6.7 44.06 0.126 7.25 9.94 12.25
12/16/2021 5:30:00 PM 6.72 44.096 0.126 7.26 10.67 12.16
12/16/2021 5:45:00 PM 6.73 44.114 0.126 7.25 11.41 12.09
12/16/2021 6:00:00 PM 6.74 44.132 0.126 7.23 12.44 12.02
12/16/2021 6:15:00 PM 6.75 44.15 0.126 7.23 13.78 11.95
12/16/2021 6:30:00 PM 6.76 44.168 0.126 7.2 15.13 11.89
12/16/2021 6:45:00 PM 6.76 44.168 0.126 7.14 16.49 11.84
12/16/2021 7:00:00 PM 6.76 44.168 0.126 7.21 16.41 11.79
12/16/2021 7:15:00 PM 6.76 44.168 0.126 7.19 16.49 11.74
12/16/2021 7:30:00 PM 6.76 44.168 0.126 7.19 16.57 11.7
12/16/2021 7:45:00 PM 6.76 44.168 0.126 7.17 16.73 11.66
12/16/2021 8:00:00 PM 6.76 44.168 0.127 7.12 17.76 11.63
12/16/2021 8:15:00 PM 6.76 44.168 0.126 7.17 19.56 11.6
12/16/2021 8:30:00 PM 6.77 44.186 0.126 7.16 20.14 11.57
12/16/2021 8:45:00 PM 6.78 44.204 0.126 7.16 20.8 11.54
12/16/2021 9:00:00 PM 6.8 44.24 0.126 7.15 20.67 11.51
12/16/2021 9:15:00 PM 6.82 44.276 0.126 7.15 20.14 11.5
12/16/2021 9:30:00 PM 6.84 44.312 0.126 7.15 18.86 11.47
12/16/2021 9:45:00 PM 6.85 44.33 0.126 7.1 18.44 11.45
12/16/2021 10:00:00 PM 6.87 44.366 0.127 7.09 17.33 11.43
12/16/2021 10:15:00 PM 6.89 44.402 0.126 7.13 16.53 11.41
12/16/2021 10:30:00 PM 6.92 44.456 0.127 7.13 15.35 11.4
12/16/2021 10:45:00 PM 6.94 44.492 0.127 7.12 14.52 11.38
12/16/2021 11:00:00 PM 6.96 44.528 0.127 7.12 13.4 11.37
12/16/2021 11:15:00 PM 6.98 44.564 0.127 7.06 12.6 11.35
12/16/2021 11:30:00 PM 6.99 44.582 0.127 7.13 12.21 11.34
12/16/2021 11:45:00 PM 7 44.6 0.127 7.12 11.48 11.33
12/17/2021 12:00:00 AM 7 44.6 0.127 7.1 10.92 11.32
12/17/2021 12:15:00 AM 6.99 44.582 0.127 7.11 10.93 11.32
12/17/2021 12:30:00 AM 6.99 44.582 0.127 7.11 10.4 11.31
12/17/2021 12:45:00 AM 7 44.6 0.127 7.11 10.14 11.29
12/17/2021 1:00:00 AM 7.01 44.618 0.127 7.05 10.15 11.29
12/17/2021 1:15:00 AM 6.99 44.582 0.127 7.11 9.9 11.29
12/17/2021 1:30:00 AM 6.98 44.564 0.127 7.11 9.84 11.28
12/17/2021 1:45:00 AM 6.95 44.51 0.127 7.12 9.69 11.29
12/17/2021 2:00:00 AM 6.92 44.456 0.128 7.1 9.75 11.28
12/17/2021 2:15:00 AM 6.89 44.402 0.128 7.04 9.82 11.29
12/17/2021 2:30:00 AM 6.85 44.33 0.127 7.06 9.65 11.29
12/17/2021 2:45:00 AM 6.81 44.258 0.128 7.12 9.61 11.3
12/17/2021 3:00:00 AM 6.77 44.186 0.128 7.12 9.45 11.3
12/17/2021 3:15:00 AM 6.73 44.114 0.128 7.12 9.53 11.3
12/17/2021 3:30:00 AM 6.68 44.024 0.128 7.11 9.49 11.32
12/17/2021 3:45:00 AM 6.62 43.916 0.128 7.11 9.51 11.34
12/17/2021 4:00:00 AM 6.57 43.826 0.128 7.1 9.48 11.34
12/17/2021 4:15:00 AM 6.52 43.736 0.128 7.06 9.43 11.35
12/17/2021 4:30:00 AM 6.46 43.628 0.128 7.11 9.42 11.37
12/17/2021 4:45:00 AM 6.4 43.52 0.128 7.04 9.69 11.39
12/17/2021 5:00:00 AM 6.33 43.394 0.128 7.12 9.41 11.42
12/17/2021 5:15:00 AM 6.27 43.286 0.128 7.11 9.35 11.43
12/17/2021 5:30:00 AM 6.21 43.178 0.128 7.04 9.45 11.45
12/17/2021 5:45:00 AM 6.14 43.052 0.129 7.11 9.47 11.46
12/17/2021 6:00:00 AM 6.06 42.908 0.129 7.12 9.36 11.49
12/17/2021 6:15:00 AM 5.99 42.782 0.129 7.11 9.39 11.51
12/17/2021 6:30:00 AM 5.92 42.656 0.129 7.03 9.25 11.53
12/17/2021 6:45:00 AM 5.85 42.53 0.129 7.1 9.15 11.56
12/17/2021 7:00:00 AM 5.77 42.386 0.129 7.12 9.04 11.59
12/17/2021 7:15:00 AM 5.7 42.26 0.129 7.13 8.99 11.61
12/17/2021 7:30:00 AM 5.62 42.116 0.129 7.07 8.88 11.64
12/17/2021 7:45:00 AM 5.55 41.99 0.129 7.13 8.78 11.67
12/17/2021 8:00:00 AM 5.47 41.846 0.129 7.13 9.07 11.71
12/17/2021 8:15:00 AM 5.41 41.738 0.129 7.14 8.82 11.75
12/17/2021 8:30:00 AM 5.35 41.63 0.129 7.14 8.68 11.82
12/17/2021 8:45:00 AM 5.29 41.522 0.125 7.09 9.17 11.89
12/17/2021 9:00:00 AM 5.24 41.432 0.126 7.13 9.13 11.96
12/17/2021 9:15:00 AM 5.21 41.378 0.126 7.12 9.11 12.05
12/17/2021 9:30:00 AM 5.19 41.342 0.123 7.12 9.24 12.14
12/17/2021 9:45:00 AM 5.17 41.306 0.129 7.13 8.52 12.22
12/17/2021 10:00:00 AM 5.15 41.27 0.13 7.21 8.6 12.31
12/17/2021 10:15:00 AM 5.15 41.27 0.129 7.23 8.42 12.41
12/17/2021 10:30:00 AM 5.14 41.252 0.129 7.25 8.27 12.5
12/17/2021 10:45:00 AM 5.15 41.27 0.129 7.26 8.24 12.58
12/17/2021 11:00:00 AM 5.17 41.306 0.129 7.26 8.35 12.67
12/17/2021 11:15:00 AM 5.18 41.324 0.125 7.21 8.84 12.75
12/17/2021 11:30:00 AM 5.21 41.378 0.123 7.22 8.82 12.81
12/17/2021 11:45:00 AM 5.23 41.414 0.126 7.31 8.66 12.88
12/17/2021 12:00:00 PM 5.26 41.468 0.123 7.28 8.49 12.96
12/17/2021 12:15:00 PM 5.28 41.504 0.129 7.33 7.96 13.01
12/17/2021 12:30:00 PM 5.31 41.558 0.129 7.36 7.82 13.07
12/17/2021 12:45:00 PM 5.34 41.612 0.129 7.37 7.74 13.12
12/17/2021 1:00:00 PM 5.37 41.666 0.124 7.32 8.51 13.16
12/17/2021 1:15:00 PM 5.4 41.72 0.129 7.4 7.62 13.2
12/17/2021 1:30:00 PM 5.44 41.792 0.129 7.4 7.65 13.22
12/17/2021 1:45:00 PM 5.47 41.846 0.129 7.31 7.69 13.24
12/17/2021 2:00:00 PM 5.52 41.936 0.129 7.43 7.63 13.25
12/17/2021 2:15:00 PM 5.55 41.99 0.129 7.42 7.59 13.25
12/17/2021 2:30:00 PM 5.58 42.044 0.129 7.42 7.4 13.24
12/17/2021 2:45:00 PM 5.59 42.062 0.129 7.43 7.58 13.2
12/17/2021 3:00:00 PM 5.61 42.098 0.129 7.43 7.25 13.16
12/17/2021 3:15:00 PM 5.63 42.134 0.129 7.43 7.14 13.1
12/17/2021 3:30:00 PM 5.64 42.152 0.129 7.42 7.22 13.05
12/17/2021 3:45:00 PM 5.66 42.188 0.129 7.42 7.42 13.01
12/17/2021 4:00:00 PM 5.67 42.206 0.129 7.41 7.29 12.95
12/17/2021 4:15:00 PM 5.68 42.224 0.129 7.35 7.42 12.86
12/17/2021 4:30:00 PM 5.67 42.206 0.129 7.39 7.41 12.78
12/17/2021 4:45:00 PM 5.66 42.188 0.129 7.35 7.6 12.69
12/17/2021 5:00:00 PM 5.64 42.152 0.129 7.36 7.45 12.61
12/17/2021 5:15:00 PM 5.61 42.098 0.129 7.34 7.24 12.54
12/17/2021 5:30:00 PM 5.58 42.044 0.129 7.34 7.19 12.48
12/17/2021 5:45:00 PM 5.54 41.972 0.129 7.22 7.2 12.43
12/17/2021 6:00:00 PM 5.5 41.9 0.129 7.31 7.08 12.38
12/17/2021 6:15:00 PM 5.46 41.828 0.129 7.3 6.95 12.34
12/17/2021 6:30:00 PM 5.41 41.738 0.129 7.29 6.91 12.31
12/17/2021 6:45:00 PM 5.36 41.648 0.129 7.2 6.95 12.28
12/17/2021 7:00:00 PM 5.31 41.558 0.13 7.27 6.88 12.26
12/17/2021 7:15:00 PM 5.26 41.468 0.129 7.2 6.74 12.24
12/17/2021 7:30:00 PM 5.2 41.36 0.13 7.2 6.79 12.21
12/17/2021 7:45:00 PM 5.14 41.252 0.13 7.21 6.9 12.2
12/17/2021 8:00:00 PM 5.07 41.126 0.13 7.22 6.84 12.19
12/17/2021 8:15:00 PM 5.01 41.018 0.13 7.24 6.84 12.19
12/17/2021 8:30:00 PM 4.95 40.91 0.13 7.23 6.86 12.17
12/17/2021 8:45:00 PM 4.89 40.802 0.13 7.23 6.83 12.16
12/17/2021 9:00:00 PM 4.83 40.694 0.131 7.22 6.75 12.16
12/17/2021 9:15:00 PM 4.78 40.604 0.13 7.22 6.68 12.16
12/17/2021 9:30:00 PM 4.73 40.514 0.126 7.16 7.43 12.16
12/17/2021 9:45:00 PM 4.69 40.442 0.124 7.22 7.62 12.16
12/17/2021 10:00:00 PM 4.65 40.37 0.131 7.17 6.82 12.15
12/17/2021 10:15:00 PM 4.61 40.298 0.124 7.21 7.49 12.16
12/17/2021 10:30:00 PM 4.57 40.226 0.131 7.2 6.77 12.17
12/17/2021 10:45:00 PM 4.53 40.154 0.125 7.14 7.76 12.18
12/17/2021 11:00:00 PM 4.5 40.1 0.131 7.19 6.74 12.18
12/17/2021 11:15:00 PM 4.47 40.046 0.131 7.2 6.72 12.19
12/17/2021 11:30:00 PM 4.44 39.992 0.128 7.14 7.46 12.2
12/17/2021 11:45:00 PM 4.41 39.938 0.131 7.2 6.69 12.21
12/18/2021 12:00:00 AM 4.37 39.866 0.131 7.13 6.75 12.21
12/18/2021 12:15:00 AM 4.34 39.812 0.132 7.2 6.76 12.21
12/18/2021 12:30:00 AM 4.31 39.758 0.128 7.12 7.96 12.22
12/18/2021 12:45:00 AM 4.28 39.704 0.132 7.19 6.69 12.23
12/18/2021 1:00:00 AM 4.25 39.65 0.125 7.17 7.31 12.24
12/18/2021 1:15:00 AM 4.22 39.596 0.132 7.19 6.56 12.24
12/18/2021 1:30:00 AM 4.2 39.56 0.126 7.14 7.47 12.25
12/18/2021 1:45:00 AM 4.17 39.506 0.125 7.08 7.44 12.26
12/18/2021 2:00:00 AM 4.15 39.47 0.132 7.19 6.47 12.26
12/18/2021 2:15:00 AM 4.13 39.434 0.125 7.12 7.46 12.26
12/18/2021 2:30:00 AM 4.11 39.398 0.132 7.08 6.66 12.28
12/18/2021 2:45:00 AM 4.09 39.362 0.132 7.12 6.76 12.28
12/18/2021 3:00:00 AM 4.08 39.344 0.125 7.13 7.45 12.28
12/18/2021 3:15:00 AM 4.06 39.308 0.127 7.13 7.43 12.28
12/18/2021 3:30:00 AM 4.05 39.29 0.125 7.11 7.43 12.29
12/18/2021 3:45:00 AM 4.04 39.272 0.132 7.16 6.53 12.29
12/18/2021 4:00:00 AM 4.03 39.254 0.132 7.15 6.59 12.31
12/18/2021 4:15:00 AM 4.02 39.236 0.132 7.11 6.52 12.29
12/18/2021 4:30:00 AM 4.01 39.218 0.132 7.16 6.57 12.3
12/18/2021 4:45:00 AM 4 39.2 0.125 7.11 7.55 12.32
12/18/2021 5:00:00 AM 3.99 39.182 0.132 7.16 6.45 12.32
12/18/2021 5:15:00 AM 3.98 39.164 0.133 7.17 6.66 12.31
12/18/2021 5:30:00 AM 3.97 39.146 0.128 7.1 7.38 12.33
12/18/2021 5:45:00 AM 3.96 39.128 0.132 7.17 6.59 12.33
12/18/2021 6:00:00 AM 3.95 39.11 0.126 7.1 7.39 12.33
12/18/2021 6:15:00 AM 3.94 39.092 0.133 7.09 6.57 12.33
12/18/2021 6:30:00 AM 3.94 39.092 0.128 7.11 7.39 12.34
12/18/2021 6:45:00 AM 3.93 39.074 0.126 7.09 7.35 12.34
12/18/2021 7:00:00 AM 3.92 39.056 0.133 7.14 6.53 12.35
12/18/2021 7:15:00 AM 3.91 39.038 0.133 7.17 6.51 12.36
12/18/2021 7:30:00 AM 3.91 39.038 0.129 7.12 7.47 12.36
12/18/2021 7:45:00 AM 3.9 39.02 0.133 7.14 6.44 12.37
12/18/2021 8:00:00 AM 3.9 39.02 0.133 7.17 6.44 12.38
12/18/2021 8:15:00 AM 3.9 39.02 0.133 7.1 6.43 12.42
12/18/2021 8:30:00 AM 3.9 39.02 0.133 7.19 6.36 12.47
12/18/2021 8:45:00 AM 3.9 39.02 0.127 7.1 7.28 12.52
12/18/2021 9:00:00 AM 3.9 39.02 0.126 7.1 7.25 12.59
12/18/2021 9:15:00 AM 3.92 39.056 0.134 7.14 6.16 12.7
12/18/2021 9:30:00 AM 3.92 39.056 0.131 7.17 7.11 12.75
12/18/2021 9:45:00 AM 3.92 39.056 0.137 7.23 6.32 12.76
12/18/2021 10:00:00 AM 3.93 39.074 0.133 7.24 7.03 12.82
12/18/2021 10:15:00 AM 3.93 39.074 0.135 7.16 6.24 12.86
12/18/2021 10:30:00 AM 3.93 39.074 0.134 7.19 6.12 12.92
12/18/2021 10:45:00 AM 3.94 39.092 0.134 7.24 6.1 12.95
12/18/2021 11:00:00 AM 3.95 39.11 0.128 7.21 7.05 13.02
12/18/2021 11:15:00 AM 3.96 39.128 0.126 7.2 7.13 13.07
12/18/2021 11:30:00 AM 3.97 39.146 0.126 7.26 6.72 13.11
12/18/2021 11:45:00 AM 3.98 39.164 0.133 7.2 5.93 13.16
12/18/2021 12:00:00 PM 3.99 39.182 0.133 7.3 5.91 13.2
12/18/2021 12:15:00 PM 4.01 39.218 0.133 7.3 5.82 13.23
12/18/2021 12:30:00 PM 4.02 39.236 0.128 7.32 6.56 13.25
12/18/2021 12:45:00 PM 4.03 39.254 0.125 7.24 6.65 13.26
12/18/2021 1:00:00 PM 4.03 39.254 0.132 7.32 5.77 13.25
12/18/2021 1:15:00 PM 4.04 39.272 0.125 7.23 6.57 13.26
12/18/2021 1:30:00 PM 4.05 39.29 0.132 7.32 5.64 13.26
12/18/2021 1:45:00 PM 4.06 39.308 0.132 7.27 5.73 13.26
12/18/2021 2:00:00 PM 4.07 39.326 0.132 7.33 5.62 13.24
12/18/2021 2:15:00 PM 4.08 39.344 0.127 7.29 6.63 13.24
12/18/2021 2:30:00 PM 4.09 39.362 0.125 7.27 6.64 13.21
12/18/2021 2:45:00 PM 4.1 39.38 0.131 7.33 5.77 13.18
12/18/2021 3:00:00 PM 4.11 39.398 0.125 7.28 6.71 13.14
12/18/2021 3:15:00 PM 4.12 39.416 0.131 7.32 5.8 13.09
12/18/2021 3:30:00 PM 4.12 39.416 0.131 7.32 5.78 13.05
12/18/2021 3:45:00 PM 4.13 39.434 0.125 7.25 6.61 12.99
12/18/2021 4:00:00 PM 4.13 39.434 0.128 7.25 6.65 12.95
12/18/2021 4:15:00 PM 4.14 39.452 0.131 7.29 5.98 12.9
12/18/2021 4:30:00 PM 4.14 39.452 0.131 7.29 6.06 12.85
12/18/2021 4:45:00 PM 4.14 39.452 0.124 7.19 7.06 12.81
12/18/2021 5:00:00 PM 4.14 39.452 0.125 7.17 7.32 12.76
12/18/2021 5:15:00 PM 4.15 39.47 0.128 7.19 7.48 12.72
12/18/2021 5:30:00 PM 4.15 39.47 0.132 7.26 6.83 12.69
12/18/2021 5:45:00 PM 4.15 39.47 0.132 7.17 6.95 12.66
12/18/2021 6:00:00 PM 4.16 39.488 0.132 7.2 7.45 12.62
12/18/2021 6:15:00 PM 4.16 39.488 0.125 7.18 8.79 12.6
12/18/2021 6:30:00 PM 4.16 39.488 0.132 7.21 8.02 12.57
12/18/2021 6:45:00 PM 4.17 39.506 0.125 7.15 9.37 12.55
12/18/2021 7:00:00 PM 4.17 39.506 0.132 7.19 8.99 12.53
12/18/2021 7:15:00 PM 4.18 39.524 0.125 7.13 9.78 12.51
12/18/2021 7:30:00 PM 4.18 39.524 0.132 7.19 9.42 12.49
12/18/2021 7:45:00 PM 4.19 39.542 0.125 7.17 10.22 12.48
12/18/2021 8:00:00 PM 4.19 39.542 0.132 7.15 9.62 12.47
12/18/2021 8:15:00 PM 4.2 39.56 0.132 7.18 9.62 12.46
12/18/2021 8:30:00 PM 4.2 39.56 0.129 7.15 10.43 12.45
12/18/2021 8:45:00 PM 4.21 39.578 0.132 7.19 10.3 12.45
12/18/2021 9:00:00 PM 4.22 39.596 0.125 7.13 10.9 12.44
12/18/2021 9:15:00 PM 4.22 39.596 0.132 7.14 11.06 12.44
12/18/2021 9:30:00 PM 4.23 39.614 0.131 7.17 11.17 12.44
12/18/2021 9:45:00 PM 4.24 39.632 0.124 7.15 11.68 12.43
12/18/2021 10:00:00 PM 4.25 39.65 0.13 7.12 11.16 12.42
12/18/2021 10:15:00 PM 4.26 39.668 0.13 7.16 11.26 12.42
12/18/2021 10:30:00 PM 4.27 39.686 0.13 7.11 11.59 12.42
12/18/2021 10:45:00 PM 4.27 39.686 0.126 7.12 12.31 12.4
12/18/2021 11:00:00 PM 4.28 39.704 0.13 7.15 11.84 12.39
12/18/2021 11:15:00 PM 4.28 39.704 0.13 7.15 13.51 12.38
12/18/2021 11:30:00 PM 4.28 39.704 0.13 7.14 24.86 12.38
12/18/2021 11:45:00 PM 4.27 39.686 0.131 7.09 13.72 12.38
12/19/2021 12:00:00 AM 4.26 39.668 0.127 7.12 13.29 12.38
12/19/2021 12:15:00 AM 4.25 39.65 0.131 7.09 13.47 12.37
12/19/2021 12:30:00 AM 4.23 39.614 0.13 7.15 14.33 12.38
12/19/2021 12:45:00 AM 4.22 39.596 0.124 7.11 15.12 12.38
12/19/2021 1:00:00 AM 4.21 39.578 0.13 7.16 15.4 12.39
12/19/2021 1:15:00 AM 4.19 39.542 0.123 7.11 16.22 12.4
12/19/2021 1:30:00 AM 4.17 39.506 0.13 7.17 16.68 12.41
12/19/2021 1:45:00 AM 4.16 39.488 0.129 7.16 17.25 12.41
12/19/2021 2:00:00 AM 4.13 39.434 0.126 7.14 18.07 12.42
12/19/2021 2:15:00 AM 4.11 39.398 0.123 7.13 18.56 12.44
12/19/2021 2:30:00 AM 4.09 39.362 0.129 7.13 18.54 12.45
12/19/2021 2:45:00 AM 4.06 39.308 0.129 7.18 19.02 12.46
12/19/2021 3:00:00 AM 4.03 39.254 0.129 7.17 19.31 12.47
12/19/2021 3:15:00 AM 3.99 39.182 0.125 7.15 19.13 12.48
12/19/2021 3:30:00 AM 3.97 39.146 0.122 7.09 19.94 12.49
12/19/2021 3:45:00 AM 3.94 39.092 0.121 7.14 20.42 12.5
12/19/2021 4:00:00 AM 3.91 39.038 0.127 7.18 19.16 12.51
12/19/2021 4:15:00 AM 3.89 39.002 0.12 7.14 18.39 12.51
12/19/2021 4:30:00 AM 3.85 38.93 0.126 7.1 18.67 12.53
12/19/2021 4:45:00 AM 3.82 38.876 0.126 7.15 18.5 12.53
12/19/2021 5:00:00 AM 3.76 38.768 0.122 7.16 18.23 12.55
12/19/2021 5:15:00 AM 3.73 38.714 0.125 7.2 18.08 12.55
12/19/2021 5:30:00 AM 3.69 38.642 0.119 7.15 17.71 12.56
12/19/2021 5:45:00 AM 3.64 38.552 0.125 7.11 17.65 12.57
12/19/2021 6:00:00 AM 3.6 38.48 0.125 7.18 17.59 12.58
12/19/2021 6:15:00 AM 3.55 38.39 0.125 7.14 17.58 12.59
12/19/2021 6:30:00 AM 3.5 38.3 0.125 7.21 17.31 12.6
12/19/2021 6:45:00 AM 3.46 38.228 0.125 7.18 17.15 12.62
12/19/2021 7:00:00 AM 3.42 38.156 0.118 7.17 16.94 12.63
12/19/2021 7:15:00 AM 3.38 38.084 0.125 7.2 16.72 12.65
12/19/2021 7:30:00 AM 3.34 38.012 0.121 7.18 16.43 12.66
12/19/2021 7:45:00 AM 3.3 37.94 0.124 7.2 15.91 12.69
12/19/2021 8:00:00 AM 3.26 37.868 0.118 7.14 15.63 12.71
12/19/2021 8:15:00 AM 3.22 37.796 0.124 7.12 15.28 12.73
12/19/2021 8:30:00 AM 3.19 37.742 0.124 7.22 14.59 12.76
12/19/2021 8:45:00 AM 3.16 37.688 0.123 7.13 14.38 12.78
12/19/2021 9:00:00 AM 3.12 37.616 0.123 7.15 13.9 12.81
12/19/2021 9:15:00 AM 3.08 37.544 0.119 7.17 13.92 12.83
12/19/2021 9:30:00 AM 3.05 37.49 0.122 7.19 13.16 12.87
12/19/2021 9:45:00 AM 3.02 37.436 0.116 7.17 13.31 12.91
12/19/2021 10:00:00 AM 2.99 37.382 0.121 7.14 12.28 12.94
12/19/2021 10:15:00 AM 2.97 37.346 0.115 7.17 12.36 12.97
12/19/2021 10:30:00 AM 2.96 37.328 0.121 7.22 11.59 13.03
12/19/2021 10:45:00 AM 2.95 37.31 0.121 7.22 11.34 13.08
12/19/2021 11:00:00 AM 2.94 37.292 0.117 7.18 11.58 13.15
12/19/2021 11:15:00 AM 2.92 37.256 0.12 7.15 10.65 13.2
12/19/2021 11:30:00 AM 2.92 37.256 0.12 7.25 10.63 13.26
12/19/2021 11:45:00 AM 2.91 37.238 0.12 7.15 10.58 13.31
12/19/2021 12:00:00 PM 2.9 37.22 0.116 7.21 10.87 13.36
12/19/2021 12:15:00 PM 2.9 37.22 0.119 7.2 10.1 13.41
12/19/2021 12:30:00 PM 2.9 37.22 0.119 7.21 9.74 13.47
12/19/2021 12:45:00 PM 2.91 37.238 0.113 7.24 10.16 13.53
12/19/2021 1:00:00 PM 2.92 37.256 0.118 7.3 9.47 13.58
12/19/2021 1:15:00 PM 2.93 37.274 0.118 7.21 9.32 13.63
12/19/2021 1:30:00 PM 2.95 37.31 0.115 7.31 9.83 13.69
12/19/2021 1:45:00 PM 2.96 37.328 0.118 7.22 9.14 13.73
12/19/2021 2:00:00 PM 2.96 37.328 0.112 7.28 9.73 13.75
12/19/2021 2:15:00 PM 2.95 37.31 0.117 7.32 9.03 13.75
12/19/2021 2:30:00 PM 2.93 37.274 0.117 7.29 8.93 13.73
12/19/2021 2:45:00 PM 2.92 37.256 0.117 7.27 8.8 13.72
12/19/2021 3:00:00 PM 2.92 37.256 0.111 7.29 9.65 13.7
12/19/2021 3:15:00 PM 2.91 37.238 0.117 7.31 8.75 13.67
12/19/2021 3:30:00 PM 2.9 37.22 0.117 7.34 8.72 13.65
12/19/2021 3:45:00 PM 2.89 37.202 0.111 7.26 9.73 13.63
12/19/2021 4:00:00 PM 2.88 37.184 0.117 7.31 8.88 13.59
12/19/2021 4:15:00 PM 2.86 37.148 0.113 7.29 9.33 13.55
12/19/2021 4:30:00 PM 2.84 37.112 0.117 7.34 8.75 13.51
12/19/2021 4:45:00 PM 2.82 37.076 0.117 7.22 8.96 13.47
12/19/2021 5:00:00 PM 2.8 37.04 0.117 7.25 9.15 13.43
12/19/2021 5:15:00 PM 2.77 36.986 0.118 7.3 9.02 13.4
12/19/2021 5:30:00 PM 2.75 36.95 0.112 7.23 9.62 13.36
12/19/2021 5:45:00 PM 2.72 36.896 0.118 7.29 9.04 13.32
12/19/2021 6:00:00 PM 2.69 36.842 0.118 7.26 8.79 13.3
12/19/2021 6:15:00 PM 2.67 36.806 0.118 7.2 8.93 13.27
12/19/2021 6:30:00 PM 2.64 36.752 0.118 7.26 9.08 13.26
12/19/2021 6:45:00 PM 2.62 36.716 0.118 7.23 8.98 13.23
12/19/2021 7:00:00 PM 2.6 36.68 0.115 7.17 9.64 13.22
12/19/2021 7:15:00 PM 2.58 36.644 0.118 7.16 8.89 13.21
12/19/2021 7:30:00 PM 2.56 36.608 0.118 7.17 8.82 13.19
12/19/2021 7:45:00 PM 2.54 36.572 0.118 7.16 8.64 13.19
12/19/2021 8:00:00 PM 2.51 36.518 0.118 7.15 8.98 13.18
12/19/2021 8:15:00 PM 2.49 36.482 0.119 7.17 8.83 13.18
12/19/2021 8:30:00 PM 2.47 36.446 0.119 7.18 8.89 13.17
12/19/2021 8:45:00 PM 2.45 36.41 0.115 7.16 9.63 13.17
12/19/2021 9:00:00 PM 2.44 36.392 0.113 7.14 9.55 13.17
12/19/2021 9:15:00 PM 2.42 36.356 0.119 7.16 8.95 13.16
12/19/2021 9:30:00 PM 2.41 36.338 0.113 7.21 9.58 13.16
12/19/2021 9:45:00 PM 2.39 36.302 0.119 7.11 8.99 13.16
12/19/2021 10:00:00 PM 2.37 36.266 0.115 7.16 9.74 13.16
12/19/2021 10:15:00 PM 2.35 36.23 0.115 7.11 9.77 13.16
12/19/2021 10:30:00 PM 2.32 36.176 0.115 7.14 10.03 13.16
12/19/2021 10:45:00 PM 2.29 36.122 0.119 7.2 9.05 13.17
12/19/2021 11:00:00 PM 2.26 36.068 0.119 7.18 8.88 13.18
12/19/2021 11:15:00 PM 2.23 36.014 0.119 7.09 8.94 13.18
12/19/2021 11:30:00 PM 2.2 35.96 0.12 7.19 8.72 13.19
12/19/2021 11:45:00 PM 2.18 35.924 0.115 7.13 9.37 13.2
12/20/2021 12:00:00 AM 2.15 35.87 0.12 7.15 8.81 13.2
12/20/2021 12:15:00 AM 2.13 35.834 0.12 7.12 8.97 13.21
12/20/2021 12:30:00 AM 2.1 35.78 0.12 7.18 8.92 13.21
12/20/2021 12:45:00 AM 2.07 35.726 0.12 7.11 8.95 13.22
12/20/2021 1:00:00 AM 2.05 35.69 0.12 7.12 8.73 13.23
12/20/2021 1:15:00 AM 2.03 35.654 0.12 7.15 8.82 13.24
12/20/2021 1:30:00 AM 2 35.6 0.121 7.1 8.95 13.25
12/20/2021 1:45:00 AM 1.97 35.546 0.121 7.18 8.94 13.25
12/20/2021 2:00:00 AM 1.95 35.51 0.121 7.18 8.96 13.26
12/20/2021 2:15:00 AM 1.92 35.456 0.121 7.08 8.94 13.27
12/20/2021 2:30:00 AM 1.9 35.42 0.121 7.18 8.82 13.28
12/20/2021 2:45:00 AM 1.87 35.366 0.116 7.07 9.53 13.29
12/20/2021 3:00:00 AM 1.83 35.294 0.115 7.11 9.42 13.3
12/20/2021 3:15:00 AM 1.79 35.222 0.115 7.11 9.65 13.31
12/20/2021 3:30:00 AM 1.75 35.15 0.122 7.17 8.89 13.31
12/20/2021 3:45:00 AM 1.71 35.078 0.122 7.17 8.67 13.32
12/20/2021 4:00:00 AM 1.67 35.006 0.122 7.09 8.44 13.32
12/20/2021 4:15:00 AM 1.64 34.952 0.117 7.1 9.38 13.34
12/20/2021 4:30:00 AM 1.6 34.88 0.122 7.17 8.45 13.35
12/20/2021 4:45:00 AM 1.56 34.808 0.122 7.15 8.43 13.36
12/20/2021 5:00:00 AM 1.52 34.736 0.122 7.15 8.58 13.36
12/20/2021 5:15:00 AM 1.48 34.664 0.119 7.16 9.12 13.38
12/20/2021 5:30:00 AM 1.44 34.592 0.122 7.15 8.53 13.39
12/20/2021 5:45:00 AM 1.4 34.52 0.122 7.08 8.53 13.4
12/20/2021 6:00:00 AM 1.36 34.448 0.116 7.09 9.16 13.42
12/20/2021 6:15:00 AM 1.32 34.376 0.117 7.08 9.07 13.43
12/20/2021 6:30:00 AM 1.27 34.286 0.123 7.08 8.31 13.45
12/20/2021 6:45:00 AM 1.23 34.214 0.119 7.08 9.13 13.46
12/20/2021 7:00:00 AM 1.19 34.142 0.12 7.09 9.27 13.48
12/20/2021 7:15:00 AM 1.15 34.07 0.12 7.1 9.06 13.49
12/20/2021 7:30:00 AM 1.1 33.98 0.123 7.12 8.22 13.51
12/20/2021 7:45:00 AM 1.07 33.926 0.118 7.08 9.04 13.52
12/20/2021 8:00:00 AM 1.03 33.854 0.124 7.14 8.07 13.55
12/20/2021 8:15:00 AM 1.01 33.818 0.124 7.07 8.16 13.6
12/20/2021 8:30:00 AM 1 33.8 0.124 7.09 8.15 13.66
12/20/2021 8:45:00 AM 1 33.8 0.125 7.16 8.29 13.73
12/20/2021 9:00:00 AM 0.99 33.782 0.125 7.15 8.18 13.78
12/20/2021 9:15:00 AM 0.99 33.782 0.125 7.18 8.13 13.85
12/20/2021 9:30:00 AM 0.99 33.782 0.125 7.12 8.18 13.89
12/20/2021 9:45:00 AM 1.01 33.818 0.125 7.22 8.12 13.96
12/20/2021 10:00:00 AM 1.02 33.836 0.125 7.14 8.09 14.03
12/20/2021 10:15:00 AM 1.05 33.89 0.125 7.25 8.08 14.11
12/20/2021 10:30:00 AM 1.08 33.944 0.125 7.15 8.6 14.17
12/20/2021 10:45:00 AM 1.13 34.034 0.119 7.21 8.81 14.23
12/20/2021 11:00:00 AM 1.19 34.142 0.118 7.19 8.69 14.31
12/20/2021 11:15:00 AM 1.23 34.214 0.125 7.29 7.99 14.35
12/20/2021 11:30:00 AM 1.29 34.322 0.125 7.18 7.94 14.39
12/20/2021 11:45:00 AM 1.35 34.43 0.125 7.24 7.97 14.45
12/20/2021 12:00:00 PM 1.42 34.556 0.124 7.32 7.98 14.47
12/20/2021 12:15:00 PM 1.54 34.772 0.124 7.33 7.91 14.5
12/20/2021 12:30:00 PM 1.67 35.006 0.124 7.23 7.73 14.54
12/20/2021 12:45:00 PM 1.74 35.132 0.124 7.28 7.58 14.56
12/20/2021 1:00:00 PM 1.77 35.186 0.12 7.32 8.07 14.56
12/20/2021 1:15:00 PM 1.83 35.294 0.118 7.31 8.16 14.58
12/20/2021 1:30:00 PM 1.9 35.42 0.118 7.29 8.27 14.59
12/20/2021 1:45:00 PM 1.95 35.51 0.124 7.37 7.69 14.58
12/20/2021 2:00:00 PM 2.01 35.618 0.124 7.3 7.66 14.57
12/20/2021 2:15:00 PM 2.07 35.726 0.124 7.39 7.4 14.56
12/20/2021 2:30:00 PM 2.11 35.798 0.124 7.31 7.37 14.53
12/20/2021 2:45:00 PM 2.17 35.906 0.124 7.33 7.5 14.52
12/20/2021 3:00:00 PM 2.23 36.014 0.124 7.33 7.44 14.49
12/20/2021 3:15:00 PM 2.29 36.122 0.123 7.36 7.54 14.45
12/20/2021 3:30:00 PM 2.32 36.176 0.124 7.41 7.77 14.4
12/20/2021 3:45:00 PM 2.34 36.212 0.117 7.24 8.5 14.32
12/20/2021 4:00:00 PM 2.35 36.23 0.117 7.29 8.76 14.23
12/20/2021 4:15:00 PM 2.35 36.23 0.124 7.39 8.26 14.14
12/20/2021 4:30:00 PM 2.35 36.23 0.124 7.37 8.52 14.05
12/20/2021 4:45:00 PM 2.35 36.23 0.118 7.36 9.19 13.97
12/20/2021 5:00:00 PM 2.32 36.176 0.124 7.35 8.47 13.9
12/20/2021 5:15:00 PM 2.3 36.14 0.124 7.32 8.36 13.83
12/20/2021 5:30:00 PM 2.27 36.086 0.124 7.34 7.95 13.76
12/20/2021 5:45:00 PM 2.23 36.014 0.125 7.26 8.12 13.7
12/20/2021 6:00:00 PM 2.2 35.96 0.125 7.31 7.39 13.65
12/20/2021 6:15:00 PM 2.16 35.888 0.125 7.19 7.39 13.61
12/20/2021 6:30:00 PM 2.12 35.816 0.125 7.24 7.25 13.57
12/20/2021 6:45:00 PM 2.08 35.744 0.125 7.29 7.22 13.52
12/20/2021 7:00:00 PM 2.04 35.672 0.125 7.28 7.11 13.5
12/20/2021 7:15:00 PM 2 35.6 0.126 7.23 7.14 13.47
12/20/2021 7:30:00 PM 1.96 35.528 0.126 7.24 7.26 13.45
12/20/2021 7:45:00 PM 1.93 35.474 0.126 7.2 7.11 13.42
12/20/2021 8:00:00 PM 1.9 35.42 0.12 7.14 8.04 13.4
12/20/2021 8:15:00 PM 1.87 35.366 0.126 7.24 7.25 13.39
12/20/2021 8:30:00 PM 1.84 35.312 0.126 7.13 7.71 13.36
12/20/2021 8:45:00 PM 1.81 35.258 0.126 7.24 8.04 13.35
12/20/2021 9:00:00 PM 1.78 35.204 0.126 7.2 8.3 13.34
12/20/2021 9:15:00 PM 1.75 35.15 0.127 7.22 7.83 13.33
12/20/2021 9:30:00 PM 1.72 35.096 0.127 7.18 7.86 13.32
12/20/2021 9:45:00 PM 1.7 35.06 0.127 7.17 7.59 13.31
12/20/2021 10:00:00 PM 1.67 35.006 0.127 7.19 7.47 13.3
12/20/2021 10:15:00 PM 1.65 34.97 0.127 7.21 7.54 13.3
12/20/2021 10:30:00 PM 1.62 34.916 0.127 7.09 7.51 13.3
12/20/2021 10:45:00 PM 1.6 34.88 0.127 7.21 7.54 13.29
12/20/2021 11:00:00 PM 1.57 34.826 0.127 7.08 7.81 13.29
12/20/2021 11:15:00 PM 1.55 34.79 0.128 7.2 7.68 13.28
12/20/2021 11:30:00 PM 1.52 34.736 0.128 7.11 7.51 13.29
12/20/2021 11:45:00 PM 1.49 34.682 0.128 7.12 7.67 13.28
12/21/2021 12:00:00 AM 1.47 34.646 0.128 7.2 7.69 13.29
12/21/2021 12:15:00 AM 1.44 34.592 0.128 7.11 7.64 13.3
12/21/2021 12:30:00 AM 1.41 34.538 0.121 7.11 8.21 13.3
12/21/2021 12:45:00 AM 1.38 34.484 0.128 7.19 7.21 13.3
12/21/2021 1:00:00 AM 1.35 34.43 0.125 7.19 7.88 13.32
12/21/2021 1:15:00 AM 1.31 34.358 0.128 7.1 7.22 13.32
12/21/2021 1:30:00 AM 1.28 34.304 0.123 7.08 7.7 13.33
12/21/2021 1:45:00 AM 1.25 34.25 0.122 7.1 7.8 13.33
12/21/2021 2:00:00 AM 1.23 34.214 0.128 7.19 6.82 13.35
12/21/2021 2:15:00 AM 1.2 34.16 0.128 7.07 6.92 13.36
12/21/2021 2:30:00 AM 1.17 34.106 0.128 7.18 6.94 13.35
12/21/2021 2:45:00 AM 1.15 34.07 0.129 7.18 6.72 13.37
12/21/2021 3:00:00 AM 1.12 34.016 0.124 7.11 7.6 13.37
12/21/2021 3:15:00 AM 1.1 33.98 0.122 7.08 7.5 13.39
12/21/2021 3:30:00 AM 1.08 33.944 0.129 7.06 6.51 13.39
12/21/2021 3:45:00 AM 1.05 33.89 0.129 7.1 6.64 13.4
12/21/2021 4:00:00 AM 1.04 33.872 0.122 7.09 7.37 13.41
12/21/2021 4:15:00 AM 1.03 33.854 0.129 7.18 6.48 13.41
12/21/2021 4:30:00 AM 1.02 33.836 0.129 7.08 6.64 13.42
12/21/2021 4:45:00 AM 1.01 33.818 0.129 7.16 6.44 13.42
12/21/2021 5:00:00 AM 1 33.8 0.129 7.17 6.64 13.43
12/21/2021 5:15:00 AM 0.99 33.782 0.129 7.17 6.64 13.44
12/21/2021 5:30:00 AM 0.99 33.782 0.129 7.07 6.51 13.45
12/21/2021 5:45:00 AM 0.98 33.764 0.13 7.1 6.48 13.45
12/21/2021 6:00:00 AM 0.98 33.764 0.13 7.09 6.44 13.45
12/21/2021 6:15:00 AM 0.98 33.764 0.125 7.08 7.43 13.46
12/21/2021 6:30:00 AM 0.97 33.746 0.13 7.08 6.59 13.47
12/21/2021 6:45:00 AM 0.96 33.728 0.13 7.17 6.3 13.47
12/21/2021 7:00:00 AM 0.95 33.71 0.13 7.13 6.33 13.47
12/21/2021 7:15:00 AM 0.93 33.674 0.13 7.09 6.42 13.48
12/21/2021 7:30:00 AM 0.91 33.638 0.13 7.08 6.5 13.48
12/21/2021 7:45:00 AM 0.9 33.62 0.13 7.08 6.63 13.5
12/21/2021 8:00:00 AM 0.89 33.602 0.131 7.11 6.66 13.54
12/21/2021 8:15:00 AM 0.9 33.62 0.13 7.18 6.76 13.6
12/21/2021 8:30:00 AM 0.9 33.62 0.13 7.18 6.79 13.67
12/21/2021 8:45:00 AM 0.92 33.656 0.13 7.19 6.51 13.75
12/21/2021 9:00:00 AM 0.94 33.692 0.13 7.08 6.37 13.83
12/21/2021 9:15:00 AM 0.97 33.746 0.13 7.18 6.41 13.9
12/21/2021 9:30:00 AM 1 33.8 0.13 7.15 6.46 13.98
12/21/2021 9:45:00 AM 1.03 33.854 0.123 7.16 7.23 14.03
12/21/2021 10:00:00 AM 1.06 33.908 0.13 7.24 6.56 14.1
12/21/2021 10:15:00 AM 1.1 33.98 0.13 7.25 6.21 14.16
12/21/2021 10:30:00 AM 1.13 34.034 0.123 7.15 7.06 14.21
12/21/2021 10:45:00 AM 1.18 34.124 0.13 7.25 6.07 14.27
12/21/2021 11:00:00 AM 1.23 34.214 0.13 7.28 5.98 14.31
12/21/2021 11:15:00 AM 1.31 34.358 0.125 7.21 6.9 14.36
12/21/2021 11:30:00 AM 1.37 34.466 0.13 7.3 6.04 14.41
12/21/2021 11:45:00 AM 1.45 34.61 0.129 7.25 5.96 14.45
12/21/2021 12:00:00 PM 1.52 34.736 0.129 7.33 6.04 14.5
12/21/2021 12:15:00 PM 1.59 34.862 0.129 7.34 6.07 14.52
12/21/2021 12:30:00 PM 1.67 35.006 0.129 7.22 6.3 14.54
12/21/2021 12:45:00 PM 1.75 35.15 0.129 7.35 5.96 14.56
12/21/2021 1:00:00 PM 1.81 35.258 0.129 7.33 5.8 14.57
12/21/2021 1:15:00 PM 1.86 35.348 0.129 7.28 6.01 14.57
12/21/2021 1:30:00 PM 1.92 35.456 0.129 7.38 6.15 14.56
12/21/2021 1:45:00 PM 1.98 35.564 0.129 7.26 6.11 14.55
12/21/2021 2:00:00 PM 2.04 35.672 0.129 7.3 6.1 14.52
12/21/2021 2:15:00 PM 2.13 35.834 0.129 7.4 6.02 14.5
12/21/2021 2:30:00 PM 2.19 35.942 0.129 7.31 6.04 14.48
12/21/2021 2:45:00 PM 2.25 36.05 0.128 7.38 5.86 14.44
12/21/2021 3:00:00 PM 2.3 36.14 0.123 7.34 6.56 14.39
12/21/2021 3:15:00 PM 2.34 36.212 0.129 7.39 5.84 14.34
12/21/2021 3:30:00 PM 2.37 36.266 0.129 7.32 5.8 14.25
12/21/2021 3:45:00 PM 2.4 36.32 0.122 7.33 6.69 14.18
12/21/2021 4:00:00 PM 2.43 36.374 0.128 7.34 5.7 14.1
12/21/2021 4:15:00 PM 2.45 36.41 0.129 7.39 5.72 14.01
12/21/2021 4:30:00 PM 2.47 36.446 0.129 7.33 5.65 13.93
12/21/2021 4:45:00 PM 2.48 36.464 0.129 7.3 5.61 13.83
12/21/2021 5:00:00 PM 2.49 36.482 0.129 7.34 5.65 13.74
12/21/2021 5:15:00 PM 2.48 36.464 0.122 7.26 6.35 13.66
12/21/2021 5:30:00 PM 2.47 36.446 0.122 7.23 6.38 13.58
12/21/2021 5:45:00 PM 2.46 36.428 0.129 7.31 5.6 13.52
12/21/2021 6:00:00 PM 2.44 36.392 0.125 7.16 6.49 13.46
12/21/2021 6:15:00 PM 2.41 36.338 0.13 7.3 5.6 13.41
12/21/2021 6:30:00 PM 2.39 36.302 0.126 7.28 6.5 13.36
12/21/2021 6:45:00 PM 2.36 36.248 0.13 7.17 5.69 13.31
12/21/2021 7:00:00 PM 2.33 36.194 0.13 7.27 5.54 13.28
12/21/2021 7:15:00 PM 2.3 36.14 0.123 7.18 6.38 13.23
12/21/2021 7:30:00 PM 2.27 36.086 0.13 7.18 5.6 13.21
12/21/2021 7:45:00 PM 2.24 36.032 0.13 7.24 5.63 13.18
12/21/2021 8:00:00 PM 2.2 35.96 0.126 7.16 6.42 13.15
12/21/2021 8:15:00 PM 2.16 35.888 0.13 7.23 5.65 13.13
12/21/2021 8:30:00 PM 2.12 35.816 0.13 7.17 5.74 13.11
12/21/2021 8:45:00 PM 2.09 35.762 0.13 7.17 5.8 13.09
12/21/2021 9:00:00 PM 2.05 35.69 0.13 7.22 5.72 13.08
12/21/2021 9:15:00 PM 2.01 35.618 0.13 7.17 5.61 13.08
12/21/2021 9:30:00 PM 1.98 35.564 0.13 7.21 5.67 13.07
12/21/2021 9:45:00 PM 1.95 35.51 0.13 7.21 5.68 13.06
12/21/2021 10:00:00 PM 1.91 35.438 0.13 7.19 5.76 13.05
12/21/2021 10:15:00 PM 1.88 35.384 0.125 7.12 6.52 13.05
12/21/2021 10:30:00 PM 1.85 35.33 0.13 7.11 5.51 13.04
12/21/2021 10:45:00 PM 1.82 35.276 0.131 7.12 5.87 13.05
12/21/2021 11:00:00 PM 1.79 35.222 0.131 7.16 5.6 13.05
12/21/2021 11:15:00 PM 1.77 35.186 0.131 7.14 5.57 13.04
12/21/2021 11:30:00 PM 1.74 35.132 0.131 7.17 5.52 13.05
12/21/2021 11:45:00 PM 1.71 35.078 0.131 7.14 5.45 13.05
12/22/2021 12:00:00 AM 1.67 35.006 0.131 7.16 5.52 13.04
12/22/2021 12:15:00 AM 1.64 34.952 0.131 7.15 5.53 13.05
12/22/2021 12:30:00 AM 1.61 34.898 0.131 7.1 5.45 13.06
12/22/2021 12:45:00 AM 1.57 34.826 0.131 7.15 5.57 13.06
12/22/2021 1:00:00 AM 1.54 34.772 0.131 7.1 5.45 13.06
12/22/2021 1:15:00 AM 1.51 34.718 0.131 7.16 5.53 13.07
12/22/2021 1:30:00 AM 1.47 34.646 0.131 7.07 5.5 13.09
12/22/2021 1:45:00 AM 1.44 34.592 0.131 7.15 5.42 13.09
12/22/2021 2:00:00 AM 1.4 34.52 0.131 7.15 5.44 13.09
12/22/2021 2:15:00 AM 1.36 34.448 0.131 7.15 5.52 13.11
12/22/2021 2:30:00 AM 1.33 34.394 0.131 7.1 5.3 13.13
12/22/2021 2:45:00 AM 1.29 34.322 0.131 7.09 5.42 13.13
12/22/2021 3:00:00 AM 1.25 34.25 0.131 7.1 5.43 13.13
12/22/2021 3:15:00 AM 1.21 34.178 0.131 7.14 5.51 13.15
12/22/2021 3:30:00 AM 1.18 34.124 0.125 7.08 6.21 13.16
12/22/2021 3:45:00 AM 1.14 34.052 0.126 7.08 6.35 13.17
12/22/2021 4:00:00 AM 1.1 33.98 0.128 7.08 6.23 13.18
12/22/2021 4:15:00 AM 1.06 33.908 0.128 7.08 6.19 13.19
12/22/2021 4:30:00 AM 1.03 33.854 0.131 7.09 5.55 13.19
12/22/2021 4:45:00 AM 0.99 33.782 0.131 7.15 5.62 13.21
12/22/2021 5:00:00 AM 0.95 33.71 0.131 7.12 5.62 13.22
12/22/2021 5:15:00 AM 0.92 33.656 0.131 7.14 5.68 13.23
12/22/2021 5:30:00 AM 0.89 33.602 0.131 7.12 5.76 13.25
12/22/2021 5:45:00 AM 0.87 33.566 0.131 7.14 5.61 13.25
12/22/2021 6:00:00 AM 0.86 33.548 0.131 7.07 5.72 13.26
12/22/2021 6:15:00 AM 0.84 33.512 0.131 7.13 5.58 13.28
12/22/2021 6:30:00 AM 0.82 33.476 0.132 7.13 5.53 13.28
12/22/2021 6:45:00 AM 0.81 33.458 0.132 7.08 5.4 13.29
12/22/2021 7:00:00 AM 0.81 33.458 0.132 7.08 5.58 13.3
12/22/2021 7:15:00 AM 0.8 33.44 0.132 7.14 5.54 13.3
12/22/2021 7:30:00 AM 0.78 33.404 0.132 7.09 5.5 13.31
12/22/2021 7:45:00 AM 0.77 33.386 0.132 7.12 5.41 13.33
12/22/2021 8:00:00 AM 0.77 33.386 0.128 7.06 6.15 13.36
12/22/2021 8:15:00 AM 0.77 33.386 0.125 7.08 6.23 13.39
12/22/2021 8:30:00 AM 0.77 33.386 0.132 7.16 5.57 13.43
12/22/2021 8:45:00 AM 0.79 33.422 0.132 7.17 5.61 13.48
12/22/2021 9:00:00 AM 0.81 33.458 0.132 7.18 5.52 13.53
12/22/2021 9:15:00 AM 0.83 33.494 0.132 7.19 5.55 13.61
12/22/2021 9:30:00 AM 0.86 33.548 0.132 7.1 5.43 13.68
12/22/2021 9:45:00 AM 0.9 33.62 0.132 7.2 5.27 13.76
12/22/2021 10:00:00 AM 0.95 33.71 0.132 7.19 5.24 13.85
12/22/2021 10:15:00 AM 1 33.8 0.132 7.23 5.2 13.92
12/22/2021 10:30:00 AM 1.04 33.872 0.132 7.14 5.16 13.96
12/22/2021 10:45:00 AM 1.07 33.926 0.127 7.18 5.92 13.94
12/22/2021 11:00:00 AM 1.09 33.962 0.125 7.11 5.9 13.91
12/22/2021 11:15:00 AM 1.12 34.016 0.132 7.25 5.2 13.94
12/22/2021 11:30:00 AM 1.16 34.088 0.125 7.17 5.85 13.99
12/22/2021 11:45:00 AM 1.23 34.214 0.128 7.19 5.89 14.06
12/22/2021 12:00:00 PM 1.26 34.268 0.131 7.27 5.01 14.09
12/22/2021 12:15:00 PM 1.28 34.304 0.128 7.21 5.89 14.06
12/22/2021 12:30:00 PM 1.33 34.394 0.128 7.24 5.83 14.11
12/22/2021 12:45:00 PM 1.4 34.52 0.124 7.23 5.74 14.19
12/22/2021 1:00:00 PM 1.45 34.61 0.131 7.26 4.98 14.23
12/22/2021 1:15:00 PM 1.48 34.664 0.131 7.29 5.02 14.24
12/22/2021 1:30:00 PM 1.52 34.736 0.131 7.31 4.92 14.26
12/22/2021 1:45:00 PM 1.55 34.79 0.13 7.35 5.08 14.3
12/22/2021 2:00:00 PM 1.59 34.862 0.131 7.37 4.9 14.31
12/22/2021 2:15:00 PM 1.61 34.898 0.13 7.33 4.88 14.32
12/22/2021 2:30:00 PM 1.62 34.916 0.13 7.38 4.89 14.33
12/22/2021 2:45:00 PM 1.66 34.988 0.13 7.28 4.96 14.33
12/22/2021 3:00:00 PM 1.66 34.988 0.13 7.38 4.95 14.27
12/22/2021 3:15:00 PM 1.66 34.988 0.13 7.37 5.03 14.21
12/22/2021 3:30:00 PM 1.65 34.97 0.13 7.38 4.87 14.17
12/22/2021 3:45:00 PM 1.65 34.97 0.13 7.38 6.15 14.13
12/22/2021 4:00:00 PM 1.65 34.97 0.13 7.3 4.88 14.07
12/22/2021 4:15:00 PM 1.65 34.97 0.13 7.28 8.5 14.01
12/22/2021 4:30:00 PM 1.64 34.952 0.13 7.28 4.97 13.95
12/22/2021 4:45:00 PM 1.64 34.952 0.13 7.29 4.99 13.88
12/22/2021 5:00:00 PM 1.64 34.952 0.13 7.32 4.99 13.82
12/22/2021 5:15:00 PM 1.64 34.952 0.13 7.34 5.03 13.77
12/22/2021 5:30:00 PM 1.64 34.952 0.13 7.32 4.91 13.72
12/22/2021 5:45:00 PM 1.63 34.934 0.13 7.22 4.93 13.66
12/22/2021 6:00:00 PM 1.62 34.916 0.13 7.23 4.91 13.62
12/22/2021 6:15:00 PM 1.61 34.898 0.13 7.23 4.91 13.59
12/22/2021 6:30:00 PM 1.59 34.862 0.131 7.3 5.01 13.55
12/22/2021 6:45:00 PM 1.58 34.844 0.131 7.17 4.91 13.51
12/22/2021 7:00:00 PM 1.56 34.808 0.131 7.29 4.88 13.49
12/22/2021 7:15:00 PM 1.53 34.754 0.131 7.16 4.97 13.46
12/22/2021 7:30:00 PM 1.51 34.718 0.131 7.27 4.96 13.43
12/22/2021 7:45:00 PM 1.5 34.7 0.131 7.27 4.74 13.42
12/22/2021 8:00:00 PM 1.48 34.664 0.131 7.26 4.85 13.39
12/22/2021 8:15:00 PM 1.46 34.628 0.131 7.25 4.82 13.38
12/22/2021 8:30:00 PM 1.45 34.61 0.131 7.25 4.83 13.36
12/22/2021 8:45:00 PM 1.44 34.592 0.131 7.24 4.91 13.35
12/22/2021 9:00:00 PM 1.42 34.556 0.131 7.24 4.82 13.33
12/22/2021 9:15:00 PM 1.41 34.538 0.131 7.24 4.7 13.31
12/22/2021 9:30:00 PM 1.4 34.52 0.131 7.21 4.82 13.31
12/22/2021 9:45:00 PM 1.38 34.484 0.125 7.22 5.5 13.31
12/22/2021 10:00:00 PM 1.36 34.448 0.131 7.2 4.78 13.3
12/22/2021 10:15:00 PM 1.34 34.412 0.132 7.23 4.78 13.3
12/22/2021 10:30:00 PM 1.3 34.34 0.132 7.22 4.82 13.3
12/22/2021 10:45:00 PM 1.22 34.196 0.127 7.22 5.73 13.3
12/22/2021 11:00:00 PM 1.2 34.16 0.132 7.2 4.64 13.3
12/22/2021 11:15:00 PM 1.19 34.142 0.132 7.22 4.88 13.29
12/22/2021 11:30:00 PM 1.18 34.124 0.131 7.22 4.93 13.3
12/22/2021 11:45:00 PM 1.16 34.088 0.132 7.21 4.87 13.3
12/23/2021 12:00:00 AM 1.15 34.07 0.132 7.08 4.7 13.31
12/23/2021 12:15:00 AM 1.15 34.07 0.132 7.21 4.78 13.31
12/23/2021 12:30:00 AM 1.14 34.052 0.132 7.21 4.77 13.32
12/23/2021 12:45:00 AM 1.13 34.034 0.132 7.09 4.65 13.32
12/23/2021 1:00:00 AM 1.13 34.034 0.132 7.2 4.68 13.33
12/23/2021 1:15:00 AM 1.12 34.016 0.131 7.21 4.74 13.32
12/23/2021 1:30:00 AM 1.11 33.998 0.132 7.08 4.82 13.33
12/23/2021 1:45:00 AM 1.1 33.98 0.131 7.21 4.78 13.33
12/23/2021 2:00:00 AM 1.08 33.944 0.125 7.2 6.01 13.35
12/23/2021 2:15:00 AM 1.07 33.926 0.132 7.2 5.09 13.35
12/23/2021 2:30:00 AM 1.06 33.908 0.132 7.19 5.01 13.35
12/23/2021 2:45:00 AM 1.05 33.89 0.132 7.08 4.88 13.36
12/23/2021 3:00:00 AM 1.04 33.872 0.132 7.14 4.89 13.37
12/23/2021 3:15:00 AM 1.03 33.854 0.132 7.11 4.75 13.37
12/23/2021 3:30:00 AM 1.02 33.836 0.132 7.2 4.74 13.37
12/23/2021 3:45:00 AM 1.01 33.818 0.132 7.16 4.81 13.38
12/23/2021 4:00:00 AM 1 33.8 0.132 7.16 4.76 13.38
12/23/2021 4:15:00 AM 1 33.8 0.132 7.19 4.81 13.38
12/23/2021 4:30:00 AM 1 33.8 0.133 7.07 4.67 13.38
12/23/2021 4:45:00 AM 0.99 33.782 0.134 7.19 4.78 13.39
12/23/2021 5:00:00 AM 0.98 33.764 0.134 7.18 4.75 13.39
12/23/2021 5:15:00 AM 0.98 33.764 0.133 7.12 4.7 13.4
12/23/2021 5:30:00 AM 0.97 33.746 0.133 7.11 4.64 13.41
12/23/2021 5:45:00 AM 0.97 33.746 0.134 7.19 4.62 13.41
12/23/2021 6:00:00 AM 0.96 33.728 0.133 7.19 4.82 13.42
12/23/2021 6:15:00 AM 0.96 33.728 0.134 7.06 4.75 13.41
12/23/2021 6:30:00 AM 0.94 33.692 0.133 7.1 4.8 13.43
12/23/2021 6:45:00 AM 0.93 33.674 0.133 7.19 4.8 13.43
12/23/2021 7:00:00 AM 0.93 33.674 0.133 7.16 4.83 13.44
12/23/2021 7:15:00 AM 0.92 33.656 0.133 7.12 4.82 13.45
12/23/2021 7:30:00 AM 0.92 33.656 0.133 7.11 4.78 13.44
12/23/2021 7:45:00 AM 0.91 33.638 0.133 7.11 5.06 13.46
12/23/2021 8:00:00 AM 0.9 33.62 0.133 7.18 4.76 13.47
12/23/2021 8:15:00 AM 0.89 33.602 0.133 7.2 4.82 13.5
12/23/2021 8:30:00 AM 0.87 33.566 0.133 7.2 5 13.54
12/23/2021 8:45:00 AM 0.84 33.512 0.133 7.2 5.11 13.59
12/23/2021 9:00:00 AM 0.8 33.44 0.133 7.21 5.2 13.64
12/23/2021 9:15:00 AM 0.78 33.404 0.133 7.22 5.56 13.71
12/23/2021 9:30:00 AM 0.77 33.386 0.133 7.22 6.06 13.78
12/23/2021 9:45:00 AM 0.78 33.404 0.133 7.12 6.98 13.87
12/23/2021 10:00:00 AM 0.82 33.476 0.133 7.17 8.06 13.99
12/23/2021 10:15:00 AM 0.85 33.53 0.133 7.25 8.97 14.08
12/23/2021 10:30:00 AM 0.87 33.566 0.133 7.18 10.95 14.13
12/23/2021 10:45:00 AM 0.89 33.602 0.132 7.27 12.25 14.18
12/23/2021 11:00:00 AM 0.92 33.656 0.134 7.27 14.4 14.26
12/23/2021 11:15:00 AM 0.97 33.746 0.133 7.3 15.48 14.33
12/23/2021 11:30:00 AM 1.04 33.872 0.134 7.31 16.87 14.39
12/23/2021 11:45:00 AM 1.09 33.962 0.135 7.27 17.21 14.44
12/23/2021 12:00:00 PM 1.14 34.052 0.135 7.32 17.22 14.5
12/23/2021 12:15:00 PM 1.17 34.106 0.135 7.33 17.78 14.56
12/23/2021 12:30:00 PM 1.22 34.196 0.135 7.25 16.57 14.59
12/23/2021 12:45:00 PM 1.26 34.268 0.134 7.34 16 14.65
12/23/2021 1:00:00 PM 1.31 34.358 0.133 7.29 14.99 14.69
12/23/2021 1:15:00 PM 1.36 34.448 0.133 7.38 14.27 14.73
12/23/2021 1:30:00 PM 1.39 34.502 0.127 7.31 12.83 14.77
12/23/2021 1:45:00 PM 1.43 34.574 0.133 7.35 11.46 14.77
12/23/2021 2:00:00 PM 1.52 34.736 0.133 7.42 10.42 14.81
12/23/2021 2:15:00 PM 1.56 34.808 0.133 7.42 9.25 14.84
12/23/2021 2:30:00 PM 1.58 34.844 0.133 7.33 8.49 14.84
12/23/2021 2:45:00 PM 1.6 34.88 0.132 7.38 7.57 14.83
12/23/2021 3:00:00 PM 1.62 34.916 0.132 7.42 7.16 14.83
12/23/2021 3:15:00 PM 1.63 34.934 0.132 7.45 6.73 14.78
12/23/2021 3:30:00 PM 1.62 34.916 0.132 7.34 6.13 14.73
12/23/2021 3:45:00 PM 1.62 34.916 0.132 7.38 6.04 14.66
12/23/2021 4:00:00 PM 1.61 34.898 0.132 7.44 5.66 14.59
12/23/2021 4:15:00 PM 1.61 34.898 0.132 7.32 5.51 14.51
12/23/2021 4:30:00 PM 1.61 34.898 0.132 7.42 5.34 14.44
12/23/2021 4:45:00 PM 1.6 34.88 0.132 7.33 5.34 14.35
12/23/2021 5:00:00 PM 1.59 34.862 0.132 7.39 5.15 14.26
12/23/2021 5:15:00 PM 1.58 34.844 0.132 7.3 5.06 14.16
12/23/2021 5:30:00 PM 1.57 34.826 0.132 7.36 5.18 14.09
12/23/2021 5:45:00 PM 1.56 34.808 0.132 7.35 5.06 14.02
12/23/2021 6:00:00 PM 1.56 34.808 0.132 7.34 4.98 13.96
12/23/2021 6:15:00 PM 1.55 34.79 0.132 7.22 4.91 13.9
12/23/2021 6:30:00 PM 1.54 34.772 0.132 7.26 4.84 13.86
12/23/2021 6:45:00 PM 1.53 34.754 0.132 7.3 5.11 13.81
12/23/2021 7:00:00 PM 1.51 34.718 0.132 7.23 4.95 13.77
12/23/2021 7:15:00 PM 1.5 34.7 0.126 7.24 5.8 13.74
12/23/2021 7:30:00 PM 1.48 34.664 0.132 7.27 5 13.7
12/23/2021 7:45:00 PM 1.46 34.628 0.132 7.22 5.02 13.67
12/23/2021 8:00:00 PM 1.44 34.592 0.132 7.21 5.01 13.65
12/23/2021 8:15:00 PM 1.42 34.556 0.133 7.23 4.95 13.62
12/23/2021 8:30:00 PM 1.4 34.52 0.133 7.26 4.97 13.6
12/23/2021 8:45:00 PM 1.37 34.466 0.133 7.21 4.83 13.57
12/23/2021 9:00:00 PM 1.35 34.43 0.133 7.25 4.79 13.56
12/23/2021 9:15:00 PM 1.32 34.376 0.134 7.2 4.74 13.55
12/23/2021 9:30:00 PM 1.27 34.286 0.134 7.25 4.75 13.53
12/23/2021 9:45:00 PM 1.23 34.214 0.134 7.14 4.83 13.53
12/23/2021 10:00:00 PM 1.21 34.178 0.134 7.24 4.83 13.51
12/23/2021 10:15:00 PM 1.21 34.178 0.134 7.22 4.91 13.5
12/23/2021 10:30:00 PM 1.19 34.142 0.134 7.14 4.82 13.5
12/23/2021 10:45:00 PM 1.18 34.124 0.128 7.17 5.8 13.48
12/23/2021 11:00:00 PM 1.18 34.124 0.135 7.23 4.84 13.48
12/23/2021 11:15:00 PM 1.17 34.106 0.135 7.15 5.03 13.47
12/23/2021 11:30:00 PM 1.17 34.106 0.135 7.21 4.6 13.46
12/23/2021 11:45:00 PM 1.16 34.088 0.135 7.13 4.68 13.45
12/24/2021 12:00:00 AM 1.16 34.088 0.135 7.21 4.67 13.45
12/24/2021 12:15:00 AM 1.16 34.088 0.135 7.2 4.88 13.44
12/24/2021 12:30:00 AM 1.16 34.088 0.135 7.13 4.82 13.43
12/24/2021 12:45:00 AM 1.16 34.088 0.134 7.2 4.79 13.42
12/24/2021 1:00:00 AM 1.15 34.07 0.135 7.16 4.81 13.43
12/24/2021 1:15:00 AM 1.15 34.07 0.129 7.11 5.63 13.42
12/24/2021 1:30:00 AM 1.14 34.052 0.135 7.2 4.82 13.42
12/24/2021 1:45:00 AM 1.13 34.034 0.132 7.1 5.48 13.4
12/24/2021 2:00:00 AM 1.1 33.98 0.13 7.12 5.55 13.41
12/24/2021 2:15:00 AM 1.07 33.926 0.136 7.15 4.64 13.41
12/24/2021 2:30:00 AM 1.03 33.854 0.135 7.13 4.62 13.4
12/24/2021 2:45:00 AM 1 33.8 0.135 7.14 4.59 13.4
12/24/2021 3:00:00 AM 0.97 33.746 0.135 7.14 5.11 13.4
12/24/2021 3:15:00 AM 0.94 33.692 0.134 7.14 4.81 13.4
12/24/2021 3:30:00 AM 0.94 33.692 0.134 7.13 4.64 13.41
12/24/2021 3:45:00 AM 0.94 33.692 0.134 7.13 4.68 13.42
12/24/2021 4:00:00 AM 0.94 33.692 0.134 7.18 4.52 13.42
12/24/2021 4:15:00 AM 0.93 33.674 0.134 7.11 4.59 13.42
12/24/2021 4:30:00 AM 0.92 33.656 0.134 7.18 4.71 13.43
12/24/2021 4:45:00 AM 0.93 33.674 0.134 7.13 4.63 13.42
12/24/2021 5:00:00 AM 0.93 33.674 0.135 7.18 4.72 13.43
12/24/2021 5:15:00 AM 0.92 33.656 0.136 7.16 4.67 13.43
12/24/2021 5:30:00 AM 0.92 33.656 0.136 7.12 4.62 13.43
12/24/2021 5:45:00 AM 0.92 33.656 0.138 7.17 4.6 13.44
12/24/2021 6:00:00 AM 0.92 33.656 0.14 7.11 4.77 13.44
12/24/2021 6:15:00 AM 0.92 33.656 0.138 7.17 4.79 13.44
12/24/2021 6:30:00 AM 0.93 33.674 0.137 7.18 4.78 13.45
12/24/2021 6:45:00 AM 0.93 33.674 0.137 7.1 4.73 13.44
12/24/2021 7:00:00 AM 0.94 33.692 0.136 7.13 4.71 13.44
12/24/2021 7:15:00 AM 0.94 33.692 0.136 7.16 4.65 13.45
12/24/2021 7:30:00 AM 0.96 33.728 0.136 7.11 4.88 13.44
12/24/2021 7:45:00 AM 0.97 33.746 0.136 7.12 4.87 13.45
12/24/2021 8:00:00 AM 0.98 33.764 0.129 7.11 5.78 13.47
12/24/2021 8:15:00 AM 0.99 33.782 0.136 7.17 4.85 13.49
12/24/2021 8:30:00 AM 1.01 33.818 0.13 7.1 5.91 13.54
12/24/2021 8:45:00 AM 1.03 33.854 0.137 7.18 4.89 13.6
12/24/2021 9:00:00 AM 1.06 33.908 0.136 7.14 4.88 13.71
12/24/2021 9:15:00 AM 1.09 33.962 0.136 7.19 4.7 13.81
12/24/2021 9:30:00 AM 1.12 34.016 0.136 7.15 4.69 13.89
12/24/2021 9:45:00 AM 1.16 34.088 0.136 7.18 4.7 13.98
12/24/2021 10:00:00 AM 1.2 34.16 0.136 7.25 4.53 14.04
12/24/2021 10:15:00 AM 1.24 34.232 0.13 7.17 5.64 14.12
12/24/2021 10:30:00 AM 1.28 34.304 0.135 7.23 4.58 14.19
12/24/2021 10:45:00 AM 1.32 34.376 0.135 7.22 4.54 14.24
12/24/2021 11:00:00 AM 1.35 34.43 0.135 7.28 4.63 14.29
12/24/2021 11:15:00 AM 1.39 34.502 0.128 7.23 5.34 14.34
12/24/2021 11:30:00 AM 1.43 34.574 0.135 7.3 4.59 14.38
12/24/2021 11:45:00 AM 1.47 34.646 0.135 7.3 4.41 14.42
12/24/2021 12:00:00 PM 1.51 34.718 0.134 7.28 4.42 14.47
12/24/2021 12:15:00 PM 1.56 34.808 0.135 7.35 5.17 14.49
12/24/2021 12:30:00 PM 1.61 34.898 0.135 7.31 4.77 14.53
12/24/2021 12:45:00 PM 1.67 35.006 0.134 7.38 4.53 14.58
12/24/2021 1:00:00 PM 1.73 35.114 0.134 7.31 4.39 14.62
12/24/2021 1:15:00 PM 1.79 35.222 0.134 7.39 4.71 14.64
12/24/2021 1:30:00 PM 1.86 35.348 0.134 7.35 4.35 14.67
12/24/2021 1:45:00 PM 1.93 35.474 0.128 7.35 5.34 14.7
12/24/2021 2:00:00 PM 1.99 35.582 0.128 7.36 5.37 14.71
12/24/2021 2:15:00 PM 2.04 35.672 0.13 7.35 5.49 14.7
12/24/2021 2:30:00 PM 2.1 35.78 0.135 7.39 4.58 14.69
12/24/2021 2:45:00 PM 2.15 35.87 0.135 7.45 4.56 14.7
12/24/2021 3:00:00 PM 2.17 35.906 0.135 7.46 4.74 14.68
12/24/2021 3:15:00 PM 2.18 35.924 0.135 7.46 4.57 14.64
12/24/2021 3:30:00 PM 2.2 35.96 0.135 7.4 4.47 14.6
12/24/2021 3:45:00 PM 2.2 35.96 0.128 7.39 5.28 14.56
12/24/2021 4:00:00 PM 2.19 35.942 0.135 7.42 4.28 14.49
12/24/2021 4:15:00 PM 2.18 35.924 0.131 7.39 5.15 14.39
12/24/2021 4:30:00 PM 2.18 35.924 0.135 7.38 4.27 14.28
12/24/2021 4:45:00 PM 2.18 35.924 0.134 7.36 4.48 14.17
12/24/2021 5:00:00 PM 2.17 35.906 0.135 7.39 4.5 14.06
12/24/2021 5:15:00 PM 2.17 35.906 0.134 7.32 4.54 13.97
12/24/2021 5:30:00 PM 2.16 35.888 0.134 7.37 4.37 13.88
12/24/2021 5:45:00 PM 2.16 35.888 0.134 7.35 4.46 13.81
12/24/2021 6:00:00 PM 2.15 35.87 0.134 7.31 4.47 13.74
12/24/2021 6:15:00 PM 2.14 35.852 0.134 7.33 4.47 13.67
12/24/2021 6:30:00 PM 2.13 35.834 0.134 7.33 4.34 13.61
12/24/2021 6:45:00 PM 2.13 35.834 0.13 7.22 5.33 13.56
12/24/2021 7:00:00 PM 2.12 35.816 0.134 7.31 4.43 13.51
12/24/2021 7:15:00 PM 2.11 35.798 0.134 7.3 4.48 13.47
12/24/2021 7:30:00 PM 2.11 35.798 0.134 7.29 4.54 13.43
12/24/2021 7:45:00 PM 2.1 35.78 0.134 7.29 4.55 13.39
12/24/2021 8:00:00 PM 2.09 35.762 0.134 7.27 4.58 13.35
12/24/2021 8:15:00 PM 2.09 35.762 0.134 7.25 4.67 13.32
12/24/2021 8:30:00 PM 2.08 35.744 0.134 7.2 4.57 13.29
12/24/2021 8:45:00 PM 2.08 35.744 0.134 7.26 4.56 13.26
12/24/2021 9:00:00 PM 2.07 35.726 0.134 7.24 4.55 13.23
12/24/2021 9:15:00 PM 2.06 35.708 0.135 7.24 4.49 13.21
12/24/2021 9:30:00 PM 2.06 35.708 0.135 7.23 4.56 13.19
12/24/2021 9:45:00 PM 2.06 35.708 0.135 7.22 4.37 13.16
12/24/2021 10:00:00 PM 2.06 35.708 0.128 7.14 5.26 13.14
12/24/2021 10:15:00 PM 2.05 35.69 0.135 7.16 4.51 13.13
12/24/2021 10:30:00 PM 2.06 35.708 0.135 7.19 4.55 13.11
12/24/2021 10:45:00 PM 2.05 35.69 0.135 7.16 4.48 13.1
12/24/2021 11:00:00 PM 2.05 35.69 0.135 7.15 4.51 13.09
12/24/2021 11:15:00 PM 2.05 35.69 0.135 7.2 4.58 13.07
12/24/2021 11:30:00 PM 2.05 35.69 0.135 7.12 4.71 13.06
12/24/2021 11:45:00 PM 2.06 35.708 0.136 7.15 4.62 13.05
12/25/2021 12:00:00 AM 2.06 35.708 0.136 7.15 4.6 13.04
12/25/2021 12:15:00 AM 2.07 35.726 0.136 7.15 4.45 13.03
12/25/2021 12:30:00 AM 2.08 35.744 0.136 7.14 4.54 13.02
12/25/2021 12:45:00 AM 2.09 35.762 0.131 7.12 5.69 13.01
12/25/2021 1:00:00 AM 2.1 35.78 0.137 7.15 4.58 13
12/25/2021 1:15:00 AM 2.11 35.798 0.137 7.13 4.43 12.98
12/25/2021 1:30:00 AM 2.13 35.834 0.136 7.13 4.48 12.97
12/25/2021 1:45:00 AM 2.14 35.852 0.136 7.18 4.34 12.96
12/25/2021 2:00:00 AM 2.15 35.87 0.136 7.12 4.34 12.95
12/25/2021 2:15:00 AM 2.17 35.906 0.136 7.13 4.41 12.93
12/25/2021 2:30:00 AM 2.18 35.924 0.136 7.13 4.54 12.92
12/25/2021 2:45:00 AM 2.2 35.96 0.13 7.12 5.17 12.92
12/25/2021 3:00:00 AM 2.21 35.978 0.136 7.14 4.35 12.9
12/25/2021 3:15:00 AM 2.23 36.014 0.136 7.14 4.28 12.9
12/25/2021 3:30:00 AM 2.24 36.032 0.136 7.13 4.32 12.89
12/25/2021 3:45:00 AM 2.25 36.05 0.136 7.18 4.33 12.88
12/25/2021 4:00:00 AM 2.26 36.068 0.136 7.12 4.43 12.87
12/25/2021 4:15:00 AM 2.27 36.086 0.129 7.11 5.1 12.86
12/25/2021 4:30:00 AM 2.28 36.104 0.136 7.18 4.46 12.85
12/25/2021 4:45:00 AM 2.3 36.14 0.136 7.1 4.46 12.84
12/25/2021 5:00:00 AM 2.31 36.158 0.136 7.17 4.44 12.83
12/25/2021 5:15:00 AM 2.32 36.176 0.132 7.09 5.14 12.83
12/25/2021 5:30:00 AM 2.32 36.176 0.136 7.1 4.56 12.83
12/25/2021 5:45:00 AM 2.33 36.194 0.136 7.12 4.53 12.82
12/25/2021 6:00:00 AM 2.34 36.212 0.136 7.11 4.59 12.81
12/25/2021 6:15:00 AM 2.35 36.23 0.135 7.17 4.54 12.81
12/25/2021 6:30:00 AM 2.36 36.248 0.135 7.17 4.65 12.81
12/25/2021 6:45:00 AM 2.36 36.248 0.13 7.08 5.39 12.81
12/25/2021 7:00:00 AM 2.37 36.266 0.128 7.09 5.43 12.8
12/25/2021 7:15:00 AM 2.38 36.284 0.135 7.15 4.62 12.79
12/25/2021 7:30:00 AM 2.39 36.302 0.13 7.09 5.72 12.79
12/25/2021 7:45:00 AM 2.39 36.302 0.135 7.16 4.82 12.79
12/25/2021 8:00:00 AM 2.4 36.32 0.135 7.1 4.84 12.8
12/25/2021 8:15:00 AM 2.41 36.338 0.128 7.07 5.88 12.81
12/25/2021 8:30:00 AM 2.42 36.356 0.135 7.12 5.3 12.84
12/25/2021 8:45:00 AM 2.43 36.374 0.135 7.16 5.21 12.89
12/25/2021 9:00:00 AM 2.45 36.41 0.13 7.1 5.86 12.93
12/25/2021 9:15:00 AM 2.46 36.428 0.137 7.17 5.27 12.97
12/25/2021 9:30:00 AM 2.47 36.446 0.139 7.15 5.28 13.03
12/25/2021 9:45:00 AM 2.48 36.464 0.14 7.13 5.6 13.05
12/25/2021 10:00:00 AM 2.48 36.464 0.136 7.11 6.31 13.06
12/25/2021 10:15:00 AM 2.48 36.464 0.143 7.15 5.77 13.1
12/25/2021 10:30:00 AM 2.47 36.446 0.14 7.12 6.99 13.1
12/25/2021 10:45:00 AM 2.46 36.428 0.146 7.14 6.71 13.13
12/25/2021 11:00:00 AM 2.46 36.428 0.141 7.14 7.98 13.19
12/25/2021 11:15:00 AM 2.45 36.41 0.152 7.19 8.48 13.24
12/25/2021 11:30:00 AM 2.45 36.41 0.155 7.14 9.83 13.28
12/25/2021 11:45:00 AM 2.44 36.392 0.156 7.16 10.95 13.32
12/25/2021 12:00:00 PM 2.43 36.374 0.156 7.17 12.6 13.36
12/25/2021 12:15:00 PM 2.42 36.356 0.156 7.18 13.7 13.38
12/25/2021 12:30:00 PM 2.4 36.32 0.156 7.22 15.02 13.41
12/25/2021 12:45:00 PM 2.39 36.302 0.157 7.16 16.57 13.41
12/25/2021 1:00:00 PM 2.37 36.266 0.157 7.23 21.82 13.39
12/25/2021 1:15:00 PM 2.35 36.23 0.157 7.16 21.26 13.37
12/25/2021 1:30:00 PM 2.33 36.194 0.155 7.18 27.94 13.33
12/25/2021 1:45:00 PM 2.3 36.14 0.145 7.14 33.45 13.31
12/25/2021 2:00:00 PM 2.28 36.104 0.15 7.22 37.28 13.33
12/25/2021 2:15:00 PM 2.28 36.104 0.147 7.14 38.81 13.33
12/25/2021 2:30:00 PM 2.27 36.086 0.14 7.17 36.57 13.33
12/25/2021 2:45:00 PM 2.25 36.05 0.144 7.23 44.3 13.32
12/25/2021 3:00:00 PM 2.23 36.014 0.141 7.26 46.68 13.31
12/25/2021 3:15:00 PM 2.22 35.996 0.135 7.13 44.35 13.31
12/25/2021 3:30:00 PM 2.21 35.978 0.131 7.15 46 13.31
12/25/2021 3:45:00 PM 2.19 35.942 0.136 7.21 46.76 13.3
12/25/2021 4:00:00 PM 2.18 35.924 0.134 7.12 45.22 13.31
12/25/2021 4:15:00 PM 2.17 35.906 0.132 7.19 43.84 13.3
12/25/2021 4:30:00 PM 2.16 35.888 0.131 7.12 43.44 13.29
12/25/2021 4:45:00 PM 2.16 35.888 0.13 7.12 45.61 13.28
12/25/2021 5:00:00 PM 2.16 35.888 0.129 7.19 44.26 13.27
12/25/2021 5:15:00 PM 2.16 35.888 0.124 7.1 40.67 13.26
12/25/2021 5:30:00 PM 2.16 35.888 0.128 7.14 41.94 13.24
12/25/2021 5:45:00 PM 2.17 35.906 0.128 7.08 41.61 13.23
12/25/2021 6:00:00 PM 2.17 35.906 0.121 7.06 37.81 13.22
12/25/2021 6:15:00 PM 2.17 35.906 0.127 7.09 40.25 13.21
12/25/2021 6:30:00 PM 2.18 35.924 0.12 7.07 36.99 13.19
12/25/2021 6:45:00 PM 2.19 35.942 0.125 7.13 40.11 13.18
12/25/2021 7:00:00 PM 2.2 35.96 0.123 7.07 35.45 13.18
12/25/2021 7:15:00 PM 2.21 35.978 0.122 7.05 35.67 13.16
12/25/2021 7:30:00 PM 2.22 35.996 0.121 7.1 34.22 13.15
12/25/2021 7:45:00 PM 2.23 36.014 0.115 7.04 31.75 13.14
12/25/2021 8:00:00 PM 2.25 36.05 0.119 7.1 30.89 13.13
12/25/2021 8:15:00 PM 2.27 36.086 0.118 7.04 28.19 13.13
12/25/2021 8:30:00 PM 2.29 36.122 0.117 7.12 29.17 13.11
12/25/2021 8:45:00 PM 2.31 36.158 0.116 7.05 27.53 13.1
12/25/2021 9:00:00 PM 2.33 36.194 0.112 7.07 25.01 13.1
12/25/2021 9:15:00 PM 2.35 36.23 0.115 7.11 31.03 13.09
12/25/2021 9:30:00 PM 2.37 36.266 0.115 7.13 24.86 13.08
12/25/2021 9:45:00 PM 2.38 36.284 0.114 7.05 21.99 13.07
12/25/2021 10:00:00 PM 2.4 36.32 0.114 7.14 22.57 13.07
12/25/2021 10:15:00 PM 2.42 36.356 0.108 7.04 19.28 13.06
12/25/2021 10:30:00 PM 2.44 36.392 0.113 7.07 21.56 13.05
12/25/2021 10:45:00 PM 2.45 36.41 0.113 7.12 21.36 13.05
12/25/2021 11:00:00 PM 2.46 36.428 0.113 7.09 20.71 13.05
12/25/2021 11:15:00 PM 2.48 36.464 0.113 7.17 20.06 13.04
12/25/2021 11:30:00 PM 2.5 36.5 0.113 7.09 20.15 13.03
12/25/2021 11:45:00 PM 2.51 36.518 0.112 7.1 20.5 13.03
12/26/2021 12:00:00 AM 2.53 36.554 0.112 7.17 19.77 13.02
12/26/2021 12:15:00 AM 2.54 36.572 0.107 7.09 18.88 13.02
12/26/2021 12:30:00 AM 2.56 36.608 0.112 7.17 18.49 13.02
12/26/2021 12:45:00 AM 2.57 36.626 0.108 7.09 17.66 13.01
12/26/2021 1:00:00 AM 2.59 36.662 0.112 7.18 16.77 13.01
12/26/2021 1:15:00 AM 2.6 36.68 0.108 7.08 16.64 13
12/26/2021 1:30:00 AM 2.62 36.716 0.106 7.1 17.09 12.99
12/26/2021 1:45:00 AM 2.63 36.734 0.112 7.2 16.62 12.99
12/26/2021 2:00:00 AM 2.65 36.77 0.112 7.2 16.28 12.98
12/26/2021 2:15:00 AM 2.66 36.788 0.112 7.2 16.59 12.98
12/26/2021 2:30:00 AM 2.67 36.806 0.112 7.03 16.71 12.98
12/26/2021 2:45:00 AM 2.67 36.806 0.112 7.18 15.56 12.97
12/26/2021 3:00:00 AM 2.68 36.824 0.107 7.18 15.83 12.96
12/26/2021 3:15:00 AM 2.69 36.842 0.112 7.19 15.6 12.96
12/26/2021 3:30:00 AM 2.7 36.86 0.112 7.06 16.01 12.96
12/26/2021 3:45:00 AM 2.7 36.86 0.107 7.08 15.94 12.96
12/26/2021 4:00:00 AM 2.71 36.878 0.112 7.14 14.42 12.96
12/26/2021 4:15:00 AM 2.71 36.878 0.112 7.18 15.2 12.96
12/26/2021 4:30:00 AM 2.71 36.878 0.112 7.16 15.25 12.95
12/26/2021 4:45:00 AM 2.72 36.896 0.112 7.19 14.7 12.95
12/26/2021 5:00:00 AM 2.72 36.896 0.112 7.18 15.43 12.95
12/26/2021 5:15:00 AM 2.71 36.878 0.112 7.19 14.39 12.95
12/26/2021 5:30:00 AM 2.71 36.878 0.108 7.2 15.03 12.95
12/26/2021 5:45:00 AM 2.7 36.86 0.113 7.19 14.26 12.95
12/26/2021 6:00:00 AM 2.69 36.842 0.107 7.17 14.9 12.95
12/26/2021 6:15:00 AM 2.68 36.824 0.113 7.07 14.91 12.95
12/26/2021 6:30:00 AM 2.67 36.806 0.113 7.17 14.17 12.95
12/26/2021 6:45:00 AM 2.66 36.788 0.107 7.03 14.71 12.95
12/26/2021 7:00:00 AM 2.64 36.752 0.107 7.08 13.8 12.95
12/26/2021 7:15:00 AM 2.63 36.734 0.113 7.09 13.29 12.95
12/26/2021 7:30:00 AM 2.62 36.716 0.113 7.18 13.22 12.96
12/26/2021 7:45:00 AM 2.6 36.68 0.113 7.17 13.37 12.97
12/26/2021 8:00:00 AM 2.58 36.644 0.113 7.06 13.06 12.98
12/26/2021 8:15:00 AM 2.56 36.608 0.108 7.09 13.02 12.99
12/26/2021 8:30:00 AM 2.54 36.572 0.113 7.17 13.17 13.02
12/26/2021 8:45:00 AM 2.54 36.572 0.114 7.18 13.05 13.04
12/26/2021 9:00:00 AM 2.54 36.572 0.108 7.17 13.34 13.07
12/26/2021 9:15:00 AM 2.54 36.572 0.114 7.19 12.35 13.1
12/26/2021 9:30:00 AM 2.54 36.572 0.114 7.19 12.24 13.14
12/26/2021 9:45:00 AM 2.54 36.572 0.109 7.14 12.73 13.19
12/26/2021 10:00:00 AM 2.55 36.59 0.108 7.1 12.09 13.22
12/26/2021 10:15:00 AM 2.56 36.608 0.113 7.19 11.63 13.25
12/26/2021 10:30:00 AM 2.57 36.626 0.113 7.19 11.38 13.28
12/26/2021 10:45:00 AM 2.58 36.644 0.113 7.13 11.04 13.29
12/26/2021 11:00:00 AM 2.6 36.68 0.113 7.14 11.07 13.33
12/26/2021 11:15:00 AM 2.62 36.716 0.113 7.2 10.8 13.37
12/26/2021 11:30:00 AM 2.65 36.77 0.109 7.22 11.12 13.39
12/26/2021 11:45:00 AM 2.67 36.806 0.113 7.22 10.52 13.42
12/26/2021 12:00:00 PM 2.7 36.86 0.113 7.23 10.33 13.43
12/26/2021 12:15:00 PM 2.71 36.878 0.113 7.24 10.88 13.44
12/26/2021 12:30:00 PM 2.74 36.932 0.107 7.1 10.48 13.45
12/26/2021 12:45:00 PM 2.76 36.968 0.113 7.23 10.51 13.48
12/26/2021 1:00:00 PM 2.79 37.022 0.107 7.16 10.56 13.47
12/26/2021 1:15:00 PM 2.81 37.058 0.113 7.25 10.33 13.48
12/26/2021 1:30:00 PM 2.82 37.076 0.109 7.1 11.07 13.47
12/26/2021 1:45:00 PM 2.84 37.112 0.113 7.25 10.3 13.48
12/26/2021 2:00:00 PM 2.86 37.148 0.107 7.17 10.1 13.48
12/26/2021 2:15:00 PM 2.88 37.184 0.113 7.27 10.09 13.5
12/26/2021 2:30:00 PM 2.9 37.22 0.113 7.12 10.36 13.48
12/26/2021 2:45:00 PM 2.91 37.238 0.113 7.27 9.81 13.47
12/26/2021 3:00:00 PM 2.91 37.238 0.113 7.26 9.52 13.44
12/26/2021 3:15:00 PM 2.92 37.256 0.113 7.27 9.73 13.43
12/26/2021 3:30:00 PM 2.94 37.292 0.107 7.12 9.89 13.41
12/26/2021 3:45:00 PM 2.94 37.292 0.112 7.21 9.52 13.38
12/26/2021 4:00:00 PM 2.94 37.292 0.107 7.18 10.01 13.35
12/26/2021 4:15:00 PM 2.94 37.292 0.112 7.25 9.6 13.32
12/26/2021 4:30:00 PM 2.94 37.292 0.113 7.24 9.4 13.28
12/26/2021 4:45:00 PM 2.94 37.292 0.112 7.22 9.57 13.24
12/26/2021 5:00:00 PM 2.94 37.292 0.113 7.12 9.22 13.2
12/26/2021 5:15:00 PM 2.94 37.292 0.113 7.19 9.53 13.17
12/26/2021 5:30:00 PM 2.93 37.274 0.113 7.12 9.14 13.14
12/26/2021 5:45:00 PM 2.93 37.274 0.113 7.21 9.45 13.1
12/26/2021 6:00:00 PM 2.92 37.256 0.113 7.21 9.27 13.08
12/26/2021 6:15:00 PM 2.92 37.256 0.113 7.2 9.47 13.05
12/26/2021 6:30:00 PM 2.91 37.238 0.109 7.2 9.8 13.03
12/26/2021 6:45:00 PM 2.9 37.22 0.113 7.15 9.38 13.01
12/26/2021 7:00:00 PM 2.9 37.22 0.113 7.16 9.21 12.99
12/26/2021 7:15:00 PM 2.89 37.202 0.113 7.16 9.15 12.98
12/26/2021 7:30:00 PM 2.89 37.202 0.107 7.06 9.66 12.97
12/26/2021 7:45:00 PM 2.88 37.184 0.113 7.16 8.78 12.96
12/26/2021 8:00:00 PM 2.87 37.166 0.113 7.16 9.38 12.95
12/26/2021 8:15:00 PM 2.86 37.148 0.113 7.08 9.12 12.95
12/26/2021 8:30:00 PM 2.85 37.13 0.113 7.16 9.45 12.94
12/26/2021 8:45:00 PM 2.85 37.13 0.113 7.04 9.28 12.94
12/26/2021 9:00:00 PM 2.83 37.094 0.113 7.14 9.19 12.94
12/26/2021 9:15:00 PM 2.82 37.076 0.107 7.03 9.69 12.93
12/26/2021 9:30:00 PM 2.81 37.058 0.113 7.16 8.87 12.94
12/26/2021 9:45:00 PM 2.79 37.022 0.113 7.01 9.05 12.94
12/26/2021 10:00:00 PM 2.78 37.004 0.113 7.14 9.02 12.94
12/26/2021 10:15:00 PM 2.76 36.968 0.113 7.12 8.93 12.94
12/26/2021 10:30:00 PM 2.74 36.932 0.113 7.12 9.03 12.95
12/26/2021 10:45:00 PM 2.72 36.896 0.114 7.01 9.25 12.95
12/26/2021 11:00:00 PM 2.7 36.86 0.108 7.05 9.56 12.96
12/26/2021 11:15:00 PM 2.68 36.824 0.114 7.12 9.02 12.96
12/26/2021 11:30:00 PM 2.66 36.788 0.114 7.02 8.8 12.97
12/26/2021 11:45:00 PM 2.63 36.734 0.114 7.13 9.18 12.98
12/27/2021 12:00:00 AM 2.61 36.698 0.114 7.05 8.93 12.98
12/27/2021 12:15:00 AM 2.59 36.662 0.114 7.06 8.82 12.99
12/27/2021 12:30:00 AM 2.56 36.608 0.114 7.06 8.89 13
12/27/2021 12:45:00 AM 2.53 36.554 0.108 7.06 9.45 13.01
12/27/2021 1:00:00 AM 2.5 36.5 0.114 7.13 8.75 13.01
12/27/2021 1:15:00 AM 2.47 36.446 0.114 7.12 8.91 13.01
12/27/2021 1:30:00 AM 2.45 36.41 0.108 7.04 9.22 13.02
12/27/2021 1:45:00 AM 2.43 36.374 0.108 7.05 9.15 13.03
12/27/2021 2:00:00 AM 2.4 36.32 0.114 7.04 8.84 13.04
12/27/2021 2:15:00 AM 2.38 36.284 0.114 7.05 8.59 13.05
12/27/2021 2:30:00 AM 2.36 36.248 0.11 7.04 9.18 13.05
12/27/2021 2:45:00 AM 2.34 36.212 0.108 7.02 9.29 13.06
12/27/2021 3:00:00 AM 2.31 36.158 0.114 7.11 8.36 13.06
12/27/2021 3:15:00 AM 2.29 36.122 0.108 7.13 9.21 13.07
12/27/2021 3:30:00 AM 2.26 36.068 0.114 6.99 8.52 13.07
12/27/2021 3:45:00 AM 2.23 36.014 0.114 7.12 8.6 13.08
12/27/2021 4:00:00 AM 2.21 35.978 0.114 7.11 8.51 13.09
12/27/2021 4:15:00 AM 2.19 35.942 0.114 7 8.61 13.1
12/27/2021 4:30:00 AM 2.17 35.906 0.114 7.03 8.65 13.1
12/27/2021 4:45:00 AM 2.15 35.87 0.109 7.06 9.12 13.11
12/27/2021 5:00:00 AM 2.12 35.816 0.114 7.12 8.24 13.12
12/27/2021 5:15:00 AM 2.09 35.762 0.109 7.1 9.61 13.13
12/27/2021 5:30:00 AM 2.06 35.708 0.115 7.03 8.3 13.14
12/27/2021 5:45:00 AM 2.03 35.654 0.115 7.05 8.22 13.14
12/27/2021 6:00:00 AM 2.01 35.618 0.11 7.04 9.46 13.16
12/27/2021 6:15:00 AM 1.98 35.564 0.115 7.11 8.77 13.17
12/27/2021 6:30:00 AM 1.97 35.546 0.115 6.99 8.11 13.17
12/27/2021 6:45:00 AM 1.95 35.51 0.115 7.02 8.17 13.18
12/27/2021 7:00:00 AM 1.94 35.492 0.115 7.09 8.21 13.18
12/27/2021 7:15:00 AM 1.92 35.456 0.115 7.09 7.9 13.19
12/27/2021 7:30:00 AM 1.91 35.438 0.115 7.1 8.25 13.19
12/27/2021 7:45:00 AM 1.9 35.42 0.115 7.05 7.93 13.2
12/27/2021 8:00:00 AM 1.89 35.402 0.115 7.09 7.88 13.21
12/27/2021 8:15:00 AM 1.89 35.402 0.11 7.03 8.44 13.22
12/27/2021 8:30:00 AM 1.88 35.384 0.115 7.08 7.79 13.23
12/27/2021 8:45:00 AM 1.87 35.366 0.115 7.1 7.78 13.25
12/27/2021 9:00:00 AM 1.86 35.348 0.111 7 8.53 13.27
12/27/2021 9:15:00 AM 1.86 35.348 0.115 7.09 7.81 13.29
12/27/2021 9:30:00 AM 1.85 35.33 0.115 7.03 7.55 13.31
12/27/2021 9:45:00 AM 1.86 35.348 0.115 7.01 7.43 13.35
12/27/2021 10:00:00 AM 1.86 35.348 0.115 7.04 7.33 13.4
12/27/2021 10:15:00 AM 1.86 35.348 0.115 7.04 7.44 13.44
12/27/2021 10:30:00 AM 1.87 35.366 0.115 7.05 7.21 13.49
12/27/2021 10:45:00 AM 1.89 35.402 0.11 7.05 7.87 13.55
12/27/2021 11:00:00 AM 1.91 35.438 0.109 7.07 7.73 13.61
12/27/2021 11:15:00 AM 1.92 35.456 0.115 7.03 7.01 13.64
12/27/2021 11:30:00 AM 1.93 35.474 0.112 7.06 7.61 13.66
12/27/2021 11:45:00 AM 1.94 35.492 0.112 7.07 8.31 13.69
12/27/2021 12:00:00 PM 1.95 35.51 0.115 7.11 6.89 13.72
12/27/2021 12:15:00 PM 1.96 35.528 0.115 7.15 6.86 13.75
12/27/2021 12:30:00 PM 1.97 35.546 0.115 7.15 6.71 13.76
12/27/2021 12:45:00 PM 1.98 35.564 0.109 7.1 7.44 13.77
12/27/2021 1:00:00 PM 1.96 35.528 0.109 7.09 7.51 13.8
12/27/2021 1:15:00 PM 1.97 35.546 0.109 7.07 7.53 13.85
12/27/2021 1:30:00 PM 2.02 35.636 0.109 7.11 7.35 13.9
12/27/2021 1:45:00 PM 2.04 35.672 0.115 7.18 6.61 13.92
12/27/2021 2:00:00 PM 2.06 35.708 0.11 7.12 7.15 13.92
12/27/2021 2:15:00 PM 2.07 35.726 0.115 7.17 6.49 13.9
12/27/2021 2:30:00 PM 2.08 35.744 0.115 7.11 6.39 13.89
12/27/2021 2:45:00 PM 2.09 35.762 0.115 7.18 6.37 13.88
12/27/2021 3:00:00 PM 2.1 35.78 0.115 7.19 6.32 13.86
12/27/2021 3:15:00 PM 2.11 35.798 0.115 7.18 6.38 13.83
12/27/2021 3:30:00 PM 2.12 35.816 0.115 7.19 6.25 13.81
12/27/2021 3:45:00 PM 2.13 35.834 0.115 7.1 6.12 13.77
12/27/2021 4:00:00 PM 2.14 35.852 0.114 7.12 6.18 13.74
12/27/2021 4:15:00 PM 2.15 35.87 0.115 7.17 6.11 13.69
12/27/2021 4:30:00 PM 2.16 35.888 0.115 7.17 6.26 13.64
12/27/2021 4:45:00 PM 2.17 35.906 0.115 7.14 6.06 13.58
12/27/2021 5:00:00 PM 2.18 35.924 0.11 7.1 7.03 13.53
12/27/2021 5:15:00 PM 2.18 35.924 0.115 7.15 6.17 13.49
12/27/2021 5:30:00 PM 2.19 35.942 0.115 7.05 6.07 13.44
12/27/2021 5:45:00 PM 2.19 35.942 0.116 7.08 6.33 13.4
12/27/2021 6:00:00 PM 2.19 35.942 0.116 7.09 6.09 13.36
12/27/2021 6:15:00 PM 2.18 35.924 0.111 7.09 7.04 13.33
12/27/2021 6:30:00 PM 2.19 35.942 0.116 7.11 6.36 13.3
12/27/2021 6:45:00 PM 2.2 35.96 0.116 7.08 6.21 13.26
12/27/2021 7:00:00 PM 2.2 35.96 0.112 7.07 7.01 13.23
12/27/2021 7:15:00 PM 2.2 35.96 0.11 7.08 7.41 13.2
12/27/2021 7:30:00 PM 2.14 35.852 0.116 7.14 6.11 13.18
12/27/2021 7:45:00 PM 2.06 35.708 0.112 7.07 6.84 13.16
12/27/2021 8:00:00 PM 2.08 35.744 0.116 7.15 6.1 13.15
12/27/2021 8:15:00 PM 2.09 35.762 0.116 7.06 6.34 13.13
12/27/2021 8:30:00 PM 2.09 35.762 0.116 7.16 6.27 13.12
12/27/2021 8:45:00 PM 2.11 35.798 0.111 7.04 7 13.1
12/27/2021 9:00:00 PM 2.11 35.798 0.114 7.09 7.18 13.09
12/27/2021 9:15:00 PM 2.12 35.816 0.116 7.04 6.5 13.09
12/27/2021 9:30:00 PM 2.13 35.834 0.116 7.16 6.33 13.08
12/27/2021 9:45:00 PM 2.14 35.852 0.117 7.04 6.4 13.07
12/27/2021 10:00:00 PM 2.14 35.852 0.116 7.16 6.3 13.06
12/27/2021 10:15:00 PM 2.15 35.87 0.117 7.15 6.25 13.05
12/27/2021 10:30:00 PM 2.16 35.888 0.117 7.13 6.33 13.04
12/27/2021 10:45:00 PM 2.17 35.906 0.117 7.06 6.28 13.04
12/27/2021 11:00:00 PM 2.18 35.924 0.117 7.14 6.27 13.03
12/27/2021 11:15:00 PM 2.18 35.924 0.111 7.04 7.25 13.02
12/27/2021 11:30:00 PM 2.19 35.942 0.117 7.14 6.22 13.01
12/27/2021 11:45:00 PM 2.19 35.942 0.111 7.13 7.11 13.01
12/28/2021 12:00:00 AM 2.19 35.942 0.117 7.13 6.29 13.01
12/28/2021 12:15:00 AM 2.2 35.96 0.117 7.11 6.4 13
12/28/2021 12:30:00 AM 2.2 35.96 0.117 7.02 6.36 13
12/28/2021 12:45:00 AM 2.21 35.978 0.117 7.13 6.28 12.99
12/28/2021 1:00:00 AM 2.22 35.996 0.117 7 6.5 12.98
12/28/2021 1:15:00 AM 2.22 35.996 0.118 7.04 6.39 12.98
12/28/2021 1:30:00 AM 2.23 36.014 0.118 7.07 6.33 12.97
12/28/2021 1:45:00 AM 2.24 36.032 0.118 7.12 6.37 12.98
12/28/2021 2:00:00 AM 2.24 36.032 0.118 7.12 6.41 12.97
12/28/2021 2:15:00 AM 2.25 36.05 0.113 6.98 7.32 12.96
12/28/2021 2:30:00 AM 2.26 36.068 0.118 7.09 6.79 12.96
12/28/2021 2:45:00 AM 2.26 36.068 0.119 7.11 6.81 12.96
12/28/2021 3:00:00 AM 2.27 36.086 0.112 7.11 7.52 12.95
12/28/2021 3:15:00 AM 2.28 36.104 0.113 7.04 7.44 12.95
12/28/2021 3:30:00 AM 2.29 36.122 0.113 7.04 7.4 12.95
12/28/2021 3:45:00 AM 2.3 36.14 0.119 7.11 6.45 12.94
12/28/2021 4:00:00 AM 2.3 36.14 0.119 6.97 6.51 12.94
12/28/2021 4:15:00 AM 2.31 36.158 0.114 7.03 7.28 12.94
12/28/2021 4:30:00 AM 2.32 36.176 0.12 6.97 6.42 12.93
12/28/2021 4:45:00 AM 2.32 36.176 0.114 7.04 7.48 12.93
12/28/2021 5:00:00 AM 2.31 36.158 0.12 7.05 6.28 12.93
12/28/2021 5:15:00 AM 2.31 36.158 0.12 7.02 6.28 12.93
12/28/2021 5:30:00 AM 2.3 36.14 0.114 7.05 7.29 12.93
12/28/2021 5:45:00 AM 2.29 36.122 0.12 7.1 6.11 12.93
12/28/2021 6:00:00 AM 2.28 36.104 0.116 7.11 7.09 12.93
12/28/2021 6:15:00 AM 2.27 36.086 0.12 7.11 6.23 12.93
12/28/2021 6:30:00 AM 2.26 36.068 0.12 7.11 6.06 12.93
12/28/2021 6:45:00 AM 2.26 36.068 0.116 6.95 7.05 12.93
12/28/2021 7:00:00 AM 2.26 36.068 0.12 7.12 6.02 12.93
12/28/2021 7:15:00 AM 2.26 36.068 0.12 7.1 5.96 12.94
12/28/2021 7:30:00 AM 2.25 36.05 0.114 6.97 6.77 12.94
12/28/2021 7:45:00 AM 2.24 36.032 0.12 7.07 5.98 12.95
12/28/2021 8:00:00 AM 2.24 36.032 0.12 7.1 5.86 12.97
12/28/2021 8:15:00 AM 2.24 36.032 0.121 7.05 6.02 13
12/28/2021 8:30:00 AM 2.24 36.032 0.116 7.05 6.81 13.04
12/28/2021 8:45:00 AM 2.24 36.032 0.121 7.12 6.07 13.11
12/28/2021 9:00:00 AM 2.24 36.032 0.115 6.99 6.97 13.18
12/28/2021 9:15:00 AM 2.26 36.068 0.122 7.06 5.99 13.25
12/28/2021 9:30:00 AM 2.28 36.104 0.116 7.04 7.1 13.32
12/28/2021 9:45:00 AM 2.29 36.122 0.116 7.08 6.63 13.39
12/28/2021 10:00:00 AM 2.33 36.194 0.122 7.13 5.84 13.47
12/28/2021 10:15:00 AM 2.37 36.266 0.116 7.1 6.59 13.55
12/28/2021 10:30:00 AM 2.4 36.32 0.118 7.1 6.41 13.61
12/28/2021 10:45:00 AM 2.44 36.392 0.122 7.12 5.74 13.66
12/28/2021 11:00:00 AM 2.49 36.482 0.122 7.13 5.67 13.72
12/28/2021 11:15:00 AM 2.55 36.59 0.115 7.14 6.47 13.78
12/28/2021 11:30:00 AM 2.62 36.716 0.115 7.17 6.23 13.82
12/28/2021 11:45:00 AM 2.68 36.824 0.115 7.09 6.41 13.86
12/28/2021 12:00:00 PM 2.74 36.932 0.118 7.19 6.43 13.88
12/28/2021 12:15:00 PM 2.8 37.04 0.121 7.12 5.47 13.92
12/28/2021 12:30:00 PM 2.88 37.184 0.121 7.19 5.48 13.95
12/28/2021 12:45:00 PM 2.95 37.31 0.121 7.3 5.3 13.97
12/28/2021 1:00:00 PM 3.01 37.418 0.12 7.31 5.49 13.99
12/28/2021 1:15:00 PM 3.05 37.49 0.12 7.32 5.34 14
12/28/2021 1:30:00 PM 3.1 37.58 0.116 7.33 6.38 13.99
12/28/2021 1:45:00 PM 3.14 37.652 0.114 7.18 6.3 13.97
12/28/2021 2:00:00 PM 3.18 37.724 0.12 7.33 5.35 13.95
12/28/2021 2:15:00 PM 3.21 37.778 0.12 7.3 5.42 13.9
12/28/2021 2:30:00 PM 3.24 37.832 0.12 7.23 5.19 13.83
12/28/2021 2:45:00 PM 3.28 37.904 0.12 7.23 5.32 13.79
12/28/2021 3:00:00 PM 3.33 37.994 0.115 7.25 6.05 13.77
12/28/2021 3:15:00 PM 3.37 38.066 0.12 7.34 5.3 13.73
12/28/2021 3:30:00 PM 3.39 38.102 0.113 7.19 5.89 13.65
12/28/2021 3:45:00 PM 3.41 38.138 0.12 7.33 5.41 13.58
12/28/2021 4:00:00 PM 3.41 38.138 0.114 7.16 6.17 13.5
12/28/2021 4:15:00 PM 3.41 38.138 0.12 7.22 5.33 13.42
12/28/2021 4:30:00 PM 3.41 38.138 0.114 7.3 6.07 13.34
12/28/2021 4:45:00 PM 3.4 38.12 0.12 7.27 5.47 13.28
12/28/2021 5:00:00 PM 3.4 38.12 0.12 7.26 5.55 13.22
12/28/2021 5:15:00 PM 3.39 38.102 0.121 7.25 5.44 13.16
12/28/2021 5:30:00 PM 3.38 38.084 0.121 7.09 5.63 13.12
12/28/2021 5:45:00 PM 3.38 38.084 0.116 7.1 6.55 13.07
12/28/2021 6:00:00 PM 3.37 38.066 0.121 7.17 5.77 13.03
12/28/2021 6:15:00 PM 3.36 38.048 0.115 7.09 6.73 12.99
12/28/2021 6:30:00 PM 3.36 38.048 0.122 7.12 5.94 12.95
12/28/2021 6:45:00 PM 3.35 38.03 0.122 7.2 5.92 12.91
12/28/2021 7:00:00 PM 3.34 38.012 0.122 7.2 5.91 12.88
12/28/2021 7:15:00 PM 3.31 37.958 0.122 7.19 5.97 12.86
12/28/2021 7:30:00 PM 3.27 37.886 0.116 7.2 6.98 12.83
12/28/2021 7:45:00 PM 3.17 37.706 0.122 7.16 5.9 12.82
12/28/2021 8:00:00 PM 3.07 37.526 0.122 7.18 6.08 12.8
12/28/2021 8:15:00 PM 3.01 37.418 0.118 7.18 6.89 12.78
12/28/2021 8:30:00 PM 2.96 37.328 0.122 7.14 5.79 12.78
12/28/2021 8:45:00 PM 2.91 37.238 0.122 7.17 6.02 12.77
12/28/2021 9:00:00 PM 2.89 37.202 0.122 7.17 6.02 12.77
12/28/2021 9:15:00 PM 2.9 37.22 0.116 7.18 6.88 12.76
12/28/2021 9:30:00 PM 2.89 37.202 0.121 7.14 5.9 12.77
12/28/2021 9:45:00 PM 2.88 37.184 0.122 7.03 5.97 12.77
12/28/2021 10:00:00 PM 2.86 37.148 0.123 7.16 6.02 12.77
12/28/2021 10:15:00 PM 2.84 37.112 0.116 7 6.8 12.77
12/28/2021 10:30:00 PM 2.82 37.076 0.116 7 7.06 12.78
12/28/2021 10:45:00 PM 2.8 37.04 0.122 7.15 6.07 12.79
12/28/2021 11:00:00 PM 2.78 37.004 0.121 7.14 6.35 12.79
12/28/2021 11:15:00 PM 2.78 37.004 0.121 7 6 12.79
12/28/2021 11:30:00 PM 2.77 36.986 0.121 7.04 6.19 12.79
12/28/2021 11:45:00 PM 2.77 36.986 0.116 7.06 7.01 12.79
12/29/2021 12:00:00 AM 2.76 36.968 0.121 7.14 5.98 12.8
12/29/2021 12:15:00 AM 2.76 36.968 0.114 6.99 7.17 12.8
12/29/2021 12:30:00 AM 2.76 36.968 0.121 7.11 6.25 12.8
12/29/2021 12:45:00 AM 2.75 36.95 0.115 6.97 7.06 12.8
12/29/2021 1:00:00 AM 2.74 36.932 0.121 7.06 6.22 12.81
12/29/2021 1:15:00 AM 2.73 36.914 0.122 7 6.65 12.8
12/29/2021 1:30:00 AM 2.72 36.896 0.121 7.02 6.74 12.81
12/29/2021 1:45:00 AM 2.72 36.896 0.118 7.13 7.62 12.81
12/29/2021 2:00:00 AM 2.71 36.878 0.121 7.05 6.85 12.81
12/29/2021 2:15:00 AM 2.7 36.86 0.118 7.04 7.66 12.82
12/29/2021 2:30:00 AM 2.7 36.86 0.118 7.12 7.83 12.82
12/29/2021 2:45:00 AM 2.68 36.824 0.118 7.13 8.09 12.82
12/29/2021 3:00:00 AM 2.67 36.806 0.116 6.93 8.28 12.82
12/29/2021 3:15:00 AM 2.66 36.788 0.122 7.12 8.06 12.83
12/29/2021 3:30:00 AM 2.64 36.752 0.123 7.09 7.89 12.83
12/29/2021 3:45:00 AM 2.63 36.734 0.119 7.11 8.99 12.84
12/29/2021 4:00:00 AM 2.62 36.716 0.124 7.12 8.58 12.85
12/29/2021 4:15:00 AM 2.6 36.68 0.118 6.94 9.09 12.85
12/29/2021 4:30:00 AM 2.59 36.662 0.125 7.02 7.95 12.86
12/29/2021 4:45:00 AM 2.58 36.644 0.118 7 8.18 12.86
12/29/2021 5:00:00 AM 2.57 36.626 0.124 7.1 7.51 12.86
12/29/2021 5:15:00 AM 2.56 36.608 0.124 7 7.05 12.87
12/29/2021 5:30:00 AM 2.56 36.608 0.124 7.04 7 12.87
12/29/2021 5:45:00 AM 2.55 36.59 0.118 7 7.66 12.88
12/29/2021 6:00:00 AM 2.55 36.59 0.125 7.1 7.19 12.88
12/29/2021 6:15:00 AM 2.54 36.572 0.125 7.11 6.96 12.88
12/29/2021 6:30:00 AM 2.54 36.572 0.125 6.96 7.28 12.88
12/29/2021 6:45:00 AM 2.53 36.554 0.125 7.08 7.14 12.88
12/29/2021 7:00:00 AM 2.53 36.554 0.125 7.11 6.86 12.88
12/29/2021 7:15:00 AM 2.53 36.554 0.126 7.1 6.87 12.88
12/29/2021 7:30:00 AM 2.53 36.554 0.121 6.97 7.83 12.89
12/29/2021 7:45:00 AM 2.53 36.554 0.126 7.12 6.88 12.89
12/29/2021 8:00:00 AM 2.53 36.554 0.126 7 6.97 12.89
12/29/2021 8:15:00 AM 2.53 36.554 0.126 7.02 6.87 12.9
12/29/2021 8:30:00 AM 2.53 36.554 0.126 7.02 6.73 12.91
12/29/2021 8:45:00 AM 2.54 36.572 0.127 7.12 6.48 12.93
12/29/2021 9:00:00 AM 2.55 36.59 0.121 7.12 7.54 12.95
12/29/2021 9:15:00 AM 2.55 36.59 0.121 6.96 7.47 12.99
12/29/2021 9:30:00 AM 2.56 36.608 0.124 7.13 7.19 13.02
12/29/2021 9:45:00 AM 2.58 36.644 0.128 7.12 6.45 13.03
12/29/2021 10:00:00 AM 2.59 36.662 0.124 6.98 7.42 13.07
12/29/2021 10:15:00 AM 2.61 36.698 0.129 7.15 6.5 13.11
12/29/2021 10:30:00 AM 2.63 36.734 0.129 7.15 6.44 13.14
12/29/2021 10:45:00 AM 2.65 36.77 0.13 7.15 6.26 13.2
12/29/2021 11:00:00 AM 2.68 36.824 0.131 7.17 6.38 13.25
12/29/2021 11:15:00 AM 2.71 36.878 0.131 7.16 6.14 13.31
12/29/2021 11:30:00 AM 2.75 36.95 0.132 7.07 6.19 13.36
12/29/2021 11:45:00 AM 2.79 37.022 0.132 7.2 5.97 13.42
12/29/2021 12:00:00 PM 2.83 37.094 0.128 7.07 6.81 13.47
12/29/2021 12:15:00 PM 2.87 37.166 0.133 7.13 5.92 13.51
12/29/2021 12:30:00 PM 2.91 37.238 0.134 7.23 5.88 13.56
12/29/2021 12:45:00 PM 2.95 37.31 0.127 7.11 6.97 13.59
12/29/2021 1:00:00 PM 2.99 37.382 0.134 7.24 6.87 13.61
12/29/2021 1:15:00 PM 3.03 37.454 0.135 7.26 6.98 13.63
12/29/2021 1:30:00 PM 3.06 37.508 0.135 7.26 6.67 13.64
12/29/2021 1:45:00 PM 3.1 37.58 0.131 7.13 7.2 13.66
12/29/2021 2:00:00 PM 3.14 37.652 0.136 7.19 6.18 13.67
12/29/2021 2:15:00 PM 3.17 37.706 0.136 7.27 5.96 13.67
12/29/2021 2:30:00 PM 3.21 37.778 0.136 7.19 5.94 13.68
12/29/2021 2:45:00 PM 3.25 37.85 0.136 7.2 5.87 13.66
12/29/2021 3:00:00 PM 3.28 37.904 0.136 7.21 5.96 13.64
12/29/2021 3:15:00 PM 3.32 37.976 0.136 7.29 6.02 13.63
12/29/2021 3:30:00 PM 3.34 38.012 0.136 7.29 5.98 13.59
12/29/2021 3:45:00 PM 3.37 38.066 0.136 7.29 6.33 13.55
12/29/2021 4:00:00 PM 3.38 38.084 0.136 7.28 6.67 13.49
12/29/2021 4:15:00 PM 3.4 38.12 0.131 7.28 7.66 13.43
12/29/2021 4:30:00 PM 3.41 38.138 0.136 7.26 7.59 13.37
12/29/2021 4:45:00 PM 3.42 38.156 0.136 7.26 7.75 13.3
12/29/2021 5:00:00 PM 3.43 38.174 0.136 7.25 8 13.24
12/29/2021 5:15:00 PM 3.44 38.192 0.131 7.13 9.23 13.18
12/29/2021 5:30:00 PM 3.44 38.192 0.136 7.24 9.27 13.13
12/29/2021 5:45:00 PM 3.45 38.21 0.132 7.09 11.16 13.09
12/29/2021 6:00:00 PM 3.45 38.21 0.136 7.15 12.09 13.05
12/29/2021 6:15:00 PM 3.45 38.21 0.13 7.14 13.3 13.01
12/29/2021 6:30:00 PM 3.46 38.228 0.136 7.19 12.81 12.98
12/29/2021 6:45:00 PM 3.46 38.228 0.131 7.08 13.09 12.95
12/29/2021 7:00:00 PM 3.46 38.228 0.128 7.11 11.49 12.92
12/29/2021 7:15:00 PM 3.46 38.228 0.135 7.18 11.01 12.9
12/29/2021 7:30:00 PM 3.46 38.228 0.135 7.18 9.69 12.87
12/29/2021 7:45:00 PM 3.46 38.228 0.135 7.17 9.83 12.85
12/29/2021 8:00:00 PM 3.46 38.228 0.131 7.05 10.33 12.84
12/29/2021 8:15:00 PM 3.46 38.228 0.135 7.09 10.16 12.83
12/29/2021 8:30:00 PM 3.46 38.228 0.135 7.09 10.34 12.82
12/29/2021 8:45:00 PM 3.46 38.228 0.135 7.09 10.81 12.81
12/29/2021 9:00:00 PM 3.46 38.228 0.135 7.08 12.53 12.8
12/29/2021 9:15:00 PM 3.45 38.21 0.135 7.1 12.63 12.79
12/29/2021 9:30:00 PM 3.45 38.21 0.131 7.07 15.61 12.79
12/29/2021 9:45:00 PM 3.45 38.21 0.135 7.06 16.23 12.78
12/29/2021 10:00:00 PM 3.45 38.21 0.131 7.07 16.08 12.78
12/29/2021 10:15:00 PM 3.45 38.21 0.135 7.12 14.7 12.77
12/29/2021 10:30:00 PM 3.44 38.192 0.134 7.1 13.84 12.76
12/29/2021 10:45:00 PM 3.44 38.192 0.128 7.04 13.23 12.76
12/29/2021 11:00:00 PM 3.44 38.192 0.134 7.08 12.17 12.75
12/29/2021 11:15:00 PM 3.43 38.174 0.134 7.11 11.65 12.75
12/29/2021 11:30:00 PM 3.42 38.156 0.134 7.1 11.13 12.74
12/29/2021 11:45:00 PM 3.42 38.156 0.13 7.04 10.85 12.74
12/30/2021 12:00:00 AM 3.41 38.138 0.133 7.06 10.37 12.73
12/30/2021 12:15:00 AM 3.4 38.12 0.133 7.09 10.47 12.73
12/30/2021 12:30:00 AM 3.4 38.12 0.126 7.03 10.52 12.72
12/30/2021 12:45:00 AM 3.39 38.102 0.133 7.08 10.66 12.73
12/30/2021 1:00:00 AM 3.38 38.084 0.126 7.04 10.93 12.72
12/30/2021 1:15:00 AM 3.38 38.084 0.132 7.06 10.48 12.72
12/30/2021 1:30:00 AM 3.37 38.066 0.128 7.04 10.79 12.72
12/30/2021 1:45:00 AM 3.36 38.048 0.132 7.08 10.43 12.72
12/30/2021 2:00:00 AM 3.36 38.048 0.132 7.01 9.98 12.71
12/30/2021 2:15:00 AM 3.35 38.03 0.132 7.01 9.98 12.71
12/30/2021 2:30:00 AM 3.35 38.03 0.132 7.08 9.78 12.71
12/30/2021 2:45:00 AM 3.34 38.012 0.132 7.02 10.17 12.71
12/30/2021 3:00:00 AM 3.34 38.012 0.131 7.09 9.83 12.71
12/30/2021 3:15:00 AM 3.34 38.012 0.131 7.08 10.12 12.72
12/30/2021 3:30:00 AM 3.33 37.994 0.127 7.09 10.3 12.71
12/30/2021 3:45:00 AM 3.33 37.994 0.131 7.08 9.43 12.71
12/30/2021 4:00:00 AM 3.33 37.994 0.13 7.08 9.66 12.72
12/30/2021 4:15:00 AM 3.33 37.994 0.13 7.08 9.68 12.71
12/30/2021 4:30:00 AM 3.33 37.994 0.126 6.99 9.72 12.71
12/30/2021 4:45:00 AM 3.32 37.976 0.125 7.02 9.57 12.71
12/30/2021 5:00:00 AM 3.32 37.976 0.129 7.07 9.45 12.7
12/30/2021 5:15:00 AM 3.32 37.976 0.129 7.07 8.82 12.7
12/30/2021 5:30:00 AM 3.32 37.976 0.122 6.98 9.55 12.7
12/30/2021 5:45:00 AM 3.32 37.976 0.128 7.01 8.49 12.71
12/30/2021 6:00:00 AM 3.32 37.976 0.128 7.06 8.37 12.7
12/30/2021 6:15:00 AM 3.32 37.976 0.128 7.06 8.65 12.7
12/30/2021 6:30:00 AM 3.32 37.976 0.127 7 8.46 12.7
12/30/2021 6:45:00 AM 3.32 37.976 0.127 7.05 8.56 12.7
12/30/2021 7:00:00 AM 3.33 37.994 0.127 7.01 8.1 12.69
12/30/2021 7:15:00 AM 3.33 37.994 0.127 7.06 7.9 12.69
12/30/2021 7:30:00 AM 3.33 37.994 0.126 7.07 7.88 12.7
12/30/2021 7:45:00 AM 3.33 37.994 0.126 7.06 7.6 12.7
12/30/2021 8:00:00 AM 3.34 38.012 0.119 7.04 8.55 12.7
12/30/2021 8:15:00 AM 3.34 38.012 0.126 7.07 7.76 12.71
12/30/2021 8:30:00 AM 3.35 38.03 0.125 7.06 7.45 12.74
12/30/2021 8:45:00 AM 3.36 38.048 0.122 7 8.15 12.75
12/30/2021 9:00:00 AM 3.36 38.048 0.125 7.02 7.65 12.78
12/30/2021 9:15:00 AM 3.37 38.066 0.121 7.03 7.87 12.79
12/30/2021 9:30:00 AM 3.38 38.084 0.125 7.04 6.8 12.81
12/30/2021 9:45:00 AM 3.4 38.12 0.118 7.03 7.5 12.85
12/30/2021 10:00:00 AM 3.41 38.138 0.124 7.09 7.22 12.89
12/30/2021 10:15:00 AM 3.43 38.174 0.124 7.05 6.77 12.95
12/30/2021 10:30:00 AM 3.45 38.21 0.124 7.06 6.6 12.96
12/30/2021 10:45:00 AM 3.47 38.246 0.117 7.07 7.45 13
12/30/2021 11:00:00 AM 3.49 38.282 0.117 7.04 7.43 13.05
12/30/2021 11:15:00 AM 3.52 38.336 0.123 7.12 6.5 13.1
12/30/2021 11:30:00 AM 3.54 38.372 0.123 7.08 6.35 13.14
12/30/2021 11:45:00 AM 3.57 38.426 0.123 7.1 6.23 13.18
12/30/2021 12:00:00 PM 3.59 38.462 0.119 7.1 7.02 13.2
12/30/2021 12:15:00 PM 3.62 38.516 0.117 7.1 7.13 13.23
12/30/2021 12:30:00 PM 3.64 38.552 0.123 7.17 6.16 13.26
12/30/2021 12:45:00 PM 3.67 38.606 0.117 7.12 6.87 13.28
12/30/2021 1:00:00 PM 3.71 38.678 0.123 7.16 6.01 13.32
12/30/2021 1:15:00 PM 3.74 38.732 0.117 7.13 6.96 13.35
12/30/2021 1:30:00 PM 3.77 38.786 0.123 7.2 6.06 13.35
12/30/2021 1:45:00 PM 3.8 38.84 0.116 7.1 7.12 13.38
12/30/2021 2:00:00 PM 3.84 38.912 0.119 7.17 6.96 13.4
12/30/2021 2:15:00 PM 3.87 38.966 0.123 7.21 6.6 13.4
12/30/2021 2:30:00 PM 3.9 39.02 0.122 7.21 8.12 13.37
12/30/2021 2:45:00 PM 3.93 39.074 0.116 7.15 11.38 13.33
12/30/2021 3:00:00 PM 3.97 39.146 0.122 7.22 13.67 13.3
12/30/2021 3:15:00 PM 3.99 39.182 0.116 7.15 16.43 13.24
12/30/2021 3:30:00 PM 4 39.2 0.116 7.14 19.24 13.19
12/30/2021 3:45:00 PM 4.02 39.236 0.116 7.07 12.32 13.14
12/30/2021 4:00:00 PM 4.03 39.254 0.116 7.14 23.26 13.07
12/30/2021 4:15:00 PM 4.04 39.272 0.116 7.14 24.9 13.02
12/30/2021 4:30:00 PM 4.05 39.29 0.119 7.15 28.79 12.98
12/30/2021 4:45:00 PM 4.06 39.308 0.119 7.11 23.76 12.94
12/30/2021 5:00:00 PM 4.07 39.326 0.122 7.16 20.52 12.9
12/30/2021 5:15:00 PM 4.08 39.344 0.119 7.11 17.27 12.85
12/30/2021 5:30:00 PM 4.09 39.362 0.116 7.09 13.02 12.82
12/30/2021 5:45:00 PM 4.1 39.38 0.122 7.09 13.28 12.78
12/30/2021 6:00:00 PM 4.11 39.398 0.119 7.08 13.12 12.75
12/30/2021 6:15:00 PM 4.11 39.398 0.122 7.13 11.24 12.72
12/30/2021 6:30:00 PM 4.12 39.416 0.122 7.1 10.69 12.68
12/30/2021 6:45:00 PM 4.12 39.416 0.118 7.07 10.11 12.64
12/30/2021 7:00:00 PM 4.13 39.434 0.116 7 9.78 12.61
12/30/2021 7:15:00 PM 4.13 39.434 0.119 7.07 9.4 12.58
12/30/2021 7:30:00 PM 4.14 39.452 0.116 7.04 9.25 12.56
12/30/2021 7:45:00 PM 4.14 39.452 0.116 7.06 9.45 12.54
12/30/2021 8:00:00 PM 4.14 39.452 0.116 7 9.6 12.52
12/30/2021 8:15:00 PM 4.15 39.47 0.122 7.04 9.41 12.5
12/30/2021 8:30:00 PM 4.15 39.47 0.122 7.09 9.65 12.48
12/30/2021 8:45:00 PM 4.16 39.488 0.122 7.06 10.69 12.47
12/30/2021 9:00:00 PM 4.16 39.488 0.122 7.09 10.95 12.45
12/30/2021 9:15:00 PM 4.16 39.488 0.122 7.09 11.35 12.44
12/30/2021 9:30:00 PM 4.17 39.506 0.118 6.97 11.26 12.43
12/30/2021 9:45:00 PM 4.17 39.506 0.122 7.08 10.76 12.43
12/30/2021 10:00:00 PM 4.18 39.524 0.122 7.07 9.98 12.42
12/30/2021 10:15:00 PM 4.18 39.524 0.122 7.08 8.97 12.41
12/30/2021 10:30:00 PM 4.18 39.524 0.122 7.07 8.96 12.4
12/30/2021 10:45:00 PM 4.18 39.524 0.122 7.07 8.6 12.39
12/30/2021 11:00:00 PM 4.18 39.524 0.122 7.07 8.38 12.39
12/30/2021 11:15:00 PM 4.18 39.524 0.122 7.07 7.78 12.38
12/30/2021 11:30:00 PM 4.18 39.524 0.122 7.06 8.13 12.38
12/30/2021 11:45:00 PM 4.18 39.524 0.119 7.06 9.13 12.37
12/31/2021 12:00:00 AM 4.18 39.524 0.122 7.06 8.36 12.37
12/31/2021 12:15:00 AM 4.18 39.524 0.119 6.95 9.15 12.36
12/31/2021 12:30:00 AM 4.18 39.524 0.122 7.04 8.62 12.36
12/31/2021 12:45:00 AM 4.17 39.506 0.122 7 8.47 12.36
12/31/2021 1:00:00 AM 4.17 39.506 0.122 7.06 9.03 12.36
12/31/2021 1:15:00 AM 4.16 39.488 0.119 7.01 10.05 12.36
12/31/2021 1:30:00 AM 4.16 39.488 0.119 6.96 10.76 12.36
12/31/2021 1:45:00 AM 4.15 39.47 0.123 7.05 10.36 12.36
12/31/2021 2:00:00 AM 4.15 39.47 0.116 7 11.47 12.36
12/31/2021 2:15:00 AM 4.14 39.452 0.123 7 10.89 12.36
12/31/2021 2:30:00 AM 4.13 39.434 0.123 7.01 10.82 12.36
12/31/2021 2:45:00 AM 4.12 39.416 0.119 7 11.49 12.36
12/31/2021 3:00:00 AM 4.11 39.398 0.123 7.05 10.69 12.36
12/31/2021 3:15:00 AM 4.11 39.398 0.12 6.92 10.94 12.36
12/31/2021 3:30:00 AM 4.11 39.398 0.123 7.04 9.46 12.37
12/31/2021 3:45:00 AM 4.1 39.38 0.117 6.98 10.12 12.37
12/31/2021 4:00:00 AM 4.09 39.362 0.123 7.04 9.25 12.37
12/31/2021 4:15:00 AM 4.09 39.362 0.123 6.96 8.63 12.37
12/31/2021 4:30:00 AM 4.08 39.344 0.123 6.99 8.12 12.37
12/31/2021 4:45:00 AM 4.08 39.344 0.123 7 8.16 12.37
12/31/2021 5:00:00 AM 4.07 39.326 0.123 7.04 8.12 12.37
12/31/2021 5:15:00 AM 4.07 39.326 0.123 6.96 7.84 12.37
12/31/2021 5:30:00 AM 4.06 39.308 0.123 7.03 8.02 12.37
12/31/2021 5:45:00 AM 4.06 39.308 0.117 6.94 8.26 12.37
12/31/2021 6:00:00 AM 4.05 39.29 0.123 6.99 7.58 12.37
12/31/2021 6:15:00 AM 4.05 39.29 0.123 6.95 7.43 12.37
12/31/2021 6:30:00 AM 4.05 39.29 0.123 7.03 7.21 12.37
12/31/2021 6:45:00 AM 4.04 39.272 0.119 6.91 7.86 12.38
12/31/2021 7:00:00 AM 4.04 39.272 0.123 7 7.19 12.37
12/31/2021 7:15:00 AM 4.02 39.236 0.117 6.98 7.61 12.37
12/31/2021 7:30:00 AM 4.02 39.236 0.117 6.91 7.91 12.37
12/31/2021 7:45:00 AM 4.02 39.236 0.117 6.93 7.89 12.38
12/31/2021 8:00:00 AM 4.03 39.254 0.123 7 6.76 12.4
12/31/2021 8:15:00 AM 4.03 39.254 0.123 7 6.77 12.43
12/31/2021 8:30:00 AM 4.04 39.272 0.119 7 7.34 12.45
12/31/2021 8:45:00 AM 4.05 39.29 0.119 6.98 7.33 12.5
12/31/2021 9:00:00 AM 4.06 39.308 0.116 6.99 7.14 12.55
12/31/2021 9:15:00 AM 4.07 39.326 0.116 7.01 7.36 12.58
12/31/2021 9:30:00 AM 4.08 39.344 0.116 7 7.06 12.62
12/31/2021 9:45:00 AM 4.1 39.38 0.116 6.95 7.1 12.7
12/31/2021 10:00:00 AM 4.13 39.434 0.122 7.08 6.15 12.77
12/31/2021 10:15:00 AM 4.17 39.506 0.122 7.01 6.09 12.85
12/31/2021 10:30:00 AM 4.2 39.56 0.116 7.06 6.84 12.93
12/31/2021 10:45:00 AM 4.24 39.632 0.122 7.12 6.06 12.98
12/31/2021 11:00:00 AM 4.29 39.722 0.122 7.12 6.04 13.06
12/31/2021 11:15:00 AM 4.33 39.794 0.122 7.14 5.91 13.13
12/31/2021 11:30:00 AM 4.38 39.884 0.122 7.15 6.22 13.15
12/31/2021 11:45:00 AM 4.44 39.992 0.122 7.17 6.04 13.22
12/31/2021 12:00:00 PM 4.5 40.1 0.122 7.19 5.85 13.28
12/31/2021 12:15:00 PM 4.56 40.208 0.122 7.1 6.08 13.32
12/31/2021 12:30:00 PM 4.62 40.316 0.122 7.16 5.95 13.35
12/31/2021 12:45:00 PM 4.7 40.46 0.121 7.23 5.93 13.38
12/31/2021 1:00:00 PM 4.77 40.586 0.121 7.23 6.09 13.4
12/31/2021 1:15:00 PM 4.8 40.64 0.121 7.17 5.88 13.36
12/31/2021 1:30:00 PM 4.84 40.712 0.121 7.24 5.97 13.34
12/31/2021 1:45:00 PM 4.87 40.766 0.121 7.18 6 13.32
12/31/2021 2:00:00 PM 4.93 40.874 0.121 7.23 5.84 13.34
12/31/2021 2:15:00 PM 4.98 40.964 0.121 7.23 6.08 13.35
12/31/2021 2:30:00 PM 5.01 41.018 0.121 7.27 6 13.31
12/31/2021 2:45:00 PM 5.03 41.054 0.121 7.2 6.4 13.23
12/31/2021 3:00:00 PM 5.05 41.09 0.121 7.26 6.8 13.17
12/31/2021 3:15:00 PM 5.07 41.126 0.121 7.26 7.27 13.14
12/31/2021 3:30:00 PM 5.09 41.162 0.121 7.25 7.75 13.08
12/31/2021 3:45:00 PM 5.12 41.216 0.121 7.22 9.03 13.03
12/31/2021 4:00:00 PM 5.14 41.252 0.121 7.24 10.07 12.95
12/31/2021 4:15:00 PM 5.14 41.252 0.121 7.22 11.46 12.87
12/31/2021 4:30:00 PM 5.14 41.252 0.121 7.12 11.97 12.81
12/31/2021 4:45:00 PM 5.14 41.252 0.121 7.2 11.22 12.74
12/31/2021 5:00:00 PM 5.14 41.252 0.121 7.14 10.86 12.66
12/31/2021 5:15:00 PM 5.14 41.252 0.121 7.18 9.98 12.6
12/31/2021 5:30:00 PM 5.14 41.252 0.121 7.16 8.85 12.55
12/31/2021 5:45:00 PM 5.13 41.234 0.121 7.15 8.45 12.49
12/31/2021 6:00:00 PM 5.12 41.216 0.121 7.14 7.91 12.44
12/31/2021 6:15:00 PM 5.12 41.216 0.121 7.13 7.46 12.39
12/31/2021 6:30:00 PM 5.11 41.198 0.121 7.13 7.76 12.35
12/31/2021 6:45:00 PM 5.1 41.18 0.121 7.08 7.26 12.31
12/31/2021 7:00:00 PM 5.09 41.162 0.121 7.05 7.3 12.28
12/31/2021 7:15:00 PM 5.08 41.144 0.121 7.1 7.54 12.24
12/31/2021 7:30:00 PM 5.07 41.126 0.121 7.1 7.46 12.21
12/31/2021 7:45:00 PM 5.07 41.126 0.121 7.08 7.55 12.18
12/31/2021 8:00:00 PM 5.05 41.09 0.121 7.1 7.75 12.16
12/31/2021 8:15:00 PM 5.04 41.072 0.121 7.08 7.98 12.14
12/31/2021 8:30:00 PM 5.02 41.036 0.121 7.01 8.11 12.13
12/31/2021 8:45:00 PM 5 41 0.122 7.07 8.1 12.11
12/31/2021 9:00:00 PM 4.98 40.964 0.122 7 7.97 12.1
12/31/2021 9:15:00 PM 4.95 40.91 0.121 7.07 7.89 12.1
12/31/2021 9:30:00 PM 4.92 40.856 0.122 7.07 7.65 12.08
12/31/2021 9:45:00 PM 4.9 40.82 0.121 7.05 7.36 12.08
12/31/2021 10:00:00 PM 4.88 40.784 0.122 7.05 7 12.07
12/31/2021 10:15:00 PM 4.86 40.748 0.122 7.05 7.23 12.07
12/31/2021 10:30:00 PM 4.84 40.712 0.122 7.04 7.17 12.07
12/31/2021 10:45:00 PM 4.82 40.676 0.118 7 7.78 12.07
12/31/2021 11:00:00 PM 4.8 40.64 0.122 7.06 6.74 12.08
12/31/2021 11:15:00 PM 4.78 40.604 0.122 7.05 6.72 12.07
12/31/2021 11:30:00 PM 4.77 40.586 0.122 7.05 6.62 12.07
12/31/2021 11:45:00 PM 4.75 40.55 0.122 7.05 6.53 12.08
1/1/2022 12:00:00 AM 4.72 40.496 0.122 7.05 6.16 12.08
1/1/2022 12:15:00 AM 4.7 40.46 0.122 6.98 6.11 12.09
1/1/2022 12:30:00 AM 4.68 40.424 0.122 7.02 6.02 12.09
1/1/2022 12:45:00 AM 4.66 40.388 0.118 6.99 6.77 12.09
1/1/2022 1:00:00 AM 4.65 40.37 0.122 7.01 5.92 12.1
1/1/2022 1:15:00 AM 4.63 40.334 0.122 7.04 6.05 12.1
1/1/2022 1:30:00 AM 4.61 40.298 0.122 7.04 5.91 12.11
1/1/2022 1:45:00 AM 4.6 40.28 0.122 6.96 5.9 12.1
1/1/2022 2:00:00 AM 4.59 40.262 0.122 6.99 6 12.11
1/1/2022 2:15:00 AM 4.57 40.226 0.122 7.03 5.95 12.12
1/1/2022 2:30:00 AM 4.56 40.208 0.122 7.03 5.95 12.12
1/1/2022 2:45:00 AM 4.55 40.19 0.122 6.97 6.03 12.12
1/1/2022 3:00:00 AM 4.54 40.172 0.122 7.02 6.1 12.13
1/1/2022 3:15:00 AM 4.53 40.154 0.122 7.04 6.31 12.13
1/1/2022 3:30:00 AM 4.52 40.136 0.122 7.03 6.11 12.13
1/1/2022 3:45:00 AM 4.51 40.118 0.122 7.04 6.2 12.14
1/1/2022 4:00:00 AM 4.5 40.1 0.122 7.03 6.35 12.15
1/1/2022 4:15:00 AM 4.49 40.082 0.122 7.03 6.16 12.15
1/1/2022 4:30:00 AM 4.48 40.064 0.122 6.95 6.21 12.15
1/1/2022 4:45:00 AM 4.47 40.046 0.122 7.03 6.34 12.15
1/1/2022 5:00:00 AM 4.47 40.046 0.122 7.02 6.21 12.15
1/1/2022 5:15:00 AM 4.46 40.028 0.122 7.03 6.13 12.15
1/1/2022 5:30:00 AM 4.45 40.01 0.122 6.95 6.45 12.16
1/1/2022 5:45:00 AM 4.44 39.992 0.122 7.03 6.08 12.16
1/1/2022 6:00:00 AM 4.44 39.992 0.122 6.96 5.99 12.16
1/1/2022 6:15:00 AM 4.44 39.992 0.123 7.02 6.03 12.16
1/1/2022 6:30:00 AM 4.43 39.974 0.123 7.02 6.12 12.16
1/1/2022 6:45:00 AM 4.43 39.974 0.123 6.95 6.05 12.16
1/1/2022 7:00:00 AM 4.43 39.974 0.123 6.97 6.08 12.16
1/1/2022 7:15:00 AM 4.43 39.974 0.117 6.98 6.96 12.17
1/1/2022 7:30:00 AM 4.43 39.974 0.123 7.03 6.51 12.16
1/1/2022 7:45:00 AM 4.43 39.974 0.123 7.03 6.53 12.16
1/1/2022 8:00:00 AM 4.44 39.992 0.123 7.02 6.6 12.16
1/1/2022 8:15:00 AM 4.45 40.01 0.119 6.95 7.48 12.18
1/1/2022 8:30:00 AM 4.45 40.01 0.123 7.03 7.28 12.19
1/1/2022 8:45:00 AM 4.46 40.028 0.123 7.02 7.53 12.22
1/1/2022 9:00:00 AM 4.48 40.064 0.123 7.04 8.71 12.25
1/1/2022 9:15:00 AM 4.49 40.082 0.123 7.03 9.45 12.29
1/1/2022 9:30:00 AM 4.51 40.118 0.123 7.04 10.03 12.34
1/1/2022 9:45:00 AM 4.53 40.154 0.123 6.98 10.66 12.39
1/1/2022 10:00:00 AM 4.55 40.19 0.123 7.04 9.81 12.42
1/1/2022 10:15:00 AM 4.57 40.226 0.123 7 9.89 12.48
1/1/2022 10:30:00 AM 4.6 40.28 0.123 7.08 9.38 12.54
1/1/2022 10:45:00 AM 4.63 40.334 0.123 7.09 9.25 12.61
1/1/2022 11:00:00 AM 4.67 40.406 0.123 7.05 8.7 12.67
1/1/2022 11:15:00 AM 4.7 40.46 0.119 7.05 9.2 12.7
1/1/2022 11:30:00 AM 4.73 40.514 0.123 7.05 8 12.73
1/1/2022 11:45:00 AM 4.77 40.586 0.117 7.08 8.51 12.77
1/1/2022 12:00:00 PM 4.8 40.64 0.123 7.11 6.98 12.82
1/1/2022 12:15:00 PM 4.84 40.712 0.123 7.14 6.76 12.85
1/1/2022 12:30:00 PM 4.89 40.802 0.123 7.15 6.66 12.91
1/1/2022 12:45:00 PM 4.94 40.892 0.123 7.09 6.51 12.95
1/1/2022 1:00:00 PM 4.99 40.982 0.123 7.18 6.38 12.96
1/1/2022 1:15:00 PM 5.02 41.036 0.123 7.18 6.35 12.9
1/1/2022 1:30:00 PM 5.06 41.108 0.123 7.18 6.47 12.92
1/1/2022 1:45:00 PM 5.1 41.18 0.123 7.2 6.15 12.95
1/1/2022 2:00:00 PM 5.13 41.234 0.123 7.19 5.92 12.93
1/1/2022 2:15:00 PM 5.16 41.288 0.123 7.13 5.86 12.95
1/1/2022 2:30:00 PM 5.2 41.36 0.123 7.21 5.97 12.95
1/1/2022 2:45:00 PM 5.23 41.414 0.123 7.22 5.93 12.92
1/1/2022 3:00:00 PM 5.25 41.45 0.123 7.21 5.71 12.89
1/1/2022 3:15:00 PM 5.28 41.504 0.123 7.22 5.88 12.85
1/1/2022 3:30:00 PM 5.3 41.54 0.123 7.21 6.39 12.8
1/1/2022 3:45:00 PM 5.32 41.576 0.123 7.21 8 12.72
1/1/2022 4:00:00 PM 5.33 41.594 0.123 7.19 9.57 12.66
1/1/2022 4:15:00 PM 5.35 41.63 0.123 7.17 11.28 12.59
1/1/2022 4:30:00 PM 5.36 41.648 0.123 7.17 11.78 12.51
1/1/2022 4:45:00 PM 5.37 41.666 0.123 7.17 12.22 12.45
1/1/2022 5:00:00 PM 5.38 41.684 0.123 7.15 11.4 12.4
1/1/2022 5:15:00 PM 5.39 41.702 0.123 7.11 10.87 12.35
1/1/2022 5:30:00 PM 5.4 41.72 0.123 7.14 9.61 12.3
1/1/2022 5:45:00 PM 5.41 41.738 0.123 7.13 9.08 12.25
1/1/2022 6:00:00 PM 5.42 41.756 0.123 7.05 8.69 12.21
1/1/2022 6:15:00 PM 5.43 41.774 0.123 7.12 8.63 12.17
1/1/2022 6:30:00 PM 5.43 41.774 0.123 7.03 9.14 12.13
1/1/2022 6:45:00 PM 5.44 41.792 0.123 7.1 9.52 12.09
1/1/2022 7:00:00 PM 5.45 41.81 0.123 7.09 9.37 12.05
1/1/2022 7:15:00 PM 5.45 41.81 0.123 7.05 8.91 12.02
1/1/2022 7:30:00 PM 5.45 41.81 0.123 7.08 8.87 11.99
1/1/2022 7:45:00 PM 5.46 41.828 0.123 7.06 8.3 11.96
1/1/2022 8:00:00 PM 5.46 41.828 0.123 7.06 8.03 11.94
1/1/2022 8:15:00 PM 5.47 41.846 0.123 7.06 7.83 11.92
1/1/2022 8:30:00 PM 5.47 41.846 0.123 6.99 7.29 11.9
1/1/2022 8:45:00 PM 5.48 41.864 0.123 7 6.92 11.89
1/1/2022 9:00:00 PM 5.48 41.864 0.123 7.04 6.95 11.87
1/1/2022 9:15:00 PM 5.48 41.864 0.123 7.04 6.78 11.85
1/1/2022 9:30:00 PM 5.49 41.882 0.123 7.01 6.55 11.84
1/1/2022 9:45:00 PM 5.5 41.9 0.123 7.04 6.53 11.83
1/1/2022 10:00:00 PM 5.51 41.918 0.123 7.01 6.37 11.81
1/1/2022 10:15:00 PM 5.51 41.918 0.123 6.97 6.39 11.81
1/1/2022 10:30:00 PM 5.52 41.936 0.123 6.97 6.27 11.8
1/1/2022 10:45:00 PM 5.52 41.936 0.123 7.04 6.31 11.79
1/1/2022 11:00:00 PM 5.52 41.936 0.122 7.04 6.35 11.78
1/1/2022 11:15:00 PM 5.52 41.936 0.123 7.03 6.39 11.78
1/1/2022 11:30:00 PM 5.53 41.954 0.123 7 6.46 11.77
1/1/2022 11:45:00 PM 5.52 41.936 0.122 7.04 6.32 11.77
1/2/2022 12:00:00 AM 5.52 41.936 0.122 7.03 6.61 11.76
1/2/2022 12:15:00 AM 5.52 41.936 0.122 6.96 6.58 11.75
1/2/2022 12:30:00 AM 5.51 41.918 0.122 7.03 6.59 11.76
1/2/2022 12:45:00 AM 5.51 41.918 0.122 6.98 7.12 11.75
1/2/2022 1:00:00 AM 5.5 41.9 0.122 7.03 7.12 11.75
1/2/2022 1:15:00 AM 5.49 41.882 0.122 7.04 7.15 11.75
1/2/2022 1:30:00 AM 5.49 41.882 0.123 6.96 7.26 11.74
1/2/2022 1:45:00 AM 5.48 41.864 0.123 7.01 7.01 11.75
1/2/2022 2:00:00 AM 5.47 41.846 0.123 7.04 7.27 11.74
1/2/2022 2:15:00 AM 5.47 41.846 0.123 6.96 7.53 11.75
1/2/2022 2:30:00 AM 5.45 41.81 0.123 7.04 7.34 11.75
1/2/2022 2:45:00 AM 5.44 41.792 0.123 7.04 7.33 11.75
1/2/2022 3:00:00 AM 5.43 41.774 0.123 6.95 7.47 11.76
1/2/2022 3:15:00 AM 5.41 41.738 0.123 6.99 7.44 11.75
1/2/2022 3:30:00 AM 5.39 41.702 0.123 7.05 7.56 11.76
1/2/2022 3:45:00 AM 5.37 41.666 0.124 7.03 7.68 11.76
1/2/2022 4:00:00 AM 5.35 41.63 0.124 7.03 7.73 11.77
1/2/2022 4:15:00 AM 5.33 41.594 0.124 7.05 8.3 11.78
1/2/2022 4:30:00 AM 5.31 41.558 0.124 6.99 9.15 11.79
1/2/2022 4:45:00 AM 5.28 41.504 0.121 7.02 10.6 11.8
1/2/2022 5:00:00 AM 5.26 41.468 0.124 7.02 10.6 11.81
1/2/2022 5:15:00 AM 5.24 41.432 0.122 6.99 11.85 11.81
1/2/2022 5:30:00 AM 5.21 41.378 0.124 7.05 12.56 11.83
1/2/2022 5:45:00 AM 5.19 41.342 0.118 6.94 12.03 11.84
1/2/2022 6:00:00 AM 5.16 41.288 0.125 7.05 11.97 11.85
1/2/2022 6:15:00 AM 5.13 41.234 0.125 7.06 11.65 11.86
1/2/2022 6:30:00 AM 5.11 41.198 0.125 7.01 10.84 11.87
1/2/2022 6:45:00 AM 5.08 41.144 0.125 6.99 10.41 11.88
1/2/2022 7:00:00 AM 5.06 41.108 0.125 7 9.87 11.89
1/2/2022 7:15:00 AM 5.02 41.036 0.125 7.05 9.58 11.9
1/2/2022 7:30:00 AM 5 41 0.126 7.07 9.21 11.91
1/2/2022 7:45:00 AM 4.97 40.946 0.12 6.97 9.5 11.92
1/2/2022 8:00:00 AM 4.94 40.892 0.126 7.04 8.41 11.94
1/2/2022 8:15:00 AM 4.91 40.838 0.127 7.07 8.03 11.96
1/2/2022 8:30:00 AM 4.89 40.802 0.127 7.05 7.64 11.99
1/2/2022 8:45:00 AM 4.87 40.766 0.127 7.07 7.43 12.03
1/2/2022 9:00:00 AM 4.84 40.712 0.127 7.03 7.48 12.07
1/2/2022 9:15:00 AM 4.82 40.676 0.127 7.08 7.35 12.11
1/2/2022 9:30:00 AM 4.78 40.604 0.127 7.1 7.34 12.15
1/2/2022 9:45:00 AM 4.75 40.55 0.127 7.04 7.24 12.18
1/2/2022 10:00:00 AM 4.73 40.514 0.127 7.08 7 12.21
1/2/2022 10:15:00 AM 4.7 40.46 0.127 7.12 7.3 12.25
1/2/2022 10:30:00 AM 4.67 40.406 0.128 7.06 7.18 12.3
1/2/2022 10:45:00 AM 4.65 40.37 0.127 7.12 7.1 12.36
1/2/2022 11:00:00 AM 4.63 40.334 0.127 7.14 7.2 12.43
1/2/2022 11:15:00 AM 4.6 40.28 0.127 7.14 6.88 12.48
1/2/2022 11:30:00 AM 4.57 40.226 0.127 7.14 6.95 12.53
1/2/2022 11:45:00 AM 4.55 40.19 0.127 7.16 6.77 12.59
1/2/2022 12:00:00 PM 4.52 40.136 0.127 7.18 6.61 12.65
1/2/2022 12:15:00 PM 4.48 40.064 0.127 7.18 6.78 12.67
1/2/2022 12:30:00 PM 4.46 40.028 0.127 7.19 6.37 12.71
1/2/2022 12:45:00 PM 4.43 39.974 0.127 7.13 6.41 12.76
1/2/2022 1:00:00 PM 4.41 39.938 0.127 7.2 6.12 12.83
1/2/2022 1:15:00 PM 4.39 39.902 0.127 7.2 6.44 12.87
1/2/2022 1:30:00 PM 4.36 39.848 0.127 7.15 6.18 12.91
1/2/2022 1:45:00 PM 4.33 39.794 0.127 7.18 6.17 12.94
1/2/2022 2:00:00 PM 4.29 39.722 0.127 7.22 6.19 12.96
1/2/2022 2:15:00 PM 4.26 39.668 0.126 7.15 6.07 12.97
1/2/2022 2:30:00 PM 4.22 39.596 0.126 7.18 6.28 13.01
1/2/2022 2:45:00 PM 4.2 39.56 0.126 7.19 6.02 13.03
1/2/2022 3:00:00 PM 4.17 39.506 0.126 7.24 6 13.04
1/2/2022 3:15:00 PM 4.14 39.452 0.12 7.18 6.88 13.02
1/2/2022 3:30:00 PM 4.1 39.38 0.12 7.18 6.9 12.99
1/2/2022 3:45:00 PM 4.05 39.29 0.12 7.17 6.9 12.97
1/2/2022 4:00:00 PM 4.01 39.218 0.126 7.21 5.91 12.93
1/2/2022 4:15:00 PM 3.97 39.146 0.119 7.17 6.61 12.9
1/2/2022 4:30:00 PM 3.93 39.074 0.126 7.21 5.99 12.87
1/2/2022 4:45:00 PM 3.88 38.984 0.126 7.13 5.9 12.85
1/2/2022 5:00:00 PM 3.84 38.912 0.125 7.16 5.96 12.83
1/2/2022 5:15:00 PM 3.81 38.858 0.125 7.15 6.07 12.81
1/2/2022 5:30:00 PM 3.77 38.786 0.126 7.14 6 12.79
1/2/2022 5:45:00 PM 3.72 38.696 0.125 7.14 6.22 12.78
1/2/2022 6:00:00 PM 3.68 38.624 0.119 7.11 7.1 12.77
1/2/2022 6:15:00 PM 3.63 38.534 0.125 7.16 6.14 12.75
1/2/2022 6:30:00 PM 3.58 38.444 0.125 7.1 6.17 12.74
1/2/2022 6:45:00 PM 3.53 38.354 0.122 7.11 7.07 12.73
1/2/2022 7:00:00 PM 3.48 38.264 0.125 7.11 6.1 12.73
1/2/2022 7:15:00 PM 3.44 38.192 0.125 7.12 6.24 12.73
1/2/2022 7:30:00 PM 3.4 38.12 0.119 7.09 6.89 12.72
1/2/2022 7:45:00 PM 3.36 38.048 0.125 7.14 6.21 12.73
1/2/2022 8:00:00 PM 3.32 37.976 0.125 7.14 6.35 12.73
1/2/2022 8:15:00 PM 3.28 37.904 0.121 7.08 7.1 12.74
1/2/2022 8:30:00 PM 3.24 37.832 0.125 7.08 5.77 12.74
1/2/2022 8:45:00 PM 3.2 37.76 0.119 7.08 6.77 12.76
1/2/2022 9:00:00 PM 3.16 37.688 0.119 7.06 6.46 12.76
1/2/2022 9:15:00 PM 3.12 37.616 0.125 7.08 5.81 12.77
1/2/2022 9:30:00 PM 3.08 37.544 0.119 7.07 6.9 12.78
1/2/2022 9:45:00 PM 3.04 37.472 0.118 7.06 6.59 12.79
1/2/2022 10:00:00 PM 3.01 37.418 0.125 7.1 5.82 12.8
1/2/2022 10:15:00 PM 2.97 37.346 0.124 7.02 5.7 12.81
1/2/2022 10:30:00 PM 2.93 37.274 0.124 7.09 5.92 12.81
1/2/2022 10:45:00 PM 2.89 37.202 0.119 7.04 6.48 12.83
1/2/2022 11:00:00 PM 2.85 37.13 0.124 7.09 5.86 12.84
1/2/2022 11:15:00 PM 2.82 37.076 0.121 7.06 6.68 12.85
1/2/2022 11:30:00 PM 2.78 37.004 0.12 7.04 6.62 12.86
1/2/2022 11:45:00 PM 2.75 36.95 0.124 7.09 5.91 12.87
1/3/2022 12:00:00 AM 2.71 36.878 0.124 7.07 5.92 12.88
1/3/2022 12:15:00 AM 2.67 36.806 0.121 7.03 6.93 12.9
1/3/2022 12:30:00 AM 2.63 36.734 0.124 7.07 6.08 12.91
1/3/2022 12:45:00 AM 2.6 36.68 0.118 7.06 6.76 12.93
1/3/2022 1:00:00 AM 2.55 36.59 0.124 7.09 6.1 12.94
1/3/2022 1:15:00 AM 2.49 36.482 0.119 7.04 6.59 12.96
1/3/2022 1:30:00 AM 2.45 36.41 0.124 7.03 5.87 12.97
1/3/2022 1:45:00 AM 2.41 36.338 0.118 7.04 6.59 12.98
1/3/2022 2:00:00 AM 2.37 36.266 0.124 7.08 5.72 12.99
1/3/2022 2:15:00 AM 2.33 36.194 0.124 7.07 5.82 13.01
1/3/2022 2:30:00 AM 2.3 36.14 0.123 7.09 5.73 13.02
1/3/2022 2:45:00 AM 2.26 36.068 0.123 7.08 5.8 13.03
1/3/2022 3:00:00 AM 2.23 36.014 0.117 7.02 6.47 13.05
1/3/2022 3:15:00 AM 2.19 35.942 0.123 7.08 5.65 13.06
1/3/2022 3:30:00 AM 2.15 35.87 0.123 7.02 5.56 13.08
1/3/2022 3:45:00 AM 2.11 35.798 0.123 7.04 5.57 13.1
1/3/2022 4:00:00 AM 2.07 35.726 0.123 7.09 5.72 13.12
1/3/2022 4:15:00 AM 2.04 35.672 0.123 7.05 5.53 13.13
1/3/2022 4:30:00 AM 2.01 35.618 0.123 7.08 5.64 13.14
1/3/2022 4:45:00 AM 1.97 35.546 0.123 7.07 5.63 13.16
1/3/2022 5:00:00 AM 1.93 35.474 0.123 7.08 5.69 13.17
1/3/2022 5:15:00 AM 1.9 35.42 0.123 7.08 5.72 13.19
1/3/2022 5:30:00 AM 1.86 35.348 0.124 7.04 5.62 13.2
1/3/2022 5:45:00 AM 1.81 35.258 0.123 7.08 5.67 13.22
1/3/2022 6:00:00 AM 1.77 35.186 0.123 7.05 5.77 13.23
1/3/2022 6:15:00 AM 1.74 35.132 0.123 7.09 5.68 13.24
1/3/2022 6:30:00 AM 1.71 35.078 0.117 7.02 6.3 13.26
1/3/2022 6:45:00 AM 1.67 35.006 0.123 7.07 5.6 13.26
1/3/2022 7:00:00 AM 1.65 34.97 0.123 7.06 5.59 13.27
1/3/2022 7:15:00 AM 1.62 34.916 0.123 6.99 5.48 13.29
1/3/2022 7:30:00 AM 1.59 34.862 0.123 7.06 5.47 13.3
1/3/2022 7:45:00 AM 1.56 34.808 0.123 7.06 5.58 13.32
1/3/2022 8:00:00 AM 1.54 34.772 0.123 7.02 5.69 13.33
1/3/2022 8:15:00 AM 1.51 34.718 0.123 7.07 6.46 13.35
1/3/2022 8:30:00 AM 1.49 34.682 0.123 7.05 5.83 13.4
1/3/2022 8:45:00 AM 1.47 34.646 0.123 7.06 5.56 13.44
1/3/2022 9:00:00 AM 1.45 34.61 0.123 7.02 5.66 13.49
1/3/2022 9:15:00 AM 1.43 34.574 0.123 7.08 5.66 13.54
1/3/2022 9:30:00 AM 1.42 34.556 0.123 7.09 5.78 13.6
1/3/2022 9:45:00 AM 1.41 34.538 0.123 7.1 5.55 13.69
1/3/2022 10:00:00 AM 1.4 34.52 0.123 7.11 5.61 13.76
1/3/2022 10:15:00 AM 1.4 34.52 0.123 7.13 5.64 13.84
1/3/2022 10:30:00 AM 1.4 34.52 0.119 7.07 6.5 13.94
1/3/2022 10:45:00 AM 1.41 34.538 0.123 7.16 5.52 14.01
1/3/2022 11:00:00 AM 1.41 34.538 0.123 7.16 5.34 14.08
1/3/2022 11:15:00 AM 1.42 34.556 0.123 7.18 5.31 14.14
1/3/2022 11:30:00 AM 1.43 34.574 0.123 7.18 5.22 14.2
1/3/2022 11:45:00 AM 1.44 34.592 0.123 7.16 4.98 14.26
1/3/2022 12:00:00 PM 1.46 34.628 0.123 7.22 5.07 14.33
1/3/2022 12:15:00 PM 1.47 34.646 0.122 7.23 4.93 14.37
1/3/2022 12:30:00 PM 1.48 34.664 0.122 7.23 4.98 14.42
1/3/2022 12:45:00 PM 1.49 34.682 0.122 7.24 5.08 14.46
1/3/2022 1:00:00 PM 1.5 34.7 0.122 7.18 5.13 14.5
1/3/2022 1:15:00 PM 1.51 34.718 0.122 7.26 5.21 14.53
1/3/2022 1:30:00 PM 1.53 34.754 0.122 7.28 5.22 14.56
1/3/2022 1:45:00 PM 1.54 34.772 0.122 7.2 5.13 14.59
1/3/2022 2:00:00 PM 1.55 34.79 0.122 7.28 4.84 14.6
1/3/2022 2:15:00 PM 1.56 34.808 0.122 7.3 4.89 14.62
1/3/2022 2:30:00 PM 1.56 34.808 0.122 7.3 4.75 14.63
1/3/2022 2:45:00 PM 1.55 34.79 0.122 7.3 4.79 14.64
1/3/2022 3:00:00 PM 1.55 34.79 0.122 7.31 4.73 14.64
1/3/2022 3:15:00 PM 1.54 34.772 0.122 7.32 4.89 14.63
1/3/2022 3:30:00 PM 1.52 34.736 0.122 7.31 4.65 14.6
1/3/2022 3:45:00 PM 1.49 34.682 0.122 7.24 4.74 14.58
1/3/2022 4:00:00 PM 1.47 34.646 0.122 7.32 4.71 14.57
1/3/2022 4:15:00 PM 1.43 34.574 0.122 7.31 4.56 14.54
1/3/2022 4:30:00 PM 1.38 34.484 0.122 7.3 4.65 14.48
1/3/2022 4:45:00 PM 1.33 34.394 0.122 7.29 4.67 14.41
1/3/2022 5:00:00 PM 1.28 34.304 0.116 7.2 5.48 14.34
1/3/2022 5:15:00 PM 1.23 34.214 0.122 7.26 4.83 14.28
1/3/2022 5:30:00 PM 1.17 34.106 0.119 7.18 5.52 14.22
1/3/2022 5:45:00 PM 1.11 33.998 0.123 7.18 4.84 14.17
1/3/2022 6:00:00 PM 1.05 33.89 0.123 7.17 4.77 14.12
1/3/2022 6:15:00 PM 0.99 33.782 0.123 7.17 4.79 14.09
1/3/2022 6:30:00 PM 0.93 33.674 0.123 7.19 4.66 14.06
1/3/2022 6:45:00 PM 0.88 33.584 0.123 7.18 4.82 14.03
1/3/2022 7:00:00 PM 0.82 33.476 0.123 7.11 4.85 14.01
1/3/2022 7:15:00 PM 0.76 33.368 0.123 7.18 4.69 13.99
1/3/2022 7:30:00 PM 0.71 33.278 0.12 7.07 5.52 13.97
1/3/2022 7:45:00 PM 0.66 33.188 0.124 7.15 4.83 13.96
1/3/2022 8:00:00 PM 0.61 33.098 0.124 7.07 4.87 13.94
1/3/2022 8:15:00 PM 0.55 32.99 0.124 7.14 4.8 13.94
1/3/2022 8:30:00 PM 0.5 32.9 0.118 7.07 5.52 13.93
1/3/2022 8:45:00 PM 0.45 32.81 0.118 7.05 5.44 13.92
1/3/2022 9:00:00 PM 0.4 32.72 0.124 7.12 4.65 13.92
1/3/2022 9:15:00 PM 0.36 32.648 0.124 7.11 4.66 13.91
1/3/2022 9:30:00 PM 0.33 32.594 0.124 7.12 4.72 13.92
1/3/2022 9:45:00 PM 0.3 32.54 0.124 7.12 4.81 13.93
1/3/2022 10:00:00 PM 0.27 32.486 0.124 7.03 4.65 13.93
1/3/2022 10:15:00 PM 0.24 32.432 0.124 7.06 4.76 13.93
1/3/2022 10:30:00 PM 0.21 32.378 0.125 7.06 4.72 13.93
1/3/2022 10:45:00 PM 0.19 32.342 0.125 7.11 4.69 13.94
1/3/2022 11:00:00 PM 0.18 32.324 0.125 7.11 4.54 13.94
1/3/2022 11:15:00 PM 0.16 32.288 0.125 7.12 4.64 13.94
1/3/2022 11:30:00 PM 0.15 32.27 0.125 7.07 4.73 13.95
1/3/2022 11:45:00 PM 0.13 32.234 0.125 7.08 4.69 13.95
1/4/2022 12:00:00 AM 0.12 32.216 0.125 7.1 4.73 13.95
1/4/2022 12:15:00 AM 0.1 32.18 0.121 6.99 5.51 13.95
1/4/2022 12:30:00 AM 0.08 32.144 0.125 7.09 4.61 13.96
1/4/2022 12:45:00 AM 0.05 32.09 0.126 7.09 4.63 13.97
1/4/2022 1:00:00 AM 0.03 32.054 0.125 7.07 4.96 13.97
1/4/2022 1:15:00 AM 0 32 0.126 7.05 5.07 13.98
1/4/2022 1:30:00 AM -0.02 31.964 0.126 7.04 5.04 13.99
1/4/2022 1:45:00 AM -0.05 31.91 0.126 7.09 5 13.99
1/4/2022 2:00:00 AM -0.07 31.874 0.126 7.09 4.94 14
1/4/2022 2:15:00 AM -0.1 31.82 0.126 7.1 4.84 14.01
1/4/2022 2:30:00 AM -0.12 31.784 0.126 7.01 4.8 14.02
1/4/2022 2:45:00 AM -0.13 31.766 0.126 7.09 4.76 14.01
1/4/2022 3:00:00 AM -0.14 31.748 0.127 7.03 4.97 14.02
1/4/2022 3:15:00 AM -0.14 31.748 0.127 7.09 4.96 14.02
1/4/2022 3:30:00 AM -0.13 31.766 0.127 7.1 5 14.02
1/4/2022 3:45:00 AM -0.13 31.766 0.127 7.11 5.17 14.03
1/4/2022 4:00:00 AM -0.12 31.784 0.128 7.11 5.02 14.03
1/4/2022 4:15:00 AM -0.12 31.784 0.128 7.11 5 14.02
1/4/2022 4:30:00 AM -0.11 31.802 0.129 7.12 4.98 14.02
1/4/2022 4:45:00 AM -0.11 31.802 0.129 7.02 5.27 14.02
1/4/2022 5:00:00 AM -0.11 31.802 0.129 7.1 5.1 14.01
1/4/2022 5:15:00 AM -0.1 31.82 0.13 7.06 5.07 14.01
1/4/2022 5:30:00 AM -0.1 31.82 0.13 7.08 5.1 14.01
1/4/2022 5:45:00 AM -0.09 31.838 0.13 7.13 5.16 14.01
1/4/2022 6:00:00 AM -0.09 31.838 0.13 7.06 5.02 14
1/4/2022 6:15:00 AM -0.09 31.838 0.131 7.09 5.09 14
1/4/2022 6:30:00 AM -0.09 31.838 0.131 7.07 5.09 14
1/4/2022 6:45:00 AM -0.09 31.838 0.131 7.06 5.19 14.01
1/4/2022 7:00:00 AM -0.09 31.838 0.131 7.05 4.95 14.01
1/4/2022 7:15:00 AM -0.08 31.856 0.131 7.11 5.04 14
1/4/2022 7:30:00 AM -0.08 31.856 0.131 7.03 4.92 14
1/4/2022 7:45:00 AM -0.08 31.856 0.132 7.1 4.59 14.01
1/4/2022 8:00:00 AM -0.07 31.874 0.132 7.08 4.72 14.02
1/4/2022 8:15:00 AM -0.07 31.874 0.132 7.04 5 14.05
1/4/2022 8:30:00 AM -0.07 31.874 0.132 7.04 4.83 14.09
1/4/2022 8:45:00 AM -0.06 31.892 0.132 7.08 4.88 14.14
1/4/2022 9:00:00 AM -0.05 31.91 0.131 7.06 5.04 14.21